<?xml version='1.0' encoding='UTF-8'?><gpx version="1.1" creator="JPX - https://github.com/jenetics/jpx" xmlns="http://www.topografix.com/GPX/1/1"><trk><trkseg><trkpt lat="44.539933074084686" lon="10.746235738676567"><ele>209.00000000000003</ele><time>2026-04-08T17:08:26.708Z</time></trkpt><trkpt lat="44.539998304259214" lon="10.746324851857748"><ele>209.0</ele><time>2026-04-08T17:08:29.999Z</time></trkpt><trkpt lat="44.5400642067449" lon="10.746413560572803"><ele>209.0</ele><time>2026-04-08T17:08:32.999Z</time></trkpt><trkpt lat="44.54011873315299" lon="10.746495287400013"><ele>209.0</ele><time>2026-04-08T17:08:34.999Z</time></trkpt><trkpt lat="44.540174714145024" lon="10.746588660064763"><ele>209.00000000000003</ele><time>2026-04-08T17:08:36.999Z</time></trkpt><trkpt lat="44.540237890071715" lon="10.746688402036268"><ele>209.0</ele><time>2026-04-08T17:08:38.999Z</time></trkpt><trkpt lat="44.540289401127204" lon="10.746824501574318"><ele>208.39999999999998</ele><time>2026-04-08T17:08:41Z</time></trkpt><trkpt lat="44.540355071365816" lon="10.74692797143562"><ele>207.8</ele><time>2026-04-08T17:08:43Z</time></trkpt><trkpt lat="44.54040304610732" lon="10.747020272977052"><ele>207.2</ele><time>2026-04-08T17:08:45Z</time></trkpt><trkpt lat="44.54044910091753" lon="10.747133187036097"><ele>206.60000000000002</ele><time>2026-04-08T17:08:47Z</time></trkpt><trkpt lat="44.54050493541374" lon="10.74725480756461"><ele>206.0</ele><time>2026-04-08T17:08:49Z</time></trkpt><trkpt lat="44.54055153657243" lon="10.747362790873684"><ele>205.83333333333334</ele><time>2026-04-08T17:08:51Z</time></trkpt><trkpt lat="44.540597148933635" lon="10.747467179193258"><ele>205.66666666666669</ele><time>2026-04-08T17:08:53Z</time></trkpt><trkpt lat="44.54063613841118" lon="10.747553361528897"><ele>205.5</ele><time>2026-04-08T17:08:55Z</time></trkpt><trkpt lat="44.5406808054645" lon="10.747656989836111"><ele>205.33333333333331</ele><time>2026-04-08T17:08:57Z</time></trkpt><trkpt lat="44.5407264319299" lon="10.747773992576724"><ele>205.16666666666666</ele><time>2026-04-08T17:08:59Z</time></trkpt><trkpt lat="44.54078278362488" lon="10.747894557435895"><ele>205.0</ele><time>2026-04-08T17:09:01Z</time></trkpt><trkpt lat="44.540846804246115" lon="10.748001515983312"><ele>204.2</ele><time>2026-04-08T17:09:03Z</time></trkpt><trkpt lat="44.540916929540714" lon="10.748105407669277"><ele>203.4</ele><time>2026-04-08T17:09:05Z</time></trkpt><trkpt lat="44.54100026960855" lon="10.748210525742763"><ele>202.60000000000002</ele><time>2026-04-08T17:09:07Z</time></trkpt><trkpt lat="44.54109828139739" lon="10.74830474057714"><ele>201.8</ele><time>2026-04-08T17:09:09Z</time></trkpt><trkpt lat="44.54115182347987" lon="10.748353148690077"><ele>201.0</ele><time>2026-04-08T17:09:10Z</time></trkpt><trkpt lat="44.54120682557189" lon="10.74839920746617"><ele>201.33333333333334</ele><time>2026-04-08T17:09:11Z</time></trkpt><trkpt lat="44.54130383793227" lon="10.7484711901792"><ele>201.66666666666669</ele><time>2026-04-08T17:09:13Z</time></trkpt><trkpt lat="44.5413963673781" lon="10.748565863210322"><ele>202.0</ele><time>2026-04-08T17:09:15Z</time></trkpt><trkpt lat="44.541445343219216" lon="10.748626785025044"><ele>202.33333333333334</ele><time>2026-04-08T17:09:16Z</time></trkpt><trkpt lat="44.54148443290498" lon="10.74869865739725"><ele>202.66666666666669</ele><time>2026-04-08T17:09:17Z</time></trkpt><trkpt lat="44.54151754286445" lon="10.74877413579965"><ele>203.0</ele><time>2026-04-08T17:09:18Z</time></trkpt><trkpt lat="44.541545247912666" lon="10.74885563403742"><ele>203.0</ele><time>2026-04-08T17:09:19Z</time></trkpt><trkpt lat="44.54158578396415" lon="10.749018650672253"><ele>203.0</ele><time>2026-04-08T17:09:21Z</time></trkpt><trkpt lat="44.5416142444848" lon="10.749177584740123"><ele>203.0</ele><time>2026-04-08T17:09:23Z</time></trkpt><trkpt lat="44.54165123722836" lon="10.749337979320442"><ele>203.0</ele><time>2026-04-08T17:09:25Z</time></trkpt><trkpt lat="44.54167007343358" lon="10.749503861291027"><ele>202.4</ele><time>2026-04-08T17:09:27Z</time></trkpt><trkpt lat="44.541712730419825" lon="10.749651708454152"><ele>201.8</ele><time>2026-04-08T17:09:29.001Z</time></trkpt><trkpt lat="44.54172685058973" lon="10.749796109402638"><ele>201.2</ele><time>2026-04-08T17:09:31.001Z</time></trkpt><trkpt lat="44.541743892906226" lon="10.749920280757511"><ele>200.6</ele><time>2026-04-08T17:09:33.001Z</time></trkpt><trkpt lat="44.54178570244614" lon="10.750058384967037"><ele>200.0</ele><time>2026-04-08T17:09:35.001Z</time></trkpt><trkpt lat="44.54181802677557" lon="10.75020627330598"><ele>199.2</ele><time>2026-04-08T17:09:37.001Z</time></trkpt><trkpt lat="44.54184623827786" lon="10.750372217520427"><ele>198.4</ele><time>2026-04-08T17:09:39.001Z</time></trkpt><trkpt lat="44.54186492864208" lon="10.750459245040688"><ele>197.60000000000002</ele><time>2026-04-08T17:09:40.001Z</time></trkpt><trkpt lat="44.54189787809393" lon="10.750632680580505"><ele>196.8</ele><time>2026-04-08T17:09:42.001Z</time></trkpt><trkpt lat="44.5419129870883" lon="10.750721670131028"><ele>196.0</ele><time>2026-04-08T17:09:43.001Z</time></trkpt><trkpt lat="44.541943319605444" lon="10.75089550437767"><ele>196.0</ele><time>2026-04-08T17:09:45.001Z</time></trkpt><trkpt lat="44.54195582344893" lon="10.75098916412328"><ele>196.0</ele><time>2026-04-08T17:09:46.001Z</time></trkpt><trkpt lat="44.54196620296354" lon="10.751086182108125"><ele>196.0</ele><time>2026-04-08T17:09:47.001Z</time></trkpt><trkpt lat="44.5419813690405" lon="10.75118097827766"><ele>196.0</ele><time>2026-04-08T17:09:48.001Z</time></trkpt><trkpt lat="44.541992397507734" lon="10.751277624496378"><ele>196.0</ele><time>2026-04-08T17:09:49.001Z</time></trkpt><trkpt lat="44.54200562739339" lon="10.751372325152555"><ele>196.0</ele><time>2026-04-08T17:09:50.001Z</time></trkpt><trkpt lat="44.54201506193756" lon="10.7514723149287"><ele>196.0</ele><time>2026-04-08T17:09:51.001Z</time></trkpt><trkpt lat="44.54202513291449" lon="10.75156882692189"><ele>195.71428571428572</ele><time>2026-04-08T17:09:52.001Z</time></trkpt><trkpt lat="44.54203556780734" lon="10.751665285308478"><ele>195.42857142857144</ele><time>2026-04-08T17:09:53.001Z</time></trkpt><trkpt lat="44.54204567260187" lon="10.751761775332719"><ele>195.14285714285714</ele><time>2026-04-08T17:09:54.001Z</time></trkpt><trkpt lat="44.54205543467737" lon="10.751864936435902"><ele>194.85714285714286</ele><time>2026-04-08T17:09:55.001Z</time></trkpt><trkpt lat="44.54206556948612" lon="10.751969800927881"><ele>194.57142857142858</ele><time>2026-04-08T17:09:56.001Z</time></trkpt><trkpt lat="44.54207657780651" lon="10.752072295405878"><ele>194.28571428571428</ele><time>2026-04-08T17:09:57.001Z</time></trkpt><trkpt lat="44.5420852868167" lon="10.752173592752484"><ele>194.0</ele><time>2026-04-08T17:09:58.001Z</time></trkpt><trkpt lat="44.54209368501412" lon="10.752275812479672"><ele>194.0</ele><time>2026-04-08T17:09:59.001Z</time></trkpt><trkpt lat="44.542108750325795" lon="10.752376042436966"><ele>194.0</ele><time>2026-04-08T17:10:00.001Z</time></trkpt><trkpt lat="44.54212269296382" lon="10.752476256064584"><ele>194.0</ele><time>2026-04-08T17:10:01.001Z</time></trkpt><trkpt lat="44.54213197555101" lon="10.752571149372613"><ele>194.0</ele><time>2026-04-08T17:10:02.001Z</time></trkpt><trkpt lat="44.54214248920453" lon="10.752677238869106"><ele>194.0</ele><time>2026-04-08T17:10:03.001Z</time></trkpt><trkpt lat="44.54214813018531" lon="10.752773758643615"><ele>194.0</ele><time>2026-04-08T17:10:04.001Z</time></trkpt><trkpt lat="44.54216240696471" lon="10.752873147172364"><ele>194.0</ele><time>2026-04-08T17:10:05.001Z</time></trkpt><trkpt lat="44.542169135678755" lon="10.752981329640773"><ele>194.0</ele><time>2026-04-08T17:10:06.001Z</time></trkpt><trkpt lat="44.54217776678516" lon="10.753079421138175"><ele>194.0</ele><time>2026-04-08T17:10:07.001Z</time></trkpt><trkpt lat="44.54218758758006" lon="10.753177248582302"><ele>194.0</ele><time>2026-04-08T17:10:08.001Z</time></trkpt><trkpt lat="44.542197509294624" lon="10.753278443947442"><ele>194.0</ele><time>2026-04-08T17:10:09.001Z</time></trkpt><trkpt lat="44.5422074364652" lon="10.75337655902096"><ele>194.0</ele><time>2026-04-08T17:10:10.001Z</time></trkpt><trkpt lat="44.542219064005835" lon="10.753475078003056"><ele>194.0</ele><time>2026-04-08T17:10:11.001Z</time></trkpt><trkpt lat="44.54222951772054" lon="10.753568424473146"><ele>194.0</ele><time>2026-04-08T17:10:12.001Z</time></trkpt><trkpt lat="44.54224223568397" lon="10.753664152065152"><ele>193.39999999999998</ele><time>2026-04-08T17:10:13.001Z</time></trkpt><trkpt lat="44.542263328752846" lon="10.753748791642147"><ele>192.8</ele><time>2026-04-08T17:10:14.001Z</time></trkpt><trkpt lat="44.54230398006935" lon="10.753914458439551"><ele>192.2</ele><time>2026-04-08T17:10:16.001Z</time></trkpt><trkpt lat="44.542353886320754" lon="10.754069147273423"><ele>191.60000000000002</ele><time>2026-04-08T17:10:18.001Z</time></trkpt><trkpt lat="44.54237735448096" lon="10.754151485603545"><ele>191.0</ele><time>2026-04-08T17:10:19.001Z</time></trkpt><trkpt lat="44.54242310295822" lon="10.754307755304525"><ele>191.0</ele><time>2026-04-08T17:10:21.001Z</time></trkpt><trkpt lat="44.54246344225772" lon="10.754459563203387"><ele>191.0</ele><time>2026-04-08T17:10:23.001Z</time></trkpt><trkpt lat="44.542453002289946" lon="10.754598846011055"><ele>191.0</ele><time>2026-04-08T17:10:25.001Z</time></trkpt><trkpt lat="44.54242768484679" lon="10.754683453804745"><ele>191.0</ele><time>2026-04-08T17:10:26.001Z</time></trkpt><trkpt lat="44.54236863015384" lon="10.754816516121426"><ele>191.0</ele><time>2026-04-08T17:10:28.001Z</time></trkpt><trkpt lat="44.54230421429358" lon="10.754959749453553"><ele>191.0</ele><time>2026-04-08T17:10:30.001Z</time></trkpt><trkpt lat="44.542242081272995" lon="10.755104987829181"><ele>191.0</ele><time>2026-04-08T17:10:32.001Z</time></trkpt><trkpt lat="44.54217637808493" lon="10.75524781041955"><ele>191.0</ele><time>2026-04-08T17:10:34.001Z</time></trkpt><trkpt lat="44.54211200807594" lon="10.755391301017303"><ele>191.0</ele><time>2026-04-08T17:10:36.001Z</time></trkpt><trkpt lat="44.54209007538494" lon="10.755476511979236"><ele>191.0</ele><time>2026-04-08T17:10:37.001Z</time></trkpt><trkpt lat="44.54209040345397" lon="10.755641435434939"><ele>191.0</ele><time>2026-04-08T17:10:39Z</time></trkpt><trkpt lat="44.5421434918673" lon="10.755805585243662"><ele>191.0</ele><time>2026-04-08T17:10:41Z</time></trkpt><trkpt lat="44.54217856046094" lon="10.755884056690828"><ele>191.0</ele><time>2026-04-08T17:10:42Z</time></trkpt><trkpt lat="44.542211061823906" lon="10.75597075621464"><ele>191.0</ele><time>2026-04-08T17:10:43Z</time></trkpt><trkpt lat="44.542245500207535" lon="10.756058339565834"><ele>191.0</ele><time>2026-04-08T17:10:44Z</time></trkpt><trkpt lat="44.54227779458173" lon="10.75615467225733"><ele>191.0</ele><time>2026-04-08T17:10:45Z</time></trkpt><trkpt lat="44.54229511858847" lon="10.75625952172524"><ele>190.0</ele><time>2026-04-08T17:10:46Z</time></trkpt><trkpt lat="44.54231452624148" lon="10.756369333492716"><ele>189.0</ele><time>2026-04-08T17:10:47Z</time></trkpt><trkpt lat="44.54232947747415" lon="10.756476321727167"><ele>188.0</ele><time>2026-04-08T17:10:48Z</time></trkpt><trkpt lat="44.54234273597355" lon="10.756581885316733"><ele>187.0</ele><time>2026-04-08T17:10:49Z</time></trkpt><trkpt lat="44.54236053892968" lon="10.756687135187427"><ele>186.0</ele><time>2026-04-08T17:10:50Z</time></trkpt><trkpt lat="44.54237791947368" lon="10.756788236703759"><ele>185.0</ele><time>2026-04-08T17:10:51Z</time></trkpt><trkpt lat="44.54239456457541" lon="10.756886239642517"><ele>183.66666666666666</ele><time>2026-04-08T17:10:52Z</time></trkpt><trkpt lat="44.54241127237625" lon="10.756981491934669"><ele>182.33333333333331</ele><time>2026-04-08T17:10:53Z</time></trkpt><trkpt lat="44.54245021253189" lon="10.757132576948049"><ele>181.0</ele><time>2026-04-08T17:10:55Z</time></trkpt><trkpt lat="44.54250210504212" lon="10.75725368147829"><ele>179.66666666666666</ele><time>2026-04-08T17:10:57Z</time></trkpt><trkpt lat="44.54250488703583" lon="10.757359748198462"><ele>178.33333333333334</ele><time>2026-04-08T17:10:59Z</time></trkpt><trkpt lat="44.542426676793866" lon="10.7574044532414"><ele>177.0</ele><time>2026-04-08T17:11:01Z</time></trkpt><trkpt lat="44.54233560978922" lon="10.757280847284829"><ele>177.0</ele><time>2026-04-08T17:11:03Z</time></trkpt><trkpt lat="44.542300921421536" lon="10.75719430567645"><ele>177.0</ele><time>2026-04-08T17:11:04Z</time></trkpt><trkpt lat="44.542231975178254" lon="10.757051559251254"><ele>177.0</ele><time>2026-04-08T17:11:06Z</time></trkpt><trkpt lat="44.54219008886099" lon="10.756981703795457"><ele>177.0</ele><time>2026-04-08T17:11:07Z</time></trkpt><trkpt lat="44.54214408795443" lon="10.756907606076398"><ele>177.0</ele><time>2026-04-08T17:11:08Z</time></trkpt><trkpt lat="44.54209495384314" lon="10.756834202318672"><ele>177.0</ele><time>2026-04-08T17:11:09Z</time></trkpt><trkpt lat="44.542038841384766" lon="10.756760929141018"><ele>175.0</ele><time>2026-04-08T17:11:10Z</time></trkpt><trkpt lat="44.541988752406276" lon="10.756695777551922"><ele>173.0</ele><time>2026-04-08T17:11:11Z</time></trkpt><trkpt lat="44.5419331017958" lon="10.756619924907417"><ele>171.0</ele><time>2026-04-08T17:11:12Z</time></trkpt><trkpt lat="44.54186943269767" lon="10.756550585498507"><ele>169.0</ele><time>2026-04-08T17:11:13Z</time></trkpt><trkpt lat="44.54180590833383" lon="10.756480651601276"><ele>167.0</ele><time>2026-04-08T17:11:14Z</time></trkpt><trkpt lat="44.54174674568803" lon="10.756402067037513"><ele>165.0</ele><time>2026-04-08T17:11:15Z</time></trkpt><trkpt lat="44.54168913988476" lon="10.756318690443322"><ele>165.0</ele><time>2026-04-08T17:11:16Z</time></trkpt><trkpt lat="44.54162940986544" lon="10.75623359864337"><ele>165.0</ele><time>2026-04-08T17:11:17Z</time></trkpt><trkpt lat="44.541570821382656" lon="10.75614317960895"><ele>165.0</ele><time>2026-04-08T17:11:18Z</time></trkpt><trkpt lat="44.54151168675747" lon="10.756047638214714"><ele>165.0</ele><time>2026-04-08T17:11:19Z</time></trkpt><trkpt lat="44.54145657150256" lon="10.755950449388992"><ele>165.0</ele><time>2026-04-08T17:11:20Z</time></trkpt><trkpt lat="44.541398021578274" lon="10.755851548900026"><ele>165.0</ele><time>2026-04-08T17:11:21Z</time></trkpt><trkpt lat="44.541336758630436" lon="10.755755165198751"><ele>167.6</ele><time>2026-04-08T17:11:22Z</time></trkpt><trkpt lat="44.54127820439141" lon="10.755654644097561"><ele>170.2</ele><time>2026-04-08T17:11:23Z</time></trkpt><trkpt lat="44.541218683541054" lon="10.755554915071116"><ele>172.8</ele><time>2026-04-08T17:11:24Z</time></trkpt><trkpt lat="44.54116028067206" lon="10.755452546186207"><ele>175.4</ele><time>2026-04-08T17:11:25Z</time></trkpt><trkpt lat="44.541097840651034" lon="10.755342770068204"><ele>178.0</ele><time>2026-04-08T17:11:26Z</time></trkpt><trkpt lat="44.54103333117764" lon="10.755236498840723"><ele>174.66666666666669</ele><time>2026-04-08T17:11:27Z</time></trkpt><trkpt lat="44.54097522343916" lon="10.755126789508903"><ele>171.33333333333334</ele><time>2026-04-08T17:11:28Z</time></trkpt><trkpt lat="44.54093251247139" lon="10.755022217926669"><ele>168.0</ele><time>2026-04-08T17:11:29Z</time></trkpt><trkpt lat="44.54090582832215" lon="10.754917748038554"><ele>164.66666666666666</ele><time>2026-04-08T17:11:30Z</time></trkpt><trkpt lat="44.54088211017125" lon="10.754827608269657"><ele>161.33333333333331</ele><time>2026-04-08T17:11:31Z</time></trkpt><trkpt lat="44.54086962186043" lon="10.754731099274712"><ele>158.0</ele><time>2026-04-08T17:11:32Z</time></trkpt><trkpt lat="44.54086007889444" lon="10.754640938535834"><ele>158.0</ele><time>2026-04-08T17:11:33Z</time></trkpt><trkpt lat="44.54080521441312" lon="10.754524202231229"><ele>158.0</ele><time>2026-04-08T17:11:35Z</time></trkpt><trkpt lat="44.54069621492713" lon="10.754545602772593"><ele>158.0</ele><time>2026-04-08T17:11:37Z</time></trkpt><trkpt lat="44.54065257644694" lon="10.754709861590802"><ele>158.0</ele><time>2026-04-08T17:11:39Z</time></trkpt><trkpt lat="44.540673064040995" lon="10.7548039090747"><ele>158.0</ele><time>2026-04-08T17:11:40Z</time></trkpt><trkpt lat="44.540724491736874" lon="10.754967668630753"><ele>158.00000000000003</ele><time>2026-04-08T17:11:42Z</time></trkpt><trkpt lat="44.54074575990748" lon="10.75505471005512"><ele>158.0</ele><time>2026-04-08T17:11:43Z</time></trkpt><trkpt lat="44.54076212152942" lon="10.7551477112196"><ele>158.0</ele><time>2026-04-08T17:11:44Z</time></trkpt><trkpt lat="44.54077917613212" lon="10.75524432898123"><ele>158.0</ele><time>2026-04-08T17:11:45Z</time></trkpt><trkpt lat="44.54079395491583" lon="10.755332756585862"><ele>158.0</ele><time>2026-04-08T17:11:46Z</time></trkpt><trkpt lat="44.54081634690516" lon="10.755445106354529"><ele>158.00000000000003</ele><time>2026-04-08T17:11:47Z</time></trkpt><trkpt lat="44.54083396798411" lon="10.755548733923675"><ele>158.0</ele><time>2026-04-08T17:11:48Z</time></trkpt><trkpt lat="44.540853336446645" lon="10.75567093233822"><ele>156.83333333333331</ele><time>2026-04-08T17:11:49Z</time></trkpt><trkpt lat="44.54087317629014" lon="10.75578053553927"><ele>155.66666666666666</ele><time>2026-04-08T17:11:50Z</time></trkpt><trkpt lat="44.54089720078675" lon="10.755900375507396"><ele>154.5</ele><time>2026-04-08T17:11:51Z</time></trkpt><trkpt lat="44.540918899887835" lon="10.756015795151638"><ele>153.33333333333334</ele><time>2026-04-08T17:11:52Z</time></trkpt><trkpt lat="44.540943403151786" lon="10.756143899130457"><ele>152.16666666666669</ele><time>2026-04-08T17:11:53Z</time></trkpt><trkpt lat="44.54097073324764" lon="10.756267608360144"><ele>151.0</ele><time>2026-04-08T17:11:54Z</time></trkpt><trkpt lat="44.54099354516116" lon="10.756402546611739"><ele>149.6</ele><time>2026-04-08T17:11:55Z</time></trkpt><trkpt lat="44.54101534534043" lon="10.756537750473111"><ele>148.2</ele><time>2026-04-08T17:11:56Z</time></trkpt><trkpt lat="44.54104050805387" lon="10.756675614287797"><ele>146.8</ele><time>2026-04-08T17:11:57Z</time></trkpt><trkpt lat="44.54106486055905" lon="10.756815306379782"><ele>145.4</ele><time>2026-04-08T17:11:58Z</time></trkpt><trkpt lat="44.54108271473006" lon="10.756962565449248"><ele>144.0</ele><time>2026-04-08T17:11:59Z</time></trkpt><trkpt lat="44.541088581100055" lon="10.757112664509146"><ele>143.0</ele><time>2026-04-08T17:12:00Z</time></trkpt><trkpt lat="44.541084383090606" lon="10.757269617260055"><ele>142.0</ele><time>2026-04-08T17:12:01Z</time></trkpt><trkpt lat="44.54107499072846" lon="10.757425556763037"><ele>141.0</ele><time>2026-04-08T17:12:02Z</time></trkpt><trkpt lat="44.541057256102924" lon="10.757581764272143"><ele>140.0</ele><time>2026-04-08T17:12:03Z</time></trkpt><trkpt lat="44.54104012905427" lon="10.757738986365839"><ele>139.16666666666666</ele><time>2026-04-08T17:12:04Z</time></trkpt><trkpt lat="44.54102497674248" lon="10.757882518507008"><ele>138.33333333333331</ele><time>2026-04-08T17:12:05Z</time></trkpt><trkpt lat="44.54101316408851" lon="10.758010883666108"><ele>137.5</ele><time>2026-04-08T17:12:06Z</time></trkpt><trkpt lat="44.54100567291691" lon="10.758131503256816"><ele>136.66666666666666</ele><time>2026-04-08T17:12:07Z</time></trkpt><trkpt lat="44.54100308625201" lon="10.758222510321247"><ele>135.83333333333334</ele><time>2026-04-08T17:12:08Z</time></trkpt><trkpt lat="44.54100197678954" lon="10.758364705688596"><ele>135.0</ele><time>2026-04-08T17:12:10Z</time></trkpt><trkpt lat="44.54098167093195" lon="10.758527622174233"><ele>134.28571428571428</ele><time>2026-04-08T17:12:12Z</time></trkpt><trkpt lat="44.54096478893657" lon="10.75862222392625"><ele>133.57142857142856</ele><time>2026-04-08T17:12:13Z</time></trkpt><trkpt lat="44.54094151180721" lon="10.758715895754074"><ele>132.85714285714286</ele><time>2026-04-08T17:12:14Z</time></trkpt><trkpt lat="44.54093007321832" lon="10.7588149693712"><ele>132.14285714285714</ele><time>2026-04-08T17:12:15Z</time></trkpt><trkpt lat="44.54092765012605" lon="10.758914720410324"><ele>131.42857142857144</ele><time>2026-04-08T17:12:16Z</time></trkpt><trkpt lat="44.54094838856315" lon="10.759014243458168"><ele>130.71428571428572</ele><time>2026-04-08T17:12:17Z</time></trkpt><trkpt lat="44.54099471065872" lon="10.759099136570569"><ele>130.0</ele><time>2026-04-08T17:12:18Z</time></trkpt><trkpt lat="44.541052432644555" lon="10.759163192258393"><ele>130.0</ele><time>2026-04-08T17:12:19Z</time></trkpt><trkpt lat="44.54112998574635" lon="10.759245902705473"><ele>130.0</ele><time>2026-04-08T17:12:21Z</time></trkpt><trkpt lat="44.5412107753774" lon="10.75936498268984"><ele>130.0</ele><time>2026-04-08T17:12:23Z</time></trkpt><trkpt lat="44.541245561851746" lon="10.75948831159318"><ele>130.0</ele><time>2026-04-08T17:12:25Z</time></trkpt><trkpt lat="44.54119983658236" lon="10.75963406314447"><ele>130.0</ele><time>2026-04-08T17:12:27Z</time></trkpt><trkpt lat="44.54113582714267" lon="10.759712198955675"><ele>129.33333333333334</ele><time>2026-04-08T17:12:29Z</time></trkpt><trkpt lat="44.541114892190016" lon="10.759796447077958"><ele>128.66666666666669</ele><time>2026-04-08T17:12:33Z</time></trkpt><trkpt lat="44.54117278114479" lon="10.759847948790584"><ele>128.0</ele><time>2026-04-08T17:12:37Z</time></trkpt><trkpt lat="44.54125101939844" lon="10.75988841788323"><ele>127.33333333333334</ele><time>2026-04-08T17:12:39Z</time></trkpt><trkpt lat="44.54132631068906" lon="10.7599361234445"><ele>126.66666666666667</ele><time>2026-04-08T17:12:41Z</time></trkpt><trkpt lat="44.54142793329457" lon="10.759979752734909"><ele>126.0</ele><time>2026-04-08T17:12:43Z</time></trkpt><trkpt lat="44.541535292337166" lon="10.76003045499018"><ele>126.0</ele><time>2026-04-08T17:12:45Z</time></trkpt><trkpt lat="44.54159416872941" lon="10.76006329364921"><ele>126.0</ele><time>2026-04-08T17:12:46Z</time></trkpt><trkpt lat="44.54170859917277" lon="10.76012446860717"><ele>126.0</ele><time>2026-04-08T17:12:48Z</time></trkpt><trkpt lat="44.54182244516272" lon="10.760151736862392"><ele>126.0</ele><time>2026-04-08T17:12:50Z</time></trkpt><trkpt lat="44.541912379911885" lon="10.76020105056087"><ele>126.0</ele><time>2026-04-08T17:12:52Z</time></trkpt><trkpt lat="44.54198691061566" lon="10.76028035678623"><ele>125.33333333333333</ele><time>2026-04-08T17:12:54Z</time></trkpt><trkpt lat="44.54204270868853" lon="10.760361671638798"><ele>124.66666666666666</ele><time>2026-04-08T17:12:56Z</time></trkpt><trkpt lat="44.54211083377391" lon="10.760461364643987"><ele>124.0</ele><time>2026-04-08T17:12:58Z</time></trkpt><trkpt lat="44.54215639801232" lon="10.760533968387794"><ele>123.33333333333333</ele><time>2026-04-08T17:13:00Z</time></trkpt><trkpt lat="44.54222579736981" lon="10.760575595989557"><ele>122.66666666666666</ele><time>2026-04-08T17:13:03Z</time></trkpt><trkpt lat="44.54228379347293" lon="10.760627075373058"><ele>122.0</ele><time>2026-04-08T17:13:05Z</time></trkpt><trkpt lat="44.542341959774106" lon="10.760721949312014"><ele>121.39999999999999</ele><time>2026-04-08T17:13:07Z</time></trkpt><trkpt lat="44.54239891706594" lon="10.760808107794318"><ele>120.79999999999998</ele><time>2026-04-08T17:13:09Z</time></trkpt><trkpt lat="44.54247485975346" lon="10.760862895782168"><ele>120.2</ele><time>2026-04-08T17:13:11Z</time></trkpt><trkpt lat="44.542553825692906" lon="10.760943209370312"><ele>119.6</ele><time>2026-04-08T17:13:13Z</time></trkpt><trkpt lat="44.54264111403279" lon="10.76102714911834"><ele>119.0</ele><time>2026-04-08T17:13:15Z</time></trkpt><trkpt lat="44.54273543856216" lon="10.76111356468369"><ele>119.0</ele><time>2026-04-08T17:13:17Z</time></trkpt><trkpt lat="44.542823382767374" lon="10.761200395020223"><ele>119.0</ele><time>2026-04-08T17:13:19Z</time></trkpt><trkpt lat="44.542905051030814" lon="10.76127236762284"><ele>119.0</ele><time>2026-04-08T17:13:21Z</time></trkpt><trkpt lat="44.542949748290916" lon="10.761348249724087"><ele>119.0</ele><time>2026-04-08T17:13:26Z</time></trkpt><trkpt lat="44.5430279536392" lon="10.761432597884903"><ele>119.0</ele><time>2026-04-08T17:13:29Z</time></trkpt><trkpt lat="44.54310073683705" lon="10.761500249596251"><ele>119.6</ele><time>2026-04-08T17:13:31Z</time></trkpt><trkpt lat="44.543190537469606" lon="10.761554647177686"><ele>120.2</ele><time>2026-04-08T17:13:33Z</time></trkpt><trkpt lat="44.54326858373996" lon="10.761639119877703"><ele>120.79999999999998</ele><time>2026-04-08T17:13:35Z</time></trkpt><trkpt lat="44.543342853293915" lon="10.76171892757764"><ele>121.39999999999999</ele><time>2026-04-08T17:13:37Z</time></trkpt><trkpt lat="44.54341537467841" lon="10.761787720127217"><ele>122.0</ele><time>2026-04-08T17:13:39Z</time></trkpt><trkpt lat="44.543486181517096" lon="10.76185361814239"><ele>121.66666666666666</ele><time>2026-04-08T17:13:41Z</time></trkpt><trkpt lat="44.54355507805095" lon="10.761922779773819"><ele>121.33333333333333</ele><time>2026-04-08T17:13:43Z</time></trkpt><trkpt lat="44.54361713472918" lon="10.761984551823131"><ele>121.0</ele><time>2026-04-08T17:13:45Z</time></trkpt><trkpt lat="44.543683506731966" lon="10.762042750261498"><ele>120.66666666666666</ele><time>2026-04-08T17:13:47Z</time></trkpt><trkpt lat="44.54374749549925" lon="10.762098833388848"><ele>120.33333333333333</ele><time>2026-04-08T17:13:49Z</time></trkpt><trkpt lat="44.54380881389387" lon="10.76215905133763"><ele>120.0</ele><time>2026-04-08T17:13:51Z</time></trkpt><trkpt lat="44.5438705624044" lon="10.762230687118159"><ele>120.2</ele><time>2026-04-08T17:13:53Z</time></trkpt><trkpt lat="44.54391945004347" lon="10.762320804503366"><ele>120.4</ele><time>2026-04-08T17:13:55Z</time></trkpt><trkpt lat="44.5439693760203" lon="10.762448471980539"><ele>120.6</ele><time>2026-04-08T17:13:57Z</time></trkpt><trkpt lat="44.544042498228485" lon="10.762571367218037"><ele>120.8</ele><time>2026-04-08T17:13:59Z</time></trkpt><trkpt lat="44.54411026727528" lon="10.76270805500364"><ele>121.0</ele><time>2026-04-08T17:14:01Z</time></trkpt><trkpt lat="44.544148149960094" lon="10.76286955811882"><ele>121.0</ele><time>2026-04-08T17:14:03Z</time></trkpt><trkpt lat="44.54419303062464" lon="10.76303355264147"><ele>121.0</ele><time>2026-04-08T17:14:05Z</time></trkpt><trkpt lat="44.544235357073205" lon="10.763195004369924"><ele>121.0</ele><time>2026-04-08T17:14:07Z</time></trkpt><trkpt lat="44.54427717781965" lon="10.763358176803813"><ele>121.0</ele><time>2026-04-08T17:14:09Z</time></trkpt><trkpt lat="44.54432089843505" lon="10.763524708973573"><ele>121.0</ele><time>2026-04-08T17:14:11Z</time></trkpt><trkpt lat="44.54436403060122" lon="10.763686700846"><ele>121.0</ele><time>2026-04-08T17:14:13Z</time></trkpt><trkpt lat="44.54441164579088" lon="10.763843314270185"><ele>121.0</ele><time>2026-04-08T17:14:15Z</time></trkpt><trkpt lat="44.544451737598486" lon="10.764002963423385"><ele>121.0</ele><time>2026-04-08T17:14:17Z</time></trkpt><trkpt lat="44.54449360419587" lon="10.764156852027593"><ele>121.0</ele><time>2026-04-08T17:14:19Z</time></trkpt><trkpt lat="44.54453808521636" lon="10.764310661088881"><ele>121.0</ele><time>2026-04-08T17:14:21Z</time></trkpt><trkpt lat="44.54457712388459" lon="10.764460571753572"><ele>121.0</ele><time>2026-04-08T17:14:23Z</time></trkpt><trkpt lat="44.54462307668265" lon="10.764602834509573"><ele>121.0</ele><time>2026-04-08T17:14:25Z</time></trkpt><trkpt lat="44.54463177827233" lon="10.764738440313952"><ele>121.0</ele><time>2026-04-08T17:14:27Z</time></trkpt><trkpt lat="44.54462185724207" lon="10.764836668328346"><ele>120.83333333333334</ele><time>2026-04-08T17:14:29Z</time></trkpt><trkpt lat="44.54465822856645" lon="10.764911269440404"><ele>120.66666666666667</ele><time>2026-04-08T17:14:31Z</time></trkpt><trkpt lat="44.54467253552648" lon="10.765033674912281"><ele>120.5</ele><time>2026-04-08T17:14:34Z</time></trkpt><trkpt lat="44.5446119566946" lon="10.765118050506503"><ele>120.33333333333334</ele><time>2026-04-08T17:14:36Z</time></trkpt><trkpt lat="44.54457865129973" lon="10.76523785874692"><ele>120.16666666666667</ele><time>2026-04-08T17:14:38Z</time></trkpt><trkpt lat="44.54455055440848" lon="10.765363403310864"><ele>120.0</ele><time>2026-04-08T17:14:40Z</time></trkpt><trkpt lat="44.54453149650373" lon="10.765492999103019"><ele>119.5</ele><time>2026-04-08T17:14:42Z</time></trkpt><trkpt lat="44.544509258236936" lon="10.765623521100162"><ele>119.0</ele><time>2026-04-08T17:14:44Z</time></trkpt><trkpt lat="44.54448957870123" lon="10.765751996506207"><ele>118.5</ele><time>2026-04-08T17:14:46Z</time></trkpt><trkpt lat="44.54448540015537" lon="10.76588307227389"><ele>118.0</ele><time>2026-04-08T17:14:48Z</time></trkpt><trkpt lat="44.54448166025704" lon="10.766003437160737"><ele>117.5</ele><time>2026-04-08T17:14:50Z</time></trkpt><trkpt lat="44.544428987030955" lon="10.76607961874842"><ele>117.0</ele><time>2026-04-08T17:14:53Z</time></trkpt><trkpt lat="44.54435670136634" lon="10.766027554114531"><ele>117.0</ele><time>2026-04-08T17:14:55Z</time></trkpt><trkpt lat="44.54429606672308" lon="10.765958122002198"><ele>116.99999999999999</ele><time>2026-04-08T17:14:57Z</time></trkpt><trkpt lat="44.54421550319945" lon="10.765900208322824"><ele>116.99999999999999</ele><time>2026-04-08T17:14:59Z</time></trkpt><trkpt lat="44.54412356586652" lon="10.765838034550235"><ele>117.0</ele><time>2026-04-08T17:15:01Z</time></trkpt><trkpt lat="44.54402624615421" lon="10.765789636302754"><ele>117.0</ele><time>2026-04-08T17:15:03Z</time></trkpt><trkpt lat="44.543929956612715" lon="10.76573487075918"><ele>117.0</ele><time>2026-04-08T17:15:05Z</time></trkpt><trkpt lat="44.543850280876846" lon="10.765645734053523"><ele>116.99999999999999</ele><time>2026-04-08T17:15:07Z</time></trkpt><trkpt lat="44.54377759772233" lon="10.765538107246092"><ele>116.99999999999999</ele><time>2026-04-08T17:15:09Z</time></trkpt><trkpt lat="44.54368652738488" lon="10.765469229497045"><ele>117.0</ele><time>2026-04-08T17:15:11Z</time></trkpt><trkpt lat="44.543597613048554" lon="10.76540440995508"><ele>117.0</ele><time>2026-04-08T17:15:13Z</time></trkpt><trkpt lat="44.543515204981745" lon="10.765324822024828"><ele>117.16666666666667</ele><time>2026-04-08T17:15:15Z</time></trkpt><trkpt lat="44.543429891202884" lon="10.765251025905274"><ele>117.33333333333334</ele><time>2026-04-08T17:15:17Z</time></trkpt><trkpt lat="44.54334634572951" lon="10.765189583579641"><ele>117.5</ele><time>2026-04-08T17:15:19Z</time></trkpt><trkpt lat="44.5432780395922" lon="10.765120119983823"><ele>117.66666666666667</ele><time>2026-04-08T17:15:21Z</time></trkpt><trkpt lat="44.54320313381933" lon="10.765072190726455"><ele>117.83333333333334</ele><time>2026-04-08T17:15:23Z</time></trkpt><trkpt lat="44.54311994201669" lon="10.765066547452552"><ele>118.0</ele><time>2026-04-08T17:15:25Z</time></trkpt><trkpt lat="44.54305503601872" lon="10.765174160524374"><ele>118.00000000000001</ele><time>2026-04-08T17:15:27Z</time></trkpt><trkpt lat="44.54300191596127" lon="10.765304865706367"><ele>118.0</ele><time>2026-04-08T17:15:29Z</time></trkpt><trkpt lat="44.54295335893689" lon="10.765429067347272"><ele>118.0</ele><time>2026-04-08T17:15:31Z</time></trkpt><trkpt lat="44.54290140652006" lon="10.765519403560479"><ele>118.0</ele><time>2026-04-08T17:15:34Z</time></trkpt><trkpt lat="44.54282799941497" lon="10.765513147108997"><ele>118.00000000000001</ele><time>2026-04-08T17:15:37Z</time></trkpt><trkpt lat="44.54275489875367" lon="10.765470747538053"><ele>118.0</ele><time>2026-04-08T17:15:40Z</time></trkpt><trkpt lat="44.542693759396705" lon="10.765418370968746"><ele>118.0</ele><time>2026-04-08T17:15:42Z</time></trkpt><trkpt lat="44.542624264043546" lon="10.765351867814427"><ele>118.00000000000001</ele><time>2026-04-08T17:15:44Z</time></trkpt><trkpt lat="44.54255704436717" lon="10.765270725591298"><ele>118.00000000000001</ele><time>2026-04-08T17:15:46Z</time></trkpt><trkpt lat="44.542483215500475" lon="10.765192750151899"><ele>118.0</ele><time>2026-04-08T17:15:48Z</time></trkpt><trkpt lat="44.54239361675976" lon="10.76512178766801"><ele>118.0</ele><time>2026-04-08T17:15:50Z</time></trkpt><trkpt lat="44.542304203695494" lon="10.765051370895705"><ele>118.0</ele><time>2026-04-08T17:15:52Z</time></trkpt><trkpt lat="44.54221561086985" lon="10.764976098239327"><ele>118.00000000000001</ele><time>2026-04-08T17:15:54Z</time></trkpt><trkpt lat="44.542134922436304" lon="10.764880262794552"><ele>118.00000000000001</ele><time>2026-04-08T17:15:56Z</time></trkpt><trkpt lat="44.54204807153953" lon="10.764809113543562"><ele>118.0</ele><time>2026-04-08T17:15:58Z</time></trkpt><trkpt lat="44.54195692486491" lon="10.764735224238086"><ele>118.0</ele><time>2026-04-08T17:16:00Z</time></trkpt><trkpt lat="44.54186498272815" lon="10.764670821620513"><ele>117.33333333333334</ele><time>2026-04-08T17:16:02Z</time></trkpt><trkpt lat="44.54178125800243" lon="10.764592646467571"><ele>116.66666666666667</ele><time>2026-04-08T17:16:04Z</time></trkpt><trkpt lat="44.54172299562533" lon="10.764498893835018"><ele>116.0</ele><time>2026-04-08T17:16:06Z</time></trkpt><trkpt lat="44.54165733012366" lon="10.76440047543084"><ele>115.33333333333334</ele><time>2026-04-08T17:16:08Z</time></trkpt><trkpt lat="44.541615099109144" lon="10.764299587980462"><ele>114.66666666666667</ele><time>2026-04-08T17:16:10Z</time></trkpt><trkpt lat="44.54155573108268" lon="10.764223397306555"><ele>114.0</ele><time>2026-04-08T17:16:12Z</time></trkpt><trkpt lat="44.54147717654496" lon="10.764174740154957"><ele>114.0</ele><time>2026-04-08T17:16:14Z</time></trkpt><trkpt lat="44.54139996472754" lon="10.76411545417697"><ele>114.0</ele><time>2026-04-08T17:16:16Z</time></trkpt><trkpt lat="44.541316724634434" lon="10.764061089533788"><ele>114.0</ele><time>2026-04-08T17:16:18Z</time></trkpt><trkpt lat="44.54123203235251" lon="10.76399516632865"><ele>114.0</ele><time>2026-04-08T17:16:20Z</time></trkpt><trkpt lat="44.541145146236765" lon="10.76392512855956"><ele>114.0</ele><time>2026-04-08T17:16:22Z</time></trkpt><trkpt lat="44.54105759519726" lon="10.763850692805867"><ele>114.4</ele><time>2026-04-08T17:16:24Z</time></trkpt><trkpt lat="44.54096720029729" lon="10.763768965403926"><ele>114.80000000000001</ele><time>2026-04-08T17:16:26Z</time></trkpt><trkpt lat="44.54088138289877" lon="10.763695888772187"><ele>115.19999999999999</ele><time>2026-04-08T17:16:28Z</time></trkpt><trkpt lat="44.540794810262945" lon="10.763610315820754"><ele>115.6</ele><time>2026-04-08T17:16:30Z</time></trkpt><trkpt lat="44.540711389084436" lon="10.763534227640047"><ele>116.0</ele><time>2026-04-08T17:16:32Z</time></trkpt><trkpt lat="44.5406320296286" lon="10.763459073360345"><ele>116.0</ele><time>2026-04-08T17:16:34Z</time></trkpt><trkpt lat="44.540543680379315" lon="10.76339081501322"><ele>116.0</ele><time>2026-04-08T17:16:36Z</time></trkpt><trkpt lat="44.54045212992635" lon="10.763307091414518"><ele>116.0</ele><time>2026-04-08T17:16:38Z</time></trkpt><trkpt lat="44.54036009423283" lon="10.76322789648234"><ele>116.0</ele><time>2026-04-08T17:16:40Z</time></trkpt><trkpt lat="44.540271722481585" lon="10.763154671929353"><ele>116.0</ele><time>2026-04-08T17:16:42Z</time></trkpt><trkpt lat="44.54018327411527" lon="10.763076596710334"><ele>116.0</ele><time>2026-04-08T17:16:44Z</time></trkpt><trkpt lat="44.54008278480828" lon="10.763020857403797"><ele>116.0</ele><time>2026-04-08T17:16:46Z</time></trkpt><trkpt lat="44.53996920351188" lon="10.762995186043717"><ele>116.0</ele><time>2026-04-08T17:16:48Z</time></trkpt><trkpt lat="44.53985419227372" lon="10.762927022901263"><ele>116.0</ele><time>2026-04-08T17:16:50Z</time></trkpt><trkpt lat="44.539737062613916" lon="10.76284557538845"><ele>116.0</ele><time>2026-04-08T17:16:52Z</time></trkpt><trkpt lat="44.53963398821119" lon="10.762756279338806"><ele>116.0</ele><time>2026-04-08T17:16:54Z</time></trkpt><trkpt lat="44.53954316030811" lon="10.762655073047254"><ele>116.0</ele><time>2026-04-08T17:16:56Z</time></trkpt><trkpt lat="44.5394467027911" lon="10.76255866825132"><ele>116.0</ele><time>2026-04-08T17:16:58Z</time></trkpt><trkpt lat="44.53934837864256" lon="10.762464794230672"><ele>117.0</ele><time>2026-04-08T17:17:00Z</time></trkpt><trkpt lat="44.539247248511" lon="10.762369167237443"><ele>118.0</ele><time>2026-04-08T17:17:02Z</time></trkpt><trkpt lat="44.539192736386624" lon="10.762322516848226"><ele>119.0</ele><time>2026-04-08T17:17:03Z</time></trkpt><trkpt lat="44.53908976199415" lon="10.762235629533214"><ele>120.0</ele><time>2026-04-08T17:17:05Z</time></trkpt><trkpt lat="44.53899249124318" lon="10.76213809987211"><ele>121.0</ele><time>2026-04-08T17:17:07Z</time></trkpt><trkpt lat="44.53889683798361" lon="10.762042794466169"><ele>121.0</ele><time>2026-04-08T17:17:09Z</time></trkpt><trkpt lat="44.53881304461504" lon="10.76192871203807"><ele>121.0</ele><time>2026-04-08T17:17:11Z</time></trkpt><trkpt lat="44.53873616932545" lon="10.761809799575385"><ele>121.0</ele><time>2026-04-08T17:17:13Z</time></trkpt><trkpt lat="44.53864895820395" lon="10.76172995651635"><ele>121.0</ele><time>2026-04-08T17:17:15Z</time></trkpt><trkpt lat="44.53852727495083" lon="10.76171944309369"><ele>121.0</ele><time>2026-04-08T17:17:17Z</time></trkpt><trkpt lat="44.53842677048583" lon="10.761658513203468"><ele>121.0</ele><time>2026-04-08T17:17:19Z</time></trkpt><trkpt lat="44.53838220180422" lon="10.761587841244625"><ele>121.0</ele><time>2026-04-08T17:17:20Z</time></trkpt><trkpt lat="44.53833954200684" lon="10.761519503126923"><ele>121.0</ele><time>2026-04-08T17:17:21Z</time></trkpt><trkpt lat="44.538245759275995" lon="10.761396421794606"><ele>121.0</ele><time>2026-04-08T17:17:23Z</time></trkpt><trkpt lat="44.538151009616485" lon="10.761279246009465"><ele>121.00000000000001</ele><time>2026-04-08T17:17:25Z</time></trkpt><trkpt lat="44.53805231696298" lon="10.761172802731199"><ele>121.0</ele><time>2026-04-08T17:17:27Z</time></trkpt><trkpt lat="44.53800099201897" lon="10.76112087621559"><ele>121.0</ele><time>2026-04-08T17:17:28Z</time></trkpt><trkpt lat="44.53795104661216" lon="10.761066327101322"><ele>121.0</ele><time>2026-04-08T17:17:29Z</time></trkpt><trkpt lat="44.53789734124082" lon="10.761016530995034"><ele>121.00000000000001</ele><time>2026-04-08T17:17:30Z</time></trkpt><trkpt lat="44.53779934853245" lon="10.760914385155724"><ele>121.0</ele><time>2026-04-08T17:17:32Z</time></trkpt><trkpt lat="44.53769440505724" lon="10.760822961979065"><ele>120.25</ele><time>2026-04-08T17:17:34Z</time></trkpt><trkpt lat="44.53758717962792" lon="10.760737834049472"><ele>119.5</ele><time>2026-04-08T17:17:36Z</time></trkpt><trkpt lat="44.537485137567245" lon="10.760645245515489"><ele>118.75</ele><time>2026-04-08T17:17:38Z</time></trkpt><trkpt lat="44.53738533904728" lon="10.76054355497085"><ele>118.0</ele><time>2026-04-08T17:17:40Z</time></trkpt><trkpt lat="44.537290206795156" lon="10.760443156493363"><ele>118.0</ele><time>2026-04-08T17:17:42Z</time></trkpt><trkpt lat="44.53719450134318" lon="10.760341075090377"><ele>118.0</ele><time>2026-04-08T17:17:44Z</time></trkpt><trkpt lat="44.537092099875444" lon="10.760257808988142"><ele>118.0</ele><time>2026-04-08T17:17:46Z</time></trkpt><trkpt lat="44.53698705367086" lon="10.76018079187977"><ele>118.0</ele><time>2026-04-08T17:17:48Z</time></trkpt><trkpt lat="44.53688742452533" lon="10.760096440200432"><ele>118.80000000000001</ele><time>2026-04-08T17:17:50Z</time></trkpt><trkpt lat="44.53679418351415" lon="10.760016784331988"><ele>119.60000000000001</ele><time>2026-04-08T17:17:52Z</time></trkpt><trkpt lat="44.53669288417433" lon="10.759916381548372"><ele>120.39999999999999</ele><time>2026-04-08T17:17:54Z</time></trkpt><trkpt lat="44.53660970437372" lon="10.7597994495351"><ele>121.19999999999999</ele><time>2026-04-08T17:17:56Z</time></trkpt><trkpt lat="44.536563699111554" lon="10.759736139285625"><ele>122.0</ele><time>2026-04-08T17:17:57Z</time></trkpt><trkpt lat="44.536461552278084" lon="10.75964545932004"><ele>122.0</ele><time>2026-04-08T17:17:59Z</time></trkpt><trkpt lat="44.536407761668094" lon="10.759596887065571"><ele>121.99999999999999</ele><time>2026-04-08T17:18:00Z</time></trkpt><trkpt lat="44.53630848249107" lon="10.759497548073027"><ele>121.99999999999999</ele><time>2026-04-08T17:18:02Z</time></trkpt><trkpt lat="44.536215746396174" lon="10.759385687973312"><ele>122.0</ele><time>2026-04-08T17:18:04Z</time></trkpt><trkpt lat="44.53611319977881" lon="10.759298602056628"><ele>122.0</ele><time>2026-04-08T17:18:06Z</time></trkpt><trkpt lat="44.53601476171863" lon="10.759206847819046"><ele>121.25</ele><time>2026-04-08T17:18:08Z</time></trkpt><trkpt lat="44.5359224440101" lon="10.759094409703103"><ele>120.5</ele><time>2026-04-08T17:18:10Z</time></trkpt><trkpt lat="44.53584206599668" lon="10.758975512951709"><ele>119.75</ele><time>2026-04-08T17:18:12Z</time></trkpt><trkpt lat="44.535766156045206" lon="10.75885365264417"><ele>119.0</ele><time>2026-04-08T17:18:14Z</time></trkpt><trkpt lat="44.53566696265707" lon="10.758766507829717"><ele>119.0</ele><time>2026-04-08T17:18:16Z</time></trkpt><trkpt lat="44.5355491762025" lon="10.758752168599672"><ele>119.0</ele><time>2026-04-08T17:18:18Z</time></trkpt><trkpt lat="44.535451209306196" lon="10.758686554903306"><ele>119.0</ele><time>2026-04-08T17:18:20Z</time></trkpt><trkpt lat="44.53540154643325" lon="10.758631736643782"><ele>119.0</ele><time>2026-04-08T17:18:21Z</time></trkpt><trkpt lat="44.53529593260182" lon="10.75853994438771"><ele>119.0</ele><time>2026-04-08T17:18:23Z</time></trkpt><trkpt lat="44.53523853744677" lon="10.758489833788685"><ele>119.0</ele><time>2026-04-08T17:18:24Z</time></trkpt><trkpt lat="44.53513230329909" lon="10.758397364048978"><ele>119.0</ele><time>2026-04-08T17:18:26Z</time></trkpt><trkpt lat="44.535024893232695" lon="10.758318596953888"><ele>119.0</ele><time>2026-04-08T17:18:28Z</time></trkpt><trkpt lat="44.53491172462759" lon="10.758243006694991"><ele>119.0</ele><time>2026-04-08T17:18:30Z</time></trkpt><trkpt lat="44.53479564744456" lon="10.75817623447528"><ele>118.99999999999999</ele><time>2026-04-08T17:18:32Z</time></trkpt><trkpt lat="44.53473809519901" lon="10.758139380674676"><ele>119.0</ele><time>2026-04-08T17:18:33Z</time></trkpt><trkpt lat="44.53467972805583" lon="10.7581057714311"><ele>119.0</ele><time>2026-04-08T17:18:34Z</time></trkpt><trkpt lat="44.534619333731854" lon="10.758072367681885"><ele>119.0</ele><time>2026-04-08T17:18:35Z</time></trkpt><trkpt lat="44.534504413516316" lon="10.758002771268545"><ele>118.99999999999999</ele><time>2026-04-08T17:18:37Z</time></trkpt><trkpt lat="44.534393174500885" lon="10.757932499543548"><ele>119.0</ele><time>2026-04-08T17:18:39Z</time></trkpt><trkpt lat="44.53428873870093" lon="10.757857760624018"><ele>119.0</ele><time>2026-04-08T17:18:41Z</time></trkpt><trkpt lat="44.53420829818275" lon="10.757730597420778"><ele>119.0</ele><time>2026-04-08T17:18:43Z</time></trkpt><trkpt lat="44.53417897830479" lon="10.757642897510097"><ele>119.0</ele><time>2026-04-08T17:18:44Z</time></trkpt><trkpt lat="44.53412456202195" lon="10.757490595493689"><ele>119.0</ele><time>2026-04-08T17:18:46Z</time></trkpt><trkpt lat="44.534062028072526" lon="10.75734521708952"><ele>119.0</ele><time>2026-04-08T17:18:48Z</time></trkpt><trkpt lat="44.53400281898663" lon="10.757184457110556"><ele>119.6</ele><time>2026-04-08T17:18:50Z</time></trkpt><trkpt lat="44.53397309250426" lon="10.757101384749994"><ele>120.2</ele><time>2026-04-08T17:18:51Z</time></trkpt><trkpt lat="44.53390598279714" lon="10.756952669293284"><ele>120.79999999999998</ele><time>2026-04-08T17:18:53Z</time></trkpt><trkpt lat="44.53381441920682" lon="10.756840115858688"><ele>121.39999999999999</ele><time>2026-04-08T17:18:55Z</time></trkpt><trkpt lat="44.53371017575383" lon="10.756741452742265"><ele>122.0</ele><time>2026-04-08T17:18:57Z</time></trkpt><trkpt lat="44.53365917383849" lon="10.756684169878703"><ele>122.0</ele><time>2026-04-08T17:18:58Z</time></trkpt><trkpt lat="44.53359060823206" lon="10.75655641189312"><ele>121.99999999999999</ele><time>2026-04-08T17:19:00Z</time></trkpt><trkpt lat="44.533522304749646" lon="10.756464023170896"><ele>121.99999999999999</ele><time>2026-04-08T17:19:02Z</time></trkpt><trkpt lat="44.53343443067373" lon="10.756383641395695"><ele>122.0</ele><time>2026-04-08T17:19:04Z</time></trkpt><trkpt lat="44.53335219291431" lon="10.756327212647477"><ele>122.0</ele><time>2026-04-08T17:19:06Z</time></trkpt><trkpt lat="44.533257145997304" lon="10.75627313602744"><ele>122.0</ele><time>2026-04-08T17:19:08Z</time></trkpt><trkpt lat="44.53313482904023" lon="10.756241023044302"><ele>121.99999999999999</ele><time>2026-04-08T17:19:10Z</time></trkpt><trkpt lat="44.53307117230184" lon="10.756239012755328"><ele>121.99999999999999</ele><time>2026-04-08T17:19:11Z</time></trkpt><trkpt lat="44.533008246522236" lon="10.756234289780748"><ele>122.0</ele><time>2026-04-08T17:19:12Z</time></trkpt><trkpt lat="44.532889341154" lon="10.756218676395184"><ele>122.0</ele><time>2026-04-08T17:19:14Z</time></trkpt><trkpt lat="44.53277987444974" lon="10.756133656707851"><ele>121.8</ele><time>2026-04-08T17:19:16Z</time></trkpt><trkpt lat="44.53273438545078" lon="10.756060072545907"><ele>121.6</ele><time>2026-04-08T17:19:17Z</time></trkpt><trkpt lat="44.532688022634304" lon="10.755994870714776"><ele>121.39999999999999</ele><time>2026-04-08T17:19:18Z</time></trkpt><trkpt lat="44.5325810555051" lon="10.755903800202686"><ele>121.19999999999999</ele><time>2026-04-08T17:19:20Z</time></trkpt><trkpt lat="44.53247119164817" lon="10.755810848255356"><ele>121.0</ele><time>2026-04-08T17:19:22Z</time></trkpt><trkpt lat="44.53236273202391" lon="10.755743973485425"><ele>121.5</ele><time>2026-04-08T17:19:24Z</time></trkpt><trkpt lat="44.53225757680181" lon="10.755675372297386"><ele>122.0</ele><time>2026-04-08T17:19:26Z</time></trkpt><trkpt lat="44.53216494972391" lon="10.755569392230877"><ele>122.5</ele><time>2026-04-08T17:19:28Z</time></trkpt><trkpt lat="44.532086391397144" lon="10.755435842619137"><ele>123.0</ele><time>2026-04-08T17:19:30Z</time></trkpt><trkpt lat="44.53200953717982" lon="10.755302383683263"><ele>123.16666666666667</ele><time>2026-04-08T17:19:32Z</time></trkpt><trkpt lat="44.531968637283896" lon="10.755226831482743"><ele>123.33333333333334</ele><time>2026-04-08T17:19:33Z</time></trkpt><trkpt lat="44.53192292906325" lon="10.755165569293274"><ele>123.5</ele><time>2026-04-08T17:19:34Z</time></trkpt><trkpt lat="44.5318731235836" lon="10.755106974880455"><ele>123.66666666666667</ele><time>2026-04-08T17:19:35Z</time></trkpt><trkpt lat="44.53176586902475" lon="10.75501290137068"><ele>123.83333333333334</ele><time>2026-04-08T17:19:37Z</time></trkpt><trkpt lat="44.53170947052146" lon="10.75497263959758"><ele>124.0</ele><time>2026-04-08T17:19:38Z</time></trkpt><trkpt lat="44.53159549581562" lon="10.75490547727175"><ele>124.0</ele><time>2026-04-08T17:19:40Z</time></trkpt><trkpt lat="44.53153850193041" lon="10.754866884373245"><ele>124.0</ele><time>2026-04-08T17:19:41Z</time></trkpt><trkpt lat="44.53142528065129" lon="10.754814895159633"><ele>124.0</ele><time>2026-04-08T17:19:43Z</time></trkpt><trkpt lat="44.53131047287604" lon="10.754754247333258"><ele>124.0</ele><time>2026-04-08T17:19:45Z</time></trkpt><trkpt lat="44.53119400220105" lon="10.754707430486482"><ele>124.0</ele><time>2026-04-08T17:19:47Z</time></trkpt><trkpt lat="44.53107669784161" lon="10.754663579499628"><ele>124.0</ele><time>2026-04-08T17:19:49Z</time></trkpt><trkpt lat="44.53096208642802" lon="10.754603600225497"><ele>124.0</ele><time>2026-04-08T17:19:51Z</time></trkpt><trkpt lat="44.53086853547196" lon="10.754529748053416"><ele>124.0</ele><time>2026-04-08T17:19:53Z</time></trkpt><trkpt lat="44.530812689528815" lon="10.75448652431038"><ele>124.0</ele><time>2026-04-08T17:19:54Z</time></trkpt><trkpt lat="44.530712797776125" lon="10.754382166894953"><ele>124.0</ele><time>2026-04-08T17:19:56Z</time></trkpt><trkpt lat="44.53062115734448" lon="10.75428494630912"><ele>124.4</ele><time>2026-04-08T17:19:58Z</time></trkpt><trkpt lat="44.53051949145198" lon="10.754190763737267"><ele>124.80000000000001</ele><time>2026-04-08T17:20:00Z</time></trkpt><trkpt lat="44.53042102265959" lon="10.754088653629832"><ele>125.19999999999999</ele><time>2026-04-08T17:20:02Z</time></trkpt><trkpt lat="44.530368347711054" lon="10.754035748585927"><ele>125.6</ele><time>2026-04-08T17:20:03Z</time></trkpt><trkpt lat="44.53031719358621" lon="10.75398346036378"><ele>126.0</ele><time>2026-04-08T17:20:04Z</time></trkpt><trkpt lat="44.53022031539808" lon="10.753892519386627"><ele>126.19999999999999</ele><time>2026-04-08T17:20:06Z</time></trkpt><trkpt lat="44.53016989670657" lon="10.753831269996947"><ele>126.39999999999999</ele><time>2026-04-08T17:20:07Z</time></trkpt><trkpt lat="44.53008105747178" lon="10.753731198441024"><ele>126.6</ele><time>2026-04-08T17:20:09Z</time></trkpt><trkpt lat="44.529997607898316" lon="10.75364169734544"><ele>126.8</ele><time>2026-04-08T17:20:11Z</time></trkpt><trkpt lat="44.52990585163952" lon="10.753539568652295"><ele>127.0</ele><time>2026-04-08T17:20:13Z</time></trkpt><trkpt lat="44.52982561210449" lon="10.75345100154985"><ele>127.19999999999999</ele><time>2026-04-08T17:20:15Z</time></trkpt><trkpt lat="44.529761535575474" lon="10.753378054411396"><ele>127.39999999999999</ele><time>2026-04-08T17:20:17Z</time></trkpt><trkpt lat="44.52966217871308" lon="10.753281801530461"><ele>127.60000000000001</ele><time>2026-04-08T17:20:19Z</time></trkpt><trkpt lat="44.5295712899731" lon="10.75318584413395"><ele>127.80000000000001</ele><time>2026-04-08T17:20:21Z</time></trkpt><trkpt lat="44.52948566368557" lon="10.753092132920981"><ele>128.0</ele><time>2026-04-08T17:20:23Z</time></trkpt><trkpt lat="44.52942824487716" lon="10.753036275819849"><ele>128.0</ele><time>2026-04-08T17:20:24Z</time></trkpt><trkpt lat="44.52933460493786" lon="10.752930154690961"><ele>128.0</ele><time>2026-04-08T17:20:26Z</time></trkpt><trkpt lat="44.52928224290133" lon="10.752875205840276"><ele>128.0</ele><time>2026-04-08T17:20:27Z</time></trkpt><trkpt lat="44.52918587190237" lon="10.752765223558955"><ele>128.0</ele><time>2026-04-08T17:20:29Z</time></trkpt><trkpt lat="44.529136201683976" lon="10.752707543222396"><ele>128.0</ele><time>2026-04-08T17:20:30Z</time></trkpt><trkpt lat="44.5290367645326" lon="10.752595903410995"><ele>128.25</ele><time>2026-04-08T17:20:32Z</time></trkpt><trkpt lat="44.52894138441877" lon="10.752492938260952"><ele>128.5</ele><time>2026-04-08T17:20:34Z</time></trkpt><trkpt lat="44.52884685992482" lon="10.75239473921684"><ele>128.75</ele><time>2026-04-08T17:20:36Z</time></trkpt><trkpt lat="44.528758355373824" lon="10.752289256594704"><ele>129.0</ele><time>2026-04-08T17:20:38Z</time></trkpt><trkpt lat="44.528670342573534" lon="10.752185041826326"><ele>129.0</ele><time>2026-04-08T17:20:40Z</time></trkpt><trkpt lat="44.528573612170945" lon="10.752094677239036"><ele>129.0</ele><time>2026-04-08T17:20:42Z</time></trkpt><trkpt lat="44.528482375387114" lon="10.751995409561722"><ele>129.0</ele><time>2026-04-08T17:20:44Z</time></trkpt><trkpt lat="44.528398654014694" lon="10.751902391750296"><ele>129.0</ele><time>2026-04-08T17:20:46Z</time></trkpt><trkpt lat="44.5283128405764" lon="10.751817896994995"><ele>129.0</ele><time>2026-04-08T17:20:48Z</time></trkpt><trkpt lat="44.52823479954231" lon="10.751724184952673"><ele>128.8</ele><time>2026-04-08T17:20:50Z</time></trkpt><trkpt lat="44.528148464252446" lon="10.751631243457256"><ele>128.60000000000002</ele><time>2026-04-08T17:20:52Z</time></trkpt><trkpt lat="44.52807496154175" lon="10.751546647571626"><ele>128.4</ele><time>2026-04-08T17:20:54Z</time></trkpt><trkpt lat="44.52799796945952" lon="10.75145470252597"><ele>128.20000000000002</ele><time>2026-04-08T17:20:56Z</time></trkpt><trkpt lat="44.52791805206819" lon="10.751365226294501"><ele>128.0</ele><time>2026-04-08T17:20:58Z</time></trkpt><trkpt lat="44.52786475368798" lon="10.751318205232039"><ele>128.0</ele><time>2026-04-08T17:20:59Z</time></trkpt><trkpt lat="44.52777567567155" lon="10.751204773816237"><ele>128.0</ele><time>2026-04-08T17:21:01Z</time></trkpt><trkpt lat="44.527688183291836" lon="10.7510956864995"><ele>128.0</ele><time>2026-04-08T17:21:03Z</time></trkpt><trkpt lat="44.52763980915222" lon="10.751033657172309"><ele>128.0</ele><time>2026-04-08T17:21:04Z</time></trkpt><trkpt lat="44.52755128499091" lon="10.750923824160994"><ele>128.0</ele><time>2026-04-08T17:21:06Z</time></trkpt><trkpt lat="44.527460867020885" lon="10.750807730398625"><ele>128.5</ele><time>2026-04-08T17:21:08Z</time></trkpt><trkpt lat="44.527376614806265" lon="10.750695367849113"><ele>129.0</ele><time>2026-04-08T17:21:10Z</time></trkpt><trkpt lat="44.527291883790966" lon="10.750575360834285"><ele>129.5</ele><time>2026-04-08T17:21:12Z</time></trkpt><trkpt lat="44.52719849745328" lon="10.750477867512569"><ele>130.0</ele><time>2026-04-08T17:21:14Z</time></trkpt><trkpt lat="44.52711361870604" lon="10.750375482258454"><ele>129.6</ele><time>2026-04-08T17:21:16Z</time></trkpt><trkpt lat="44.527059992590466" lon="10.750324274732971"><ele>129.2</ele><time>2026-04-08T17:21:17Z</time></trkpt><trkpt lat="44.52695841300874" lon="10.750230061075971"><ele>128.8</ele><time>2026-04-08T17:21:19Z</time></trkpt><trkpt lat="44.526853150805636" lon="10.750147394898628"><ele>128.4</ele><time>2026-04-08T17:21:21Z</time></trkpt><trkpt lat="44.52675087352889" lon="10.75005800782949"><ele>128.0</ele><time>2026-04-08T17:21:23Z</time></trkpt><trkpt lat="44.52664565303924" lon="10.749964806952834"><ele>129.0</ele><time>2026-04-08T17:21:25Z</time></trkpt><trkpt lat="44.52655212448027" lon="10.749865940997084"><ele>130.0</ele><time>2026-04-08T17:21:27Z</time></trkpt><trkpt lat="44.52646311761" lon="10.74975042680459"><ele>131.0</ele><time>2026-04-08T17:21:29Z</time></trkpt><trkpt lat="44.52637899005418" lon="10.74964834190253"><ele>132.0</ele><time>2026-04-08T17:21:31Z</time></trkpt><trkpt lat="44.52629218213286" lon="10.749550820529407"><ele>132.2</ele><time>2026-04-08T17:21:33Z</time></trkpt><trkpt lat="44.526217810104654" lon="10.749437936785043"><ele>132.39999999999998</ele><time>2026-04-08T17:21:35Z</time></trkpt><trkpt lat="44.52617676446383" lon="10.749370928251887"><ele>132.60000000000002</ele><time>2026-04-08T17:21:36Z</time></trkpt><trkpt lat="44.5261374339142" lon="10.74929725197459"><ele>132.8</ele><time>2026-04-08T17:21:37Z</time></trkpt><trkpt lat="44.526051780580325" lon="10.749174318218797"><ele>133.0</ele><time>2026-04-08T17:21:39Z</time></trkpt><trkpt lat="44.52595440679234" lon="10.749079249521529"><ele>133.25</ele><time>2026-04-08T17:21:41Z</time></trkpt><trkpt lat="44.52585523213654" lon="10.748992989416955"><ele>133.5</ele><time>2026-04-08T17:21:43Z</time></trkpt><trkpt lat="44.52575646148997" lon="10.748916159742244"><ele>133.75</ele><time>2026-04-08T17:21:45Z</time></trkpt><trkpt lat="44.525653004843925" lon="10.748839629941966"><ele>134.0</ele><time>2026-04-08T17:21:47Z</time></trkpt><trkpt lat="44.52555692159839" lon="10.748756016333829"><ele>134.0</ele><time>2026-04-08T17:21:49Z</time></trkpt><trkpt lat="44.52545880996153" lon="10.748668139045268"><ele>134.0</ele><time>2026-04-08T17:21:51Z</time></trkpt><trkpt lat="44.52535816162883" lon="10.748585905004454"><ele>134.0</ele><time>2026-04-08T17:21:53Z</time></trkpt><trkpt lat="44.52525396450613" lon="10.748495461035027"><ele>134.0</ele><time>2026-04-08T17:21:55Z</time></trkpt><trkpt lat="44.525193729561515" lon="10.748461666608232"><ele>134.0</ele><time>2026-04-08T17:21:56Z</time></trkpt><trkpt lat="44.525129251079875" lon="10.748434061699006"><ele>134.33333333333331</ele><time>2026-04-08T17:21:57Z</time></trkpt><trkpt lat="44.52506511177801" lon="10.748418563107625"><ele>134.66666666666666</ele><time>2026-04-08T17:21:58Z</time></trkpt><trkpt lat="44.52500274873611" lon="10.74839619768035"><ele>135.0</ele><time>2026-04-08T17:21:59Z</time></trkpt><trkpt lat="44.52488136305861" lon="10.748361394253363"><ele>135.33333333333334</ele><time>2026-04-08T17:22:01Z</time></trkpt><trkpt lat="44.52476934682035" lon="10.748330150743621"><ele>135.66666666666669</ele><time>2026-04-08T17:22:03Z</time></trkpt><trkpt lat="44.52470382180005" lon="10.7483155405379"><ele>136.0</ele><time>2026-04-08T17:22:04Z</time></trkpt><trkpt lat="44.524592315433026" lon="10.748248550975886"><ele>135.4</ele><time>2026-04-08T17:22:06Z</time></trkpt><trkpt lat="44.52452750489435" lon="10.74822404661399"><ele>134.8</ele><time>2026-04-08T17:22:07Z</time></trkpt><trkpt lat="44.52440918831531" lon="10.748175515619868"><ele>134.20000000000002</ele><time>2026-04-08T17:22:09Z</time></trkpt><trkpt lat="44.524287945549936" lon="10.748133235021324"><ele>133.6</ele><time>2026-04-08T17:22:11Z</time></trkpt><trkpt lat="44.52416703981658" lon="10.748092175392191"><ele>133.0</ele><time>2026-04-08T17:22:13Z</time></trkpt><trkpt lat="44.52404936553769" lon="10.74805577662466"><ele>133.0</ele><time>2026-04-08T17:22:15Z</time></trkpt><trkpt lat="44.52393034281436" lon="10.748009943975003"><ele>133.0</ele><time>2026-04-08T17:22:17Z</time></trkpt><trkpt lat="44.52382827988908" lon="10.74791842913726"><ele>133.0</ele><time>2026-04-08T17:22:19Z</time></trkpt><trkpt lat="44.523736193123845" lon="10.747806533912955"><ele>133.0</ele><time>2026-04-08T17:22:21Z</time></trkpt><trkpt lat="44.52369053507349" lon="10.747740227534779"><ele>133.0</ele><time>2026-04-08T17:22:22Z</time></trkpt><trkpt lat="44.52359797783357" lon="10.74762898572029"><ele>133.5</ele><time>2026-04-08T17:22:24Z</time></trkpt><trkpt lat="44.52350662054279" lon="10.747524090437611"><ele>134.0</ele><time>2026-04-08T17:22:26Z</time></trkpt><trkpt lat="44.52341796771039" lon="10.747419503838973"><ele>134.5</ele><time>2026-04-08T17:22:28Z</time></trkpt><trkpt lat="44.5233395419479" lon="10.747297850430797"><ele>135.0</ele><time>2026-04-08T17:22:30Z</time></trkpt><trkpt lat="44.523256702058205" lon="10.747194926229051"><ele>135.0</ele><time>2026-04-08T17:22:32Z</time></trkpt><trkpt lat="44.523160621649254" lon="10.747135158370833"><ele>135.0</ele><time>2026-04-08T17:22:34Z</time></trkpt><trkpt lat="44.52304222457709" lon="10.747090059916166"><ele>135.0</ele><time>2026-04-08T17:22:36Z</time></trkpt><trkpt lat="44.52292457562114" lon="10.747039706047214"><ele>135.0</ele><time>2026-04-08T17:22:38Z</time></trkpt><trkpt lat="44.522812660396355" lon="10.746973189827848"><ele>134.75</ele><time>2026-04-08T17:22:40Z</time></trkpt><trkpt lat="44.52270717173272" lon="10.746907121741147"><ele>134.5</ele><time>2026-04-08T17:22:42Z</time></trkpt><trkpt lat="44.522588849264366" lon="10.74689151743566"><ele>134.25</ele><time>2026-04-08T17:22:44Z</time></trkpt><trkpt lat="44.52247619343747" lon="10.746872871816324"><ele>134.0</ele><time>2026-04-08T17:22:46Z</time></trkpt><trkpt lat="44.52235684769642" lon="10.746832927851587"><ele>134.0</ele><time>2026-04-08T17:22:48Z</time></trkpt><trkpt lat="44.522235796216634" lon="10.74678236748803"><ele>134.0</ele><time>2026-04-08T17:22:50Z</time></trkpt><trkpt lat="44.52217480958109" lon="10.74675722936182"><ele>134.0</ele><time>2026-04-08T17:22:51Z</time></trkpt><trkpt lat="44.52211121952363" lon="10.746734533205023"><ele>134.0</ele><time>2026-04-08T17:22:52Z</time></trkpt><trkpt lat="44.521995511857874" lon="10.74667908270515"><ele>134.0</ele><time>2026-04-08T17:22:54Z</time></trkpt><trkpt lat="44.52193664011933" lon="10.74664057589006"><ele>134.0</ele><time>2026-04-08T17:22:55Z</time></trkpt><trkpt lat="44.52182092245985" lon="10.746572927188305"><ele>133.5</ele><time>2026-04-08T17:22:57Z</time></trkpt><trkpt lat="44.521703261582545" lon="10.746511022505313"><ele>133.0</ele><time>2026-04-08T17:22:59Z</time></trkpt><trkpt lat="44.521586031572106" lon="10.746471475914829"><ele>132.5</ele><time>2026-04-08T17:23:01Z</time></trkpt><trkpt lat="44.521474850968254" lon="10.746454175262313"><ele>132.0</ele><time>2026-04-08T17:23:03Z</time></trkpt><trkpt lat="44.521350813295186" lon="10.746443723916096"><ele>132.0</ele><time>2026-04-08T17:23:05Z</time></trkpt><trkpt lat="44.5212837900181" lon="10.746441176977664"><ele>132.0</ele><time>2026-04-08T17:23:06Z</time></trkpt><trkpt lat="44.5211582241059" lon="10.74643425601324"><ele>132.0</ele><time>2026-04-08T17:23:08Z</time></trkpt><trkpt lat="44.52103690188068" lon="10.746430213622732"><ele>132.0</ele><time>2026-04-08T17:23:10Z</time></trkpt><trkpt lat="44.520916995441695" lon="10.746456211852792"><ele>132.0</ele><time>2026-04-08T17:23:12Z</time></trkpt><trkpt lat="44.52079621457821" lon="10.74649034073973"><ele>132.0</ele><time>2026-04-08T17:23:14Z</time></trkpt><trkpt lat="44.520671705814316" lon="10.746487360967974"><ele>132.0</ele><time>2026-04-08T17:23:16Z</time></trkpt><trkpt lat="44.520609702316555" lon="10.746463480054302"><ele>132.0</ele><time>2026-04-08T17:23:17Z</time></trkpt><trkpt lat="44.52050422917821" lon="10.746383646827333"><ele>132.0</ele><time>2026-04-08T17:23:19Z</time></trkpt><trkpt lat="44.52040239252896" lon="10.746303100546942"><ele>132.0</ele><time>2026-04-08T17:23:21Z</time></trkpt><trkpt lat="44.52029815128078" lon="10.746239951265975"><ele>132.4</ele><time>2026-04-08T17:23:23Z</time></trkpt><trkpt lat="44.52024208875632" lon="10.746199191051032"><ele>132.79999999999998</ele><time>2026-04-08T17:23:24Z</time></trkpt><trkpt lat="44.52012859289852" lon="10.746133261786726"><ele>133.2</ele><time>2026-04-08T17:23:26Z</time></trkpt><trkpt lat="44.520014075763626" lon="10.746082452633754"><ele>133.6</ele><time>2026-04-08T17:23:28Z</time></trkpt><trkpt lat="44.51989791758219" lon="10.74602726050652"><ele>134.0</ele><time>2026-04-08T17:23:30Z</time></trkpt><trkpt lat="44.51978291172658" lon="10.745962073061746"><ele>134.0</ele><time>2026-04-08T17:23:32Z</time></trkpt><trkpt lat="44.51967194316884" lon="10.745880356944259"><ele>134.0</ele><time>2026-04-08T17:23:34Z</time></trkpt><trkpt lat="44.51956377001526" lon="10.745791043798649"><ele>134.0</ele><time>2026-04-08T17:23:36Z</time></trkpt><trkpt lat="44.51950471892173" lon="10.745752534780612"><ele>134.0</ele><time>2026-04-08T17:23:37Z</time></trkpt><trkpt lat="44.519444800796194" lon="10.745715207356682"><ele>134.0</ele><time>2026-04-08T17:23:38Z</time></trkpt><trkpt lat="44.51934174076853" lon="10.745629572448697"><ele>133.25</ele><time>2026-04-08T17:23:40Z</time></trkpt><trkpt lat="44.51923790773801" lon="10.745536128663355"><ele>132.5</ele><time>2026-04-08T17:23:42Z</time></trkpt><trkpt lat="44.51913565626987" lon="10.745457022680032"><ele>131.75</ele><time>2026-04-08T17:23:44Z</time></trkpt><trkpt lat="44.51902938539416" lon="10.745372417531403"><ele>131.0</ele><time>2026-04-08T17:23:46Z</time></trkpt><trkpt lat="44.518928574702" lon="10.745284027202432"><ele>131.8</ele><time>2026-04-08T17:23:48Z</time></trkpt><trkpt lat="44.518825663889594" lon="10.745194120821495"><ele>132.6</ele><time>2026-04-08T17:23:50Z</time></trkpt><trkpt lat="44.518730457940805" lon="10.745098766371664"><ele>133.4</ele><time>2026-04-08T17:23:52Z</time></trkpt><trkpt lat="44.518654693398254" lon="10.744988105608305"><ele>134.2</ele><time>2026-04-08T17:23:54Z</time></trkpt><trkpt lat="44.51858788063314" lon="10.744882896505594"><ele>135.0</ele><time>2026-04-08T17:23:56Z</time></trkpt><trkpt lat="44.51851666143352" lon="10.744780798606334"><ele>135.0</ele><time>2026-04-08T17:23:58Z</time></trkpt><trkpt lat="44.518417567717215" lon="10.744681138423816"><ele>135.0</ele><time>2026-04-08T17:24:00Z</time></trkpt><trkpt lat="44.518304728072195" lon="10.744589921742758"><ele>135.0</ele><time>2026-04-08T17:24:02Z</time></trkpt><trkpt lat="44.51824814352656" lon="10.744547696825231"><ele>135.0</ele><time>2026-04-08T17:24:03Z</time></trkpt><trkpt lat="44.51813418315069" lon="10.744465027388978"><ele>135.0</ele><time>2026-04-08T17:24:05Z</time></trkpt><trkpt lat="44.51802198073028" lon="10.744402953154259"><ele>136.25</ele><time>2026-04-08T17:24:07Z</time></trkpt><trkpt lat="44.517907832308666" lon="10.7443463792302"><ele>137.5</ele><time>2026-04-08T17:24:09Z</time></trkpt><trkpt lat="44.51778898487246" lon="10.744303183670151"><ele>138.75</ele><time>2026-04-08T17:24:11Z</time></trkpt><trkpt lat="44.51767891801396" lon="10.744241445972676"><ele>140.0</ele><time>2026-04-08T17:24:13Z</time></trkpt><trkpt lat="44.51755861143457" lon="10.744194158144063"><ele>140.0</ele><time>2026-04-08T17:24:15Z</time></trkpt><trkpt lat="44.517441382837134" lon="10.744139024371375"><ele>140.0</ele><time>2026-04-08T17:24:17Z</time></trkpt><trkpt lat="44.51737916757326" lon="10.744109894491903"><ele>140.0</ele><time>2026-04-08T17:24:18Z</time></trkpt><trkpt lat="44.51731788263852" lon="10.74408372851887"><ele>140.0</ele><time>2026-04-08T17:24:19Z</time></trkpt><trkpt lat="44.51725565820923" lon="10.74406472120297"><ele>140.0</ele><time>2026-04-08T17:24:20Z</time></trkpt><trkpt lat="44.517149753383435" lon="10.744014739713982"><ele>140.0</ele><time>2026-04-08T17:24:22Z</time></trkpt><trkpt lat="44.517044799972226" lon="10.743970647769231"><ele>139.2</ele><time>2026-04-08T17:24:24Z</time></trkpt><trkpt lat="44.51695241253581" lon="10.743942292500472"><ele>138.4</ele><time>2026-04-08T17:24:26Z</time></trkpt><trkpt lat="44.516858990042" lon="10.743908115954891"><ele>137.6</ele><time>2026-04-08T17:24:28Z</time></trkpt><trkpt lat="44.516740774180676" lon="10.743879371109644"><ele>136.8</ele><time>2026-04-08T17:24:30Z</time></trkpt><trkpt lat="44.51663106034597" lon="10.743828192214357"><ele>136.0</ele><time>2026-04-08T17:24:32Z</time></trkpt><trkpt lat="44.516525562223876" lon="10.74375369392918"><ele>136.0</ele><time>2026-04-08T17:24:34Z</time></trkpt><trkpt lat="44.516425495863714" lon="10.74365142648506"><ele>136.0</ele><time>2026-04-08T17:24:36Z</time></trkpt><trkpt lat="44.51633041128631" lon="10.743543203431264"><ele>136.0</ele><time>2026-04-08T17:24:38Z</time></trkpt><trkpt lat="44.5162859094183" lon="10.743473728630622"><ele>136.0</ele><time>2026-04-08T17:24:39Z</time></trkpt><trkpt lat="44.51620242732526" lon="10.743358522848524"><ele>136.0</ele><time>2026-04-08T17:24:41Z</time></trkpt><trkpt lat="44.516112562500766" lon="10.743275562317534"><ele>136.75</ele><time>2026-04-08T17:24:43Z</time></trkpt><trkpt lat="44.5160135610938" lon="10.743196010977996"><ele>137.5</ele><time>2026-04-08T17:24:45Z</time></trkpt><trkpt lat="44.515911005704815" lon="10.743122447795933"><ele>138.25</ele><time>2026-04-08T17:24:47Z</time></trkpt><trkpt lat="44.51580346435919" lon="10.743055936985543"><ele>139.0</ele><time>2026-04-08T17:24:49Z</time></trkpt><trkpt lat="44.51569280415164" lon="10.742982446581697"><ele>139.0</ele><time>2026-04-08T17:24:51Z</time></trkpt><trkpt lat="44.5155817342402" lon="10.742909138041687"><ele>139.0</ele><time>2026-04-08T17:24:53Z</time></trkpt><trkpt lat="44.51547246024935" lon="10.742828461225896"><ele>139.0</ele><time>2026-04-08T17:24:55Z</time></trkpt><trkpt lat="44.515367134677355" lon="10.7427370107667"><ele>139.0</ele><time>2026-04-08T17:24:57Z</time></trkpt><trkpt lat="44.51527268774662" lon="10.742630401666776"><ele>139.8</ele><time>2026-04-08T17:24:59Z</time></trkpt><trkpt lat="44.515176452524216" lon="10.742529755362117"><ele>140.60000000000002</ele><time>2026-04-08T17:25:01Z</time></trkpt><trkpt lat="44.51512086814974" lon="10.742487626757201"><ele>141.4</ele><time>2026-04-08T17:25:02Z</time></trkpt><trkpt lat="44.51501721395367" lon="10.742416646101773"><ele>142.20000000000002</ele><time>2026-04-08T17:25:04Z</time></trkpt><trkpt lat="44.514907543300176" lon="10.742351459847935"><ele>143.0</ele><time>2026-04-08T17:25:06Z</time></trkpt><trkpt lat="44.51485009155138" lon="10.742308696921736"><ele>143.0</ele><time>2026-04-08T17:25:07Z</time></trkpt><trkpt lat="44.51473758609056" lon="10.742240175856615"><ele>143.0</ele><time>2026-04-08T17:25:09Z</time></trkpt><trkpt lat="44.51461447199318" lon="10.742213128564972"><ele>143.0</ele><time>2026-04-08T17:25:11Z</time></trkpt><trkpt lat="44.51454928220703" lon="10.742210368019332"><ele>143.0</ele><time>2026-04-08T17:25:12Z</time></trkpt><trkpt lat="44.51447869859882" lon="10.742193519882653"><ele>143.0</ele><time>2026-04-08T17:25:13Z</time></trkpt><trkpt lat="44.51441548982706" lon="10.742171367355008"><ele>143.0</ele><time>2026-04-08T17:25:14Z</time></trkpt><trkpt lat="44.51435008298986" lon="10.742147976426065"><ele>143.0</ele><time>2026-04-08T17:25:15Z</time></trkpt><trkpt lat="44.51422209221194" lon="10.742110427387114"><ele>143.0</ele><time>2026-04-08T17:25:17Z</time></trkpt><trkpt lat="44.51411167650648" lon="10.74203769953428"><ele>143.0</ele><time>2026-04-08T17:25:19Z</time></trkpt><trkpt lat="44.51400778815978" lon="10.74194892904485"><ele>143.0</ele><time>2026-04-08T17:25:21Z</time></trkpt><trkpt lat="44.513958771086095" lon="10.741892544641539"><ele>143.0</ele><time>2026-04-08T17:25:22Z</time></trkpt><trkpt lat="44.51391231777596" lon="10.741828421453729"><ele>142.99999999999997</ele><time>2026-04-08T17:25:23Z</time></trkpt><trkpt lat="44.51381222798222" lon="10.741732578167513"><ele>143.0</ele><time>2026-04-08T17:25:25Z</time></trkpt><trkpt lat="44.5137592948003" lon="10.741684042345254"><ele>143.0</ele><time>2026-04-08T17:25:26Z</time></trkpt><trkpt lat="44.51370496563576" lon="10.74163557165609"><ele>143.0</ele><time>2026-04-08T17:25:27Z</time></trkpt><trkpt lat="44.513652912817115" lon="10.741583384983658"><ele>143.0</ele><time>2026-04-08T17:25:28Z</time></trkpt><trkpt lat="44.51359450766037" lon="10.741540785037678"><ele>142.99999999999997</ele><time>2026-04-08T17:25:29Z</time></trkpt><trkpt lat="44.513531242948396" lon="10.741505615995544"><ele>143.0</ele><time>2026-04-08T17:25:30Z</time></trkpt><trkpt lat="44.51347001376347" lon="10.741463726000205"><ele>142.57142857142856</ele><time>2026-04-08T17:25:31Z</time></trkpt><trkpt lat="44.51340569971107" lon="10.741421745975662"><ele>142.14285714285714</ele><time>2026-04-08T17:25:32Z</time></trkpt><trkpt lat="44.5133364112466" lon="10.741376679536152"><ele>141.71428571428572</ele><time>2026-04-08T17:25:33Z</time></trkpt><trkpt lat="44.51327045321132" lon="10.7413359776897"><ele>141.28571428571428</ele><time>2026-04-08T17:25:34Z</time></trkpt><trkpt lat="44.51319684186801" lon="10.741290792154679"><ele>140.85714285714286</ele><time>2026-04-08T17:25:35Z</time></trkpt><trkpt lat="44.51312833153053" lon="10.741245946719191"><ele>140.42857142857142</ele><time>2026-04-08T17:25:36Z</time></trkpt><trkpt lat="44.51306477878271" lon="10.741197079103767"><ele>140.0</ele><time>2026-04-08T17:25:37Z</time></trkpt><trkpt lat="44.51300462371137" lon="10.741151789476133"><ele>140.0</ele><time>2026-04-08T17:25:38Z</time></trkpt><trkpt lat="44.51294491210953" lon="10.741111247784938"><ele>140.0</ele><time>2026-04-08T17:25:39Z</time></trkpt><trkpt lat="44.51283126977006" lon="10.741034235439372"><ele>140.0</ele><time>2026-04-08T17:25:41Z</time></trkpt><trkpt lat="44.51271399271058" lon="10.740958995060733"><ele>140.0</ele><time>2026-04-08T17:25:43Z</time></trkpt><trkpt lat="44.5125989898172" lon="10.740888153731202"><ele>140.0</ele><time>2026-04-08T17:25:45Z</time></trkpt><trkpt lat="44.51254299276603" lon="10.740846791614457"><ele>139.8</ele><time>2026-04-08T17:25:46Z</time></trkpt><trkpt lat="44.51248763231077" lon="10.740801767423118"><ele>139.6</ele><time>2026-04-08T17:25:47Z</time></trkpt><trkpt lat="44.51237452503248" lon="10.74073001808204"><ele>139.4</ele><time>2026-04-08T17:25:49Z</time></trkpt><trkpt lat="44.512260532997914" lon="10.74068923634745"><ele>139.2</ele><time>2026-04-08T17:25:51Z</time></trkpt><trkpt lat="44.51215487284512" lon="10.740685921636242"><ele>139.0</ele><time>2026-04-08T17:25:53Z</time></trkpt><trkpt lat="44.51205620214639" lon="10.74063445086569"><ele>139.0</ele><time>2026-04-08T17:25:55Z</time></trkpt><trkpt lat="44.51199913175256" lon="10.740508074737866"><ele>139.0</ele><time>2026-04-08T17:25:57Z</time></trkpt><trkpt lat="44.511991146673786" lon="10.740374845435724"><ele>139.0</ele><time>2026-04-08T17:25:59Z</time></trkpt><trkpt lat="44.51197445242165" lon="10.740270080206331"><ele>139.0</ele><time>2026-04-08T17:26:01Z</time></trkpt><trkpt lat="44.51195948364775" lon="10.740158054962746"><ele>139.0</ele><time>2026-04-08T17:26:03Z</time></trkpt><trkpt lat="44.51193050180711" lon="10.740067634930556"><ele>139.0</ele><time>2026-04-08T17:26:05Z</time></trkpt><trkpt lat="44.51188185701902" lon="10.739989826830628"><ele>140.4</ele><time>2026-04-08T17:26:07Z</time></trkpt><trkpt lat="44.51182048661956" lon="10.739906862145219"><ele>141.8</ele><time>2026-04-08T17:26:09Z</time></trkpt><trkpt lat="44.51175814242508" lon="10.739810399477415"><ele>143.2</ele><time>2026-04-08T17:26:11Z</time></trkpt><trkpt lat="44.51168003885143" lon="10.739716197768027"><ele>144.6</ele><time>2026-04-08T17:26:13Z</time></trkpt><trkpt lat="44.51159771377831" lon="10.739640464606651"><ele>146.0</ele><time>2026-04-08T17:26:15Z</time></trkpt><trkpt lat="44.51151080093433" lon="10.73956717429683"><ele>146.0</ele><time>2026-04-08T17:26:17Z</time></trkpt><trkpt lat="44.51142784164587" lon="10.739493754095351"><ele>146.0</ele><time>2026-04-08T17:26:19Z</time></trkpt><trkpt lat="44.511328747798025" lon="10.73942863605289"><ele>146.0</ele><time>2026-04-08T17:26:21Z</time></trkpt><trkpt lat="44.51124085472232" lon="10.739354686679047"><ele>146.0</ele><time>2026-04-08T17:26:23Z</time></trkpt><trkpt lat="44.51115466724831" lon="10.739271976892054"><ele>146.0</ele><time>2026-04-08T17:26:25Z</time></trkpt><trkpt lat="44.51108080968052" lon="10.739195953592104"><ele>145.16666666666666</ele><time>2026-04-08T17:26:27Z</time></trkpt><trkpt lat="44.511005908906554" lon="10.739166972180643"><ele>144.33333333333331</ele><time>2026-04-08T17:26:29Z</time></trkpt><trkpt lat="44.51093105120194" lon="10.739113892199233"><ele>143.5</ele><time>2026-04-08T17:26:31Z</time></trkpt><trkpt lat="44.51088147018153" lon="10.73901609593871"><ele>142.66666666666666</ele><time>2026-04-08T17:26:33Z</time></trkpt><trkpt lat="44.51088303497818" lon="10.738876064194173"><ele>141.83333333333334</ele><time>2026-04-08T17:26:35Z</time></trkpt><trkpt lat="44.51086473445671" lon="10.738756668547202"><ele>141.0</ele><time>2026-04-08T17:26:37Z</time></trkpt><trkpt lat="44.510811451793124" lon="10.738640446454786"><ele>141.0</ele><time>2026-04-08T17:26:39Z</time></trkpt><trkpt lat="44.510714707516094" lon="10.738584285804748"><ele>141.0</ele><time>2026-04-08T17:26:41Z</time></trkpt><trkpt lat="44.51062896519022" lon="10.73849722450772"><ele>141.0</ele><time>2026-04-08T17:26:43Z</time></trkpt><trkpt lat="44.51053598758948" lon="10.738417926846433"><ele>141.0</ele><time>2026-04-08T17:26:45Z</time></trkpt><trkpt lat="44.51044288976129" lon="10.738331064794899"><ele>141.0</ele><time>2026-04-08T17:26:47Z</time></trkpt><trkpt lat="44.510350658478956" lon="10.738247720539173"><ele>142.25</ele><time>2026-04-08T17:26:49Z</time></trkpt><trkpt lat="44.51025420658417" lon="10.738172209534058"><ele>143.5</ele><time>2026-04-08T17:26:51Z</time></trkpt><trkpt lat="44.510157090454946" lon="10.738084089872055"><ele>144.75</ele><time>2026-04-08T17:26:53Z</time></trkpt><trkpt lat="44.510056976448716" lon="10.737998836857713"><ele>146.0</ele><time>2026-04-08T17:26:55Z</time></trkpt><trkpt lat="44.5099581569841" lon="10.737906099319002"><ele>146.0</ele><time>2026-04-08T17:26:57Z</time></trkpt><trkpt lat="44.50985881694373" lon="10.737819407889688"><ele>146.0</ele><time>2026-04-08T17:26:59Z</time></trkpt><trkpt lat="44.50975966104813" lon="10.737731157116498"><ele>146.0</ele><time>2026-04-08T17:27:01Z</time></trkpt><trkpt lat="44.509669805151994" lon="10.73763987824195"><ele>146.0</ele><time>2026-04-08T17:27:03Z</time></trkpt><trkpt lat="44.50957015678997" lon="10.737552361771296"><ele>145.5</ele><time>2026-04-08T17:27:05Z</time></trkpt><trkpt lat="44.50947346501067" lon="10.737457654716248"><ele>145.0</ele><time>2026-04-08T17:27:07Z</time></trkpt><trkpt lat="44.509375608901934" lon="10.737366299706592"><ele>144.5</ele><time>2026-04-08T17:27:09Z</time></trkpt><trkpt lat="44.50927942799942" lon="10.7372702926547"><ele>144.0</ele><time>2026-04-08T17:27:11Z</time></trkpt><trkpt lat="44.5091871410713" lon="10.737172196769185"><ele>144.0</ele><time>2026-04-08T17:27:13Z</time></trkpt><trkpt lat="44.50909383144047" lon="10.737079219830482"><ele>144.0</ele><time>2026-04-08T17:27:15Z</time></trkpt><trkpt lat="44.50899155425211" lon="10.737033238418752"><ele>144.0</ele><time>2026-04-08T17:27:17Z</time></trkpt><trkpt lat="44.50889393437935" lon="10.73699104275475"><ele>144.0</ele><time>2026-04-08T17:27:19Z</time></trkpt><trkpt lat="44.508800534510094" lon="10.736949356702894"><ele>144.0</ele><time>2026-04-08T17:27:21Z</time></trkpt><trkpt lat="44.5087237591913" lon="10.736979954720677"><ele>144.0</ele><time>2026-04-08T17:27:23Z</time></trkpt><trkpt lat="44.50865455682996" lon="10.736988948571943"><ele>144.0</ele><time>2026-04-08T17:27:25Z</time></trkpt><trkpt lat="44.508595609871" lon="10.73688620977706"><ele>144.0</ele><time>2026-04-08T17:27:27Z</time></trkpt><trkpt lat="44.508541658478535" lon="10.736770232911681"><ele>144.0</ele><time>2026-04-08T17:27:29Z</time></trkpt><trkpt lat="44.508460350873406" lon="10.736681093099387"><ele>144.0</ele><time>2026-04-08T17:27:31Z</time></trkpt><trkpt lat="44.50840145193175" lon="10.736559517877756"><ele>144.0</ele><time>2026-04-08T17:27:33Z</time></trkpt><trkpt lat="44.50833392857395" lon="10.736433806588437"><ele>144.0</ele><time>2026-04-08T17:27:35Z</time></trkpt><trkpt lat="44.50829214818146" lon="10.736362162827827"><ele>144.0</ele><time>2026-04-08T17:27:36Z</time></trkpt><trkpt lat="44.50825205831596" lon="10.736285293847665"><ele>144.0</ele><time>2026-04-08T17:27:37Z</time></trkpt><trkpt lat="44.508209881750375" lon="10.73621826667803"><ele>144.0</ele><time>2026-04-08T17:27:38Z</time></trkpt><trkpt lat="44.50812448136983" lon="10.736087864977446"><ele>144.0</ele><time>2026-04-08T17:27:40Z</time></trkpt><trkpt lat="44.50808042404739" lon="10.736020963029224"><ele>144.0</ele><time>2026-04-08T17:27:41Z</time></trkpt><trkpt lat="44.50803233401319" lon="10.73596136338771"><ele>144.0</ele><time>2026-04-08T17:27:42Z</time></trkpt><trkpt lat="44.50798807431955" lon="10.735894062348333"><ele>144.0</ele><time>2026-04-08T17:27:43Z</time></trkpt><trkpt lat="44.5079039792368" lon="10.735759233896674"><ele>144.0</ele><time>2026-04-08T17:27:45Z</time></trkpt><trkpt lat="44.50782343493132" lon="10.735634509583637"><ele>144.0</ele><time>2026-04-08T17:27:47Z</time></trkpt><trkpt lat="44.50775148060907" lon="10.735519972359421"><ele>144.0</ele><time>2026-04-08T17:27:49Z</time></trkpt><trkpt lat="44.50767033293965" lon="10.735388887552153"><ele>144.0</ele><time>2026-04-08T17:27:51Z</time></trkpt><trkpt lat="44.50762611045579" lon="10.735317355122922"><ele>144.0</ele><time>2026-04-08T17:27:52Z</time></trkpt><trkpt lat="44.507581520794794" lon="10.735242459786297"><ele>144.0</ele><time>2026-04-08T17:27:53Z</time></trkpt><trkpt lat="44.50749333440244" lon="10.735114593561336"><ele>144.0</ele><time>2026-04-08T17:27:55Z</time></trkpt><trkpt lat="44.50745234741773" lon="10.735043802702773"><ele>144.5</ele><time>2026-04-08T17:27:56Z</time></trkpt><trkpt lat="44.50741279789688" lon="10.734972744778274"><ele>145.0</ele><time>2026-04-08T17:27:57Z</time></trkpt><trkpt lat="44.50737324183507" lon="10.734902682540541"><ele>145.5</ele><time>2026-04-08T17:27:58Z</time></trkpt><trkpt lat="44.507292875992626" lon="10.734772485740178"><ele>146.0</ele><time>2026-04-08T17:28:00Z</time></trkpt><trkpt lat="44.50721509367801" lon="10.734632957688389"><ele>146.5</ele><time>2026-04-08T17:28:02Z</time></trkpt><trkpt lat="44.5071772216996" lon="10.734561441289015"><ele>147.0</ele><time>2026-04-08T17:28:03Z</time></trkpt><trkpt lat="44.50710747408719" lon="10.734418393295622"><ele>146.5</ele><time>2026-04-08T17:28:05Z</time></trkpt><trkpt lat="44.50703788944008" lon="10.734273924646596"><ele>146.0</ele><time>2026-04-08T17:28:07Z</time></trkpt><trkpt lat="44.50697567383998" lon="10.734133012447018"><ele>145.5</ele><time>2026-04-08T17:28:09Z</time></trkpt><trkpt lat="44.50691316196343" lon="10.733995035183872"><ele>145.0</ele><time>2026-04-08T17:28:11Z</time></trkpt><trkpt lat="44.50685085129468" lon="10.733858268736817"><ele>145.0</ele><time>2026-04-08T17:28:13Z</time></trkpt><trkpt lat="44.50678983827595" lon="10.733725325229209"><ele>145.0</ele><time>2026-04-08T17:28:15Z</time></trkpt><trkpt lat="44.50672902222534" lon="10.733589289447043"><ele>145.0</ele><time>2026-04-08T17:28:17Z</time></trkpt><trkpt lat="44.506669393176395" lon="10.733451137885284"><ele>145.0</ele><time>2026-04-08T17:28:19Z</time></trkpt><trkpt lat="44.50661200397089" lon="10.733319133031966"><ele>145.2</ele><time>2026-04-08T17:28:21Z</time></trkpt><trkpt lat="44.50654727321882" lon="10.733198588103496"><ele>145.4</ele><time>2026-04-08T17:28:23Z</time></trkpt><trkpt lat="44.5064432466448" lon="10.733151263611775"><ele>145.6</ele><time>2026-04-08T17:28:25Z</time></trkpt><trkpt lat="44.50633940517588" lon="10.733093027397572"><ele>145.8</ele><time>2026-04-08T17:28:27Z</time></trkpt><trkpt lat="44.50628403359947" lon="10.732967062887745"><ele>146.0</ele><time>2026-04-08T17:28:29Z</time></trkpt><trkpt lat="44.50623818273175" lon="10.73286423818201"><ele>146.0</ele><time>2026-04-08T17:28:31Z</time></trkpt><trkpt lat="44.50619945339394" lon="10.732751121453466"><ele>146.0</ele><time>2026-04-08T17:28:33Z</time></trkpt><trkpt lat="44.50622909521008" lon="10.732629657126706"><ele>146.0</ele><time>2026-04-08T17:28:35Z</time></trkpt><trkpt lat="44.506313553594964" lon="10.732568253468008"><ele>146.0</ele><time>2026-04-08T17:28:37Z</time></trkpt><trkpt lat="44.506377927750464" lon="10.732506786766312"><ele>146.0</ele><time>2026-04-08T17:28:39Z</time></trkpt><trkpt lat="44.50641101573479" lon="10.732408791915253"><ele>146.0</ele><time>2026-04-08T17:28:41Z</time></trkpt><trkpt lat="44.5063930709721" lon="10.7323062234419"><ele>146.8</ele><time>2026-04-08T17:28:43Z</time></trkpt><trkpt lat="44.506349340243176" lon="10.732208776100439"><ele>147.6</ele><time>2026-04-08T17:28:45Z</time></trkpt><trkpt lat="44.50631016691151" lon="10.732104000899996"><ele>148.4</ele><time>2026-04-08T17:28:47Z</time></trkpt><trkpt lat="44.506274385010414" lon="10.731974397777318"><ele>149.2</ele><time>2026-04-08T17:28:49Z</time></trkpt><trkpt lat="44.506228857816104" lon="10.731848837922225"><ele>150.0</ele><time>2026-04-08T17:28:51Z</time></trkpt><trkpt lat="44.506190835445" lon="10.731723027841605"><ele>150.0</ele><time>2026-04-08T17:28:53Z</time></trkpt><trkpt lat="44.506148088280426" lon="10.731595944833282"><ele>150.0</ele><time>2026-04-08T17:28:55Z</time></trkpt><trkpt lat="44.50610078354955" lon="10.731481002220027"><ele>150.0</ele><time>2026-04-08T17:28:57Z</time></trkpt><trkpt lat="44.50606171395669" lon="10.73136074396259"><ele>150.0</ele><time>2026-04-08T17:28:59Z</time></trkpt><trkpt lat="44.50602756263888" lon="10.73122970068602"><ele>150.0</ele><time>2026-04-08T17:29:01Z</time></trkpt><trkpt lat="44.506005126624636" lon="10.731086239063742"><ele>150.4</ele><time>2026-04-08T17:29:03Z</time></trkpt><trkpt lat="44.50595269896772" lon="10.730959295509654"><ele>150.8</ele><time>2026-04-08T17:29:05Z</time></trkpt><trkpt lat="44.50589220199341" lon="10.730832009227175"><ele>151.2</ele><time>2026-04-08T17:29:07Z</time></trkpt><trkpt lat="44.50584550193286" lon="10.730698403814584"><ele>151.6</ele><time>2026-04-08T17:29:09Z</time></trkpt><trkpt lat="44.505798044511515" lon="10.730567867427775"><ele>152.0</ele><time>2026-04-08T17:29:11Z</time></trkpt><trkpt lat="44.50576285876592" lon="10.730433667700293"><ele>152.0</ele><time>2026-04-08T17:29:13Z</time></trkpt><trkpt lat="44.50572044546729" lon="10.730286655833185"><ele>152.0</ele><time>2026-04-08T17:29:15Z</time></trkpt><trkpt lat="44.505682462174974" lon="10.730146692231152"><ele>152.0</ele><time>2026-04-08T17:29:17Z</time></trkpt><trkpt lat="44.50564088797322" lon="10.73000067445791"><ele>152.0</ele><time>2026-04-08T17:29:19Z</time></trkpt><trkpt lat="44.50559917577559" lon="10.7298564776936"><ele>152.0</ele><time>2026-04-08T17:29:21Z</time></trkpt><trkpt lat="44.505558409842756" lon="10.729718204824824"><ele>152.2</ele><time>2026-04-08T17:29:23Z</time></trkpt><trkpt lat="44.50551087173405" lon="10.729572200580437"><ele>152.39999999999998</ele><time>2026-04-08T17:29:25Z</time></trkpt><trkpt lat="44.50546523518559" lon="10.729420015618041"><ele>152.60000000000002</ele><time>2026-04-08T17:29:27Z</time></trkpt><trkpt lat="44.50542007748944" lon="10.729280963287769"><ele>152.8</ele><time>2026-04-08T17:29:29Z</time></trkpt><trkpt lat="44.505383974288776" lon="10.729159579615203"><ele>153.0</ele><time>2026-04-08T17:29:31Z</time></trkpt><trkpt lat="44.50535564252376" lon="10.729055701246335"><ele>153.0</ele><time>2026-04-08T17:29:33Z</time></trkpt><trkpt lat="44.505334028986546" lon="10.728944824124444"><ele>153.0</ele><time>2026-04-08T17:29:35Z</time></trkpt><trkpt lat="44.50528673398598" lon="10.72885794475847"><ele>153.0</ele><time>2026-04-08T17:29:37Z</time></trkpt><trkpt lat="44.50523953635074" lon="10.728750860676316"><ele>153.0</ele><time>2026-04-08T17:29:39Z</time></trkpt><trkpt lat="44.50519258103271" lon="10.72864288833942"><ele>153.0</ele><time>2026-04-08T17:29:41Z</time></trkpt><trkpt lat="44.505173062855086" lon="10.728535561008389"><ele>153.0</ele><time>2026-04-08T17:29:43Z</time></trkpt><trkpt lat="44.50514024359858" lon="10.728423013060748"><ele>153.0</ele><time>2026-04-08T17:29:46Z</time></trkpt><trkpt lat="44.50509143373016" lon="10.7283299075628"><ele>153.0</ele><time>2026-04-08T17:29:50Z</time></trkpt><trkpt lat="44.505043052335985" lon="10.728423826208406"><ele>153.0</ele><time>2026-04-08T17:29:56Z</time></trkpt><trkpt lat="44.505022763556106" lon="10.728520290473963"><ele>153.0</ele><time>2026-04-08T17:29:58Z</time></trkpt><trkpt lat="44.504975055798454" lon="10.728654279574556"><ele>153.0</ele><time>2026-04-08T17:30:00Z</time></trkpt><trkpt lat="44.50490995326298" lon="10.728741149124506"><ele>153.0</ele><time>2026-04-08T17:30:02Z</time></trkpt><trkpt lat="44.50484074738052" lon="10.72883579461093"><ele>153.0</ele><time>2026-04-08T17:30:04Z</time></trkpt><trkpt lat="44.504766698584774" lon="10.72892191235142"><ele>153.0</ele><time>2026-04-08T17:30:06Z</time></trkpt><trkpt lat="44.50469157245949" lon="10.729009396668495"><ele>153.0</ele><time>2026-04-08T17:30:08Z</time></trkpt><trkpt lat="44.50461613251807" lon="10.729096951932613"><ele>153.0</ele><time>2026-04-08T17:30:10Z</time></trkpt><trkpt lat="44.504540791776996" lon="10.729182240114651"><ele>153.0</ele><time>2026-04-08T17:30:12Z</time></trkpt><trkpt lat="44.50446356882555" lon="10.729265011086941"><ele>152.4</ele><time>2026-04-08T17:30:14Z</time></trkpt><trkpt lat="44.504387247509705" lon="10.729354453626836"><ele>151.8</ele><time>2026-04-08T17:30:16Z</time></trkpt><trkpt lat="44.504311102734235" lon="10.729442884905724"><ele>151.2</ele><time>2026-04-08T17:30:18Z</time></trkpt><trkpt lat="44.504233363766936" lon="10.729536895436073"><ele>150.6</ele><time>2026-04-08T17:30:20Z</time></trkpt><trkpt lat="44.50414837536463" lon="10.729618738140688"><ele>150.0</ele><time>2026-04-08T17:30:22Z</time></trkpt><trkpt lat="44.50406997822636" lon="10.729710034799476"><ele>149.8</ele><time>2026-04-08T17:30:24Z</time></trkpt><trkpt lat="44.503995604347246" lon="10.729797548982598"><ele>149.6</ele><time>2026-04-08T17:30:26Z</time></trkpt><trkpt lat="44.503925253079345" lon="10.72988031939009"><ele>149.4</ele><time>2026-04-08T17:30:28Z</time></trkpt><trkpt lat="44.50386029783647" lon="10.729952816815434"><ele>149.2</ele><time>2026-04-08T17:30:30Z</time></trkpt><trkpt lat="44.503786668009056" lon="10.730042701075432"><ele>149.0</ele><time>2026-04-08T17:30:32Z</time></trkpt><trkpt lat="44.50371099027913" lon="10.730133524250766"><ele>149.0</ele><time>2026-04-08T17:30:34Z</time></trkpt><trkpt lat="44.50363731055598" lon="10.73021627283189"><ele>149.0</ele><time>2026-04-08T17:30:36Z</time></trkpt><trkpt lat="44.5035564406049" lon="10.730305237521875"><ele>149.0</ele><time>2026-04-08T17:30:38Z</time></trkpt><trkpt lat="44.50348267781381" lon="10.730390938046929"><ele>149.0</ele><time>2026-04-08T17:30:40Z</time></trkpt><trkpt lat="44.503411707744824" lon="10.73048189397154"><ele>149.0</ele><time>2026-04-08T17:30:42Z</time></trkpt><trkpt lat="44.50333515077683" lon="10.730565715664792"><ele>148.8</ele><time>2026-04-08T17:30:44Z</time></trkpt><trkpt lat="44.503264281769255" lon="10.73064566580575"><ele>148.60000000000002</ele><time>2026-04-08T17:30:46Z</time></trkpt><trkpt lat="44.50319414166863" lon="10.730736376809867"><ele>148.4</ele><time>2026-04-08T17:30:48Z</time></trkpt><trkpt lat="44.50311306226682" lon="10.730822452999918"><ele>148.20000000000002</ele><time>2026-04-08T17:30:50Z</time></trkpt><trkpt lat="44.50304061217254" lon="10.730901224024333"><ele>148.0</ele><time>2026-04-08T17:30:52Z</time></trkpt><trkpt lat="44.50297408710053" lon="10.730979098093725"><ele>148.33333333333334</ele><time>2026-04-08T17:30:54Z</time></trkpt><trkpt lat="44.50290525861745" lon="10.731061301033208"><ele>148.66666666666669</ele><time>2026-04-08T17:30:56Z</time></trkpt><trkpt lat="44.50284593863537" lon="10.731135234204567"><ele>149.0</ele><time>2026-04-08T17:30:58Z</time></trkpt><trkpt lat="44.502789695622525" lon="10.731203781367183"><ele>149.33333333333334</ele><time>2026-04-08T17:31:00Z</time></trkpt><trkpt lat="44.502739031186934" lon="10.731274839521014"><ele>149.66666666666666</ele><time>2026-04-08T17:31:02.001Z</time></trkpt><trkpt lat="44.502679714222324" lon="10.731354990617282"><ele>150.0</ele><time>2026-04-08T17:31:04.001Z</time></trkpt><trkpt lat="44.50259506439929" lon="10.731442395547239"><ele>150.0</ele><time>2026-04-08T17:31:06.001Z</time></trkpt><trkpt lat="44.50250557474771" lon="10.731537064263"><ele>150.0</ele><time>2026-04-08T17:31:08.001Z</time></trkpt><trkpt lat="44.50242588151919" lon="10.731641034963927"><ele>150.0</ele><time>2026-04-08T17:31:10.001Z</time></trkpt><trkpt lat="44.50233661835767" lon="10.731745359484544"><ele>150.0</ele><time>2026-04-08T17:31:12.001Z</time></trkpt><trkpt lat="44.50225366078491" lon="10.731844459886664"><ele>150.0</ele><time>2026-04-08T17:31:14.001Z</time></trkpt><trkpt lat="44.502173290253424" lon="10.731938480722595"><ele>150.2</ele><time>2026-04-08T17:31:16.001Z</time></trkpt><trkpt lat="44.50208816516445" lon="10.732032654891869"><ele>150.4</ele><time>2026-04-08T17:31:18.001Z</time></trkpt><trkpt lat="44.502009479541734" lon="10.732130931272682"><ele>150.6</ele><time>2026-04-08T17:31:20.001Z</time></trkpt><trkpt lat="44.50192746692968" lon="10.732224535127456"><ele>150.8</ele><time>2026-04-08T17:31:22.001Z</time></trkpt><trkpt lat="44.50184347225359" lon="10.732323944181607"><ele>151.0</ele><time>2026-04-08T17:31:24.001Z</time></trkpt><trkpt lat="44.50176292188916" lon="10.732415420686316"><ele>151.8</ele><time>2026-04-08T17:31:26.001Z</time></trkpt><trkpt lat="44.5016827351262" lon="10.732505746455162"><ele>152.6</ele><time>2026-04-08T17:31:28.001Z</time></trkpt><trkpt lat="44.50160723350044" lon="10.732605681394315"><ele>153.4</ele><time>2026-04-08T17:31:30.001Z</time></trkpt><trkpt lat="44.50154453921197" lon="10.732710833410305"><ele>154.2</ele><time>2026-04-08T17:31:32.001Z</time></trkpt><trkpt lat="44.501549700129054" lon="10.732821822581538"><ele>155.0</ele><time>2026-04-08T17:31:34.001Z</time></trkpt><trkpt lat="44.50156506362789" lon="10.732935575113634"><ele>155.83333333333331</ele><time>2026-04-08T17:31:38.001Z</time></trkpt><trkpt lat="44.501606289544505" lon="10.733035911948441"><ele>156.66666666666666</ele><time>2026-04-08T17:31:42.001Z</time></trkpt><trkpt lat="44.50167266758056" lon="10.73301585483265"><ele>157.5</ele><time>2026-04-08T17:31:45.001Z</time></trkpt><trkpt lat="44.50176615882935" lon="10.732969694113654"><ele>158.33333333333334</ele><time>2026-04-08T17:31:48.001Z</time></trkpt><trkpt lat="44.501852094793776" lon="10.732856826456116"><ele>159.16666666666669</ele><time>2026-04-08T17:31:50.001Z</time></trkpt><trkpt lat="44.50190621828102" lon="10.732798375972903"><ele>160.0</ele><time>2026-04-08T17:31:51.001Z</time></trkpt><trkpt lat="44.501962503250525" lon="10.7327327278627"><ele>159.28571428571428</ele><time>2026-04-08T17:31:52.001Z</time></trkpt><trkpt lat="44.502016495023376" lon="10.732675286654873"><ele>158.57142857142858</ele><time>2026-04-08T17:31:53.001Z</time></trkpt><trkpt lat="44.50207730732334" lon="10.732649101359161"><ele>157.85714285714286</ele><time>2026-04-08T17:31:54.001Z</time></trkpt><trkpt lat="44.502148609175805" lon="10.732676849980972"><ele>157.14285714285714</ele><time>2026-04-08T17:31:55.001Z</time></trkpt><trkpt lat="44.50221377273472" lon="10.732721617153071"><ele>156.42857142857142</ele><time>2026-04-08T17:31:56.001Z</time></trkpt><trkpt lat="44.502282612593994" lon="10.732747237482116"><ele>155.71428571428572</ele><time>2026-04-08T17:31:57.001Z</time></trkpt><trkpt lat="44.50235370775506" lon="10.732777746715948"><ele>155.0</ele><time>2026-04-08T17:31:58.001Z</time></trkpt><trkpt lat="44.50242951486385" lon="10.732804088551706"><ele>154.66666666666666</ele><time>2026-04-08T17:31:59.001Z</time></trkpt><trkpt lat="44.50250144066022" lon="10.732832036788313"><ele>154.33333333333331</ele><time>2026-04-08T17:32:00.001Z</time></trkpt><trkpt lat="44.502567412793766" lon="10.732869131494997"><ele>154.0</ele><time>2026-04-08T17:32:01.001Z</time></trkpt><trkpt lat="44.50263358121134" lon="10.732903411564697"><ele>153.66666666666666</ele><time>2026-04-08T17:32:02.001Z</time></trkpt><trkpt lat="44.50269862429882" lon="10.732936158437"><ele>153.33333333333334</ele><time>2026-04-08T17:32:03.001Z</time></trkpt><trkpt lat="44.50276918789311" lon="10.732972273109086"><ele>153.0</ele><time>2026-04-08T17:32:04.001Z</time></trkpt><trkpt lat="44.502879934019454" lon="10.73304328805322"><ele>152.6</ele><time>2026-04-08T17:32:06.001Z</time></trkpt><trkpt lat="44.502991991142004" lon="10.73311444065716"><ele>152.20000000000002</ele><time>2026-04-08T17:32:08.001Z</time></trkpt><trkpt lat="44.50304752879095" lon="10.733168524477284"><ele>151.8</ele><time>2026-04-08T17:32:09.001Z</time></trkpt><trkpt lat="44.50314398954711" lon="10.733270721369822"><ele>151.4</ele><time>2026-04-08T17:32:11.001Z</time></trkpt><trkpt lat="44.503253805184464" lon="10.733349090011865"><ele>151.0</ele><time>2026-04-08T17:32:13.001Z</time></trkpt><trkpt lat="44.50336600215812" lon="10.733435423594376"><ele>151.0</ele><time>2026-04-08T17:32:15.001Z</time></trkpt><trkpt lat="44.50342229569362" lon="10.733477088965664"><ele>151.0</ele><time>2026-04-08T17:32:16.001Z</time></trkpt><trkpt lat="44.50353361797577" lon="10.733559096058494"><ele>151.0</ele><time>2026-04-08T17:32:18.001Z</time></trkpt><trkpt lat="44.503633954781115" lon="10.733661159009515"><ele>151.0</ele><time>2026-04-08T17:32:20.001Z</time></trkpt><trkpt lat="44.50373403672312" lon="10.733765233707382"><ele>151.0</ele><time>2026-04-08T17:32:22.001Z</time></trkpt><trkpt lat="44.50378305588299" lon="10.73382348694718"><ele>150.66666666666669</ele><time>2026-04-08T17:32:23.001Z</time></trkpt><trkpt lat="44.50388470548878" lon="10.733928371921726"><ele>150.33333333333334</ele><time>2026-04-08T17:32:25.001Z</time></trkpt><trkpt lat="44.50393073086728" lon="10.733990660934232"><ele>150.0</ele><time>2026-04-08T17:32:26.001Z</time></trkpt><trkpt lat="44.503977283823275" lon="10.734057717589032"><ele>149.66666666666666</ele><time>2026-04-08T17:32:27.001Z</time></trkpt><trkpt lat="44.504035480557754" lon="10.734110419131827"><ele>149.33333333333331</ele><time>2026-04-08T17:32:28.001Z</time></trkpt><trkpt lat="44.504106763536946" lon="10.734144693130014"><ele>149.0</ele><time>2026-04-08T17:32:29.001Z</time></trkpt><trkpt lat="44.50417792200735" lon="10.73416807354703"><ele>149.0</ele><time>2026-04-08T17:32:30.001Z</time></trkpt><trkpt lat="44.504241602098254" lon="10.73419461893574"><ele>149.0</ele><time>2026-04-08T17:32:31.001Z</time></trkpt><trkpt lat="44.50433850854135" lon="10.734301158207881"><ele>149.0</ele><time>2026-04-08T17:32:33.001Z</time></trkpt><trkpt lat="44.50441576300376" lon="10.734441871600673"><ele>149.0</ele><time>2026-04-08T17:32:35.001Z</time></trkpt><trkpt lat="44.50449853435426" lon="10.73457024284008"><ele>149.0</ele><time>2026-04-08T17:32:37.001Z</time></trkpt><trkpt lat="44.50454780934064" lon="10.734633984310555"><ele>148.83333333333331</ele><time>2026-04-08T17:32:38.001Z</time></trkpt><trkpt lat="44.504596429582044" lon="10.734698054202685"><ele>148.66666666666666</ele><time>2026-04-08T17:32:39.001Z</time></trkpt><trkpt lat="44.50464529925508" lon="10.73475714656071"><ele>148.5</ele><time>2026-04-08T17:32:40.001Z</time></trkpt><trkpt lat="44.50469446918456" lon="10.734819205728334"><ele>148.33333333333334</ele><time>2026-04-08T17:32:41.001Z</time></trkpt><trkpt lat="44.504745260999144" lon="10.734872368013948"><ele>148.16666666666669</ele><time>2026-04-08T17:32:42.001Z</time></trkpt><trkpt lat="44.50485159038721" lon="10.734977094504094"><ele>148.0</ele><time>2026-04-08T17:32:44.001Z</time></trkpt><trkpt lat="44.504904009498915" lon="10.735029088369672"><ele>148.0</ele><time>2026-04-08T17:32:45.001Z</time></trkpt><trkpt lat="44.504960608692116" lon="10.735078671844612"><ele>148.0</ele><time>2026-04-08T17:32:46.001Z</time></trkpt><trkpt lat="44.50501582530087" lon="10.735121406114445"><ele>148.0</ele><time>2026-04-08T17:32:47.001Z</time></trkpt><trkpt lat="44.50507436932263" lon="10.7351595317679"><ele>148.0</ele><time>2026-04-08T17:32:48.001Z</time></trkpt><trkpt lat="44.505137761852595" lon="10.735198901143104"><ele>148.0</ele><time>2026-04-08T17:32:49.001Z</time></trkpt><trkpt lat="44.5052494574314" lon="10.735272952517324"><ele>148.0</ele><time>2026-04-08T17:32:51.001Z</time></trkpt><trkpt lat="44.50530499400917" lon="10.735317134262793"><ele>147.8</ele><time>2026-04-08T17:32:52.001Z</time></trkpt><trkpt lat="44.50535704711602" lon="10.735366952221572"><ele>147.60000000000002</ele><time>2026-04-08T17:32:53.001Z</time></trkpt><trkpt lat="44.50545131340015" lon="10.735479492571717"><ele>147.39999999999998</ele><time>2026-04-08T17:32:55.001Z</time></trkpt><trkpt lat="44.50550917040681" lon="10.735536701211531"><ele>147.2</ele><time>2026-04-08T17:32:56.001Z</time></trkpt><trkpt lat="44.50560574984446" lon="10.735641966625302"><ele>147.0</ele><time>2026-04-08T17:32:58.001Z</time></trkpt><trkpt lat="44.50570599849484" lon="10.735746747194646"><ele>147.0</ele><time>2026-04-08T17:33:00.001Z</time></trkpt><trkpt lat="44.50580763204791" lon="10.735835603859762"><ele>147.0</ele><time>2026-04-08T17:33:02.001Z</time></trkpt><trkpt lat="44.50591005026254" lon="10.735927953417757"><ele>147.0</ele><time>2026-04-08T17:33:04.001Z</time></trkpt><trkpt lat="44.506017014338276" lon="10.736018570648573"><ele>147.0</ele><time>2026-04-08T17:33:06.001Z</time></trkpt><trkpt lat="44.50611985910845" lon="10.736111026981957"><ele>147.0</ele><time>2026-04-08T17:33:08.001Z</time></trkpt><trkpt lat="44.50621556839661" lon="10.736211263415353"><ele>147.0</ele><time>2026-04-08T17:33:10.001Z</time></trkpt><trkpt lat="44.50631317202582" lon="10.736313418864922"><ele>147.0</ele><time>2026-04-08T17:33:12.001Z</time></trkpt><trkpt lat="44.506421405134326" lon="10.736394969703344"><ele>147.0</ele><time>2026-04-08T17:33:14.001Z</time></trkpt><trkpt lat="44.50647939569899" lon="10.73643819414546"><ele>147.0</ele><time>2026-04-08T17:33:15.001Z</time></trkpt><trkpt lat="44.50658917028554" lon="10.736529203734252"><ele>147.0</ele><time>2026-04-08T17:33:17.001Z</time></trkpt><trkpt lat="44.50665071255735" lon="10.73657577249675"><ele>147.0</ele><time>2026-04-08T17:33:18.001Z</time></trkpt><trkpt lat="44.50675371514738" lon="10.736677660351765"><ele>147.0</ele><time>2026-04-08T17:33:20.001Z</time></trkpt><trkpt lat="44.506850689856" lon="10.736795450322438"><ele>147.0</ele><time>2026-04-08T17:33:22.001Z</time></trkpt><trkpt lat="44.50693413502964" lon="10.736927710866711"><ele>147.0</ele><time>2026-04-08T17:33:24.001Z</time></trkpt><trkpt lat="44.50700736650188" lon="10.737068394817658"><ele>147.0</ele><time>2026-04-08T17:33:26.001Z</time></trkpt><trkpt lat="44.50704393174388" lon="10.737142477935782"><ele>147.0</ele><time>2026-04-08T17:33:27.001Z</time></trkpt><trkpt lat="44.507111522346136" lon="10.737287009940768"><ele>147.0</ele><time>2026-04-08T17:33:29.001Z</time></trkpt><trkpt lat="44.50714634902121" lon="10.73736408587136"><ele>147.0</ele><time>2026-04-08T17:33:30.001Z</time></trkpt><trkpt lat="44.50721801303516" lon="10.737505120426679"><ele>146.2</ele><time>2026-04-08T17:33:32.001Z</time></trkpt><trkpt lat="44.50729092901453" lon="10.737646046154623"><ele>145.39999999999998</ele><time>2026-04-08T17:33:34.001Z</time></trkpt><trkpt lat="44.50732810274395" lon="10.737718149551563"><ele>144.60000000000002</ele><time>2026-04-08T17:33:35.001Z</time></trkpt><trkpt lat="44.50740162655909" lon="10.737862572949863"><ele>143.8</ele><time>2026-04-08T17:33:37.001Z</time></trkpt><trkpt lat="44.507469980118934" lon="10.738005164943583"><ele>143.0</ele><time>2026-04-08T17:33:39.001Z</time></trkpt><trkpt lat="44.50750605318247" lon="10.738077824541275"><ele>143.0</ele><time>2026-04-08T17:33:40.001Z</time></trkpt><trkpt lat="44.50757757150967" lon="10.73821686169934"><ele>143.0</ele><time>2026-04-08T17:33:42.001Z</time></trkpt><trkpt lat="44.50761488228853" lon="10.738291030293642"><ele>143.0</ele><time>2026-04-08T17:33:43.001Z</time></trkpt><trkpt lat="44.50769241757003" lon="10.738430602092068"><ele>143.0</ele><time>2026-04-08T17:33:45.001Z</time></trkpt><trkpt lat="44.50776666045456" lon="10.738574729490004"><ele>143.0</ele><time>2026-04-08T17:33:47.001Z</time></trkpt><trkpt lat="44.507844927842505" lon="10.73870990496744"><ele>142.83333333333331</ele><time>2026-04-08T17:33:49Z</time></trkpt><trkpt lat="44.50791805416242" lon="10.738843155720518"><ele>142.66666666666666</ele><time>2026-04-08T17:33:51Z</time></trkpt><trkpt lat="44.50795879426059" lon="10.738921375391193"><ele>142.5</ele><time>2026-04-08T17:33:52Z</time></trkpt><trkpt lat="44.5080017824924" lon="10.73898952838776"><ele>142.33333333333334</ele><time>2026-04-08T17:33:53Z</time></trkpt><trkpt lat="44.508043211584976" lon="10.739058400883096"><ele>142.16666666666669</ele><time>2026-04-08T17:33:54Z</time></trkpt><trkpt lat="44.508124859571765" lon="10.73918920887576"><ele>142.0</ele><time>2026-04-08T17:33:56Z</time></trkpt><trkpt lat="44.508201738704784" lon="10.739320410990272"><ele>142.83333333333334</ele><time>2026-04-08T17:33:58Z</time></trkpt><trkpt lat="44.50824015065807" lon="10.739394609929041"><ele>143.66666666666669</ele><time>2026-04-08T17:33:59Z</time></trkpt><trkpt lat="44.50828590707811" lon="10.739461196020232"><ele>144.5</ele><time>2026-04-08T17:34:00Z</time></trkpt><trkpt lat="44.508330452318425" lon="10.739530808740327"><ele>145.33333333333334</ele><time>2026-04-08T17:34:01Z</time></trkpt><trkpt lat="44.50837322282998" lon="10.739601423192742"><ele>146.16666666666666</ele><time>2026-04-08T17:34:02Z</time></trkpt><trkpt lat="44.50841988849181" lon="10.739668731475456"><ele>147.0</ele><time>2026-04-08T17:34:03Z</time></trkpt><trkpt lat="44.50848895407478" lon="10.739810302799114"><ele>147.0</ele><time>2026-04-08T17:34:05Z</time></trkpt><trkpt lat="44.508522029922766" lon="10.739953469267254"><ele>147.0</ele><time>2026-04-08T17:34:07Z</time></trkpt><trkpt lat="44.50859039711776" lon="10.740040784563364"><ele>147.0</ele><time>2026-04-08T17:34:09Z</time></trkpt><trkpt lat="44.50864830489551" lon="10.740130167992886"><ele>147.0</ele><time>2026-04-08T17:34:11Z</time></trkpt><trkpt lat="44.50871288985699" lon="10.740237052192333"><ele>147.0</ele><time>2026-04-08T17:34:13Z</time></trkpt><trkpt lat="44.50879444962551" lon="10.740355457257813"><ele>145.75</ele><time>2026-04-08T17:34:15Z</time></trkpt><trkpt lat="44.508889946841464" lon="10.740472111800214"><ele>144.5</ele><time>2026-04-08T17:34:17Z</time></trkpt><trkpt lat="44.50897964154392" lon="10.740588231358585"><ele>143.25</ele><time>2026-04-08T17:34:19Z</time></trkpt><trkpt lat="44.509047617024606" lon="10.740704607693948"><ele>142.0</ele><time>2026-04-08T17:34:21Z</time></trkpt><trkpt lat="44.50909920324054" lon="10.740817661315765"><ele>142.0</ele><time>2026-04-08T17:34:23Z</time></trkpt><trkpt lat="44.50913255746148" lon="10.740910503677682"><ele>142.0</ele><time>2026-04-08T17:34:25Z</time></trkpt><trkpt lat="44.50918630803756" lon="10.740992270749327"><ele>142.0</ele><time>2026-04-08T17:34:27Z</time></trkpt><trkpt lat="44.509253259065275" lon="10.74109021258612"><ele>142.0</ele><time>2026-04-08T17:34:29Z</time></trkpt><trkpt lat="44.509323882451554" lon="10.7411800975792"><ele>142.0</ele><time>2026-04-08T17:34:31Z</time></trkpt><trkpt lat="44.50939206068018" lon="10.74127336757327"><ele>142.0</ele><time>2026-04-08T17:34:33Z</time></trkpt><trkpt lat="44.50945750077019" lon="10.7413678253242"><ele>142.0</ele><time>2026-04-08T17:34:35Z</time></trkpt><trkpt lat="44.50953625748312" lon="10.741459623258987"><ele>142.0</ele><time>2026-04-08T17:34:37Z</time></trkpt><trkpt lat="44.509595642148255" lon="10.741561162530433"><ele>142.0</ele><time>2026-04-08T17:34:39Z</time></trkpt><trkpt lat="44.50965982515383" lon="10.741652298258625"><ele>142.0</ele><time>2026-04-08T17:34:41Z</time></trkpt><trkpt lat="44.509730747077256" lon="10.741758790526868"><ele>142.0</ele><time>2026-04-08T17:34:43Z</time></trkpt><trkpt lat="44.50980026053828" lon="10.741861798203177"><ele>142.66666666666669</ele><time>2026-04-08T17:34:45Z</time></trkpt><trkpt lat="44.50987519935808" lon="10.741956380177513"><ele>143.33333333333334</ele><time>2026-04-08T17:34:47Z</time></trkpt><trkpt lat="44.50995187742105" lon="10.742047488331929"><ele>144.0</ele><time>2026-04-08T17:34:49Z</time></trkpt><trkpt lat="44.51005215464754" lon="10.742108597095948"><ele>144.66666666666666</ele><time>2026-04-08T17:34:51Z</time></trkpt><trkpt lat="44.51011169236311" lon="10.742137392516932"><ele>145.33333333333331</ele><time>2026-04-08T17:34:52Z</time></trkpt><trkpt lat="44.5101728369053" lon="10.742166967990652"><ele>146.0</ele><time>2026-04-08T17:34:53Z</time></trkpt><trkpt lat="44.510287924567315" lon="10.74223980123576"><ele>146.0</ele><time>2026-04-08T17:34:55Z</time></trkpt><trkpt lat="44.510350756423286" lon="10.742281947465372"><ele>146.0</ele><time>2026-04-08T17:34:56Z</time></trkpt><trkpt lat="44.510410576421116" lon="10.74231379913769"><ele>146.0</ele><time>2026-04-08T17:34:57Z</time></trkpt><trkpt lat="44.5104623779575" lon="10.742377883986228"><ele>146.0</ele><time>2026-04-08T17:34:58Z</time></trkpt><trkpt lat="44.51050552382887" lon="10.742443363267641"><ele>146.0</ele><time>2026-04-08T17:34:59Z</time></trkpt><trkpt lat="44.5105519310382" lon="10.742515640819883"><ele>146.0</ele><time>2026-04-08T17:35:00Z</time></trkpt><trkpt lat="44.5105947862873" lon="10.742583823280135"><ele>146.0</ele><time>2026-04-08T17:35:01Z</time></trkpt><trkpt lat="44.51064218887974" lon="10.742645123887435"><ele>145.66666666666666</ele><time>2026-04-08T17:35:02Z</time></trkpt><trkpt lat="44.51070096889485" lon="10.742695009241539"><ele>145.33333333333331</ele><time>2026-04-08T17:35:03Z</time></trkpt><trkpt lat="44.51076517447044" lon="10.742732250525252"><ele>145.0</ele><time>2026-04-08T17:35:04Z</time></trkpt><trkpt lat="44.510841302675466" lon="10.742746575279186"><ele>144.66666666666666</ele><time>2026-04-08T17:35:05Z</time></trkpt><trkpt lat="44.51091216332129" lon="10.742766467476931"><ele>144.33333333333334</ele><time>2026-04-08T17:35:06Z</time></trkpt><trkpt lat="44.510977684243805" lon="10.742805230961494"><ele>144.0</ele><time>2026-04-08T17:35:07Z</time></trkpt><trkpt lat="44.51109116365858" lon="10.742881764441952"><ele>144.0</ele><time>2026-04-08T17:35:09Z</time></trkpt><trkpt lat="44.51114893783034" lon="10.742921137073495"><ele>144.0</ele><time>2026-04-08T17:35:10Z</time></trkpt><trkpt lat="44.51120919882831" lon="10.742951091130895"><ele>144.0</ele><time>2026-04-08T17:35:11Z</time></trkpt><trkpt lat="44.51133228342989" lon="10.742995785459021"><ele>144.0</ele><time>2026-04-08T17:35:13Z</time></trkpt><trkpt lat="44.51140242978574" lon="10.743012364520053"><ele>144.0</ele><time>2026-04-08T17:35:14Z</time></trkpt><trkpt lat="44.51146439372041" lon="10.743031416749915"><ele>144.0</ele><time>2026-04-08T17:35:15Z</time></trkpt><trkpt lat="44.51153367589974" lon="10.743051735194328"><ele>143.5</ele><time>2026-04-08T17:35:16Z</time></trkpt><trkpt lat="44.5116056240432" lon="10.74307883163531"><ele>143.0</ele><time>2026-04-08T17:35:17Z</time></trkpt><trkpt lat="44.5116665876331" lon="10.743110830401461"><ele>142.5</ele><time>2026-04-08T17:35:18Z</time></trkpt><trkpt lat="44.51172855022484" lon="10.743152886324571"><ele>142.0</ele><time>2026-04-08T17:35:19Z</time></trkpt><trkpt lat="44.5117832094669" lon="10.743207567209534"><ele>141.5</ele><time>2026-04-08T17:35:20Z</time></trkpt><trkpt lat="44.5118809364804" lon="10.743317313718489"><ele>141.0</ele><time>2026-04-08T17:35:22Z</time></trkpt><trkpt lat="44.511989062183304" lon="10.743410420685953"><ele>141.0</ele><time>2026-04-08T17:35:24Z</time></trkpt><trkpt lat="44.512045579302466" lon="10.743461716545077"><ele>141.0</ele><time>2026-04-08T17:35:25Z</time></trkpt><trkpt lat="44.512100165980094" lon="10.743516716222672"><ele>141.0</ele><time>2026-04-08T17:35:26Z</time></trkpt><trkpt lat="44.51215994555588" lon="10.743563466998229"><ele>141.0</ele><time>2026-04-08T17:35:27Z</time></trkpt><trkpt lat="44.51221021621843" lon="10.743618436558329"><ele>141.0</ele><time>2026-04-08T17:35:28Z</time></trkpt><trkpt lat="44.51231303460914" lon="10.743718619378694"><ele>141.0</ele><time>2026-04-08T17:35:30Z</time></trkpt><trkpt lat="44.51242215510666" lon="10.74381184620034"><ele>141.0</ele><time>2026-04-08T17:35:32Z</time></trkpt><trkpt lat="44.51248481663181" lon="10.743845166933662"><ele>141.0</ele><time>2026-04-08T17:35:33Z</time></trkpt><trkpt lat="44.512547168114786" lon="10.743872808786591"><ele>141.0</ele><time>2026-04-08T17:35:34Z</time></trkpt><trkpt lat="44.512616728415836" lon="10.743884292841507"><ele>141.0</ele><time>2026-04-08T17:35:35Z</time></trkpt><trkpt lat="44.51268723078454" lon="10.743905299276816"><ele>141.0</ele><time>2026-04-08T17:35:36Z</time></trkpt><trkpt lat="44.51274897527174" lon="10.743936546459906"><ele>141.0</ele><time>2026-04-08T17:35:37Z</time></trkpt><trkpt lat="44.51281463393659" lon="10.74396992435488"><ele>141.0</ele><time>2026-04-08T17:35:38Z</time></trkpt><trkpt lat="44.512880741130836" lon="10.74400239466524"><ele>140.66666666666666</ele><time>2026-04-08T17:35:39Z</time></trkpt><trkpt lat="44.51294700856317" lon="10.74403332497011"><ele>140.33333333333334</ele><time>2026-04-08T17:35:40Z</time></trkpt><trkpt lat="44.513012185620994" lon="10.74406771674587"><ele>140.0</ele><time>2026-04-08T17:35:41Z</time></trkpt><trkpt lat="44.513073451840896" lon="10.744096437444858"><ele>139.66666666666669</ele><time>2026-04-08T17:35:42Z</time></trkpt><trkpt lat="44.513136925850254" lon="10.744118807051745"><ele>139.33333333333334</ele><time>2026-04-08T17:35:43Z</time></trkpt><trkpt lat="44.5132062124691" lon="10.744140409507047"><ele>139.0</ele><time>2026-04-08T17:35:44Z</time></trkpt><trkpt lat="44.513322944937215" lon="10.744174380788941"><ele>139.0</ele><time>2026-04-08T17:35:46Z</time></trkpt><trkpt lat="44.51343902402172" lon="10.744220757619214"><ele>139.0</ele><time>2026-04-08T17:35:48Z</time></trkpt><trkpt lat="44.513499914791254" lon="10.744252349392966"><ele>139.0</ele><time>2026-04-08T17:35:49Z</time></trkpt><trkpt lat="44.51356093706389" lon="10.74428157375974"><ele>139.0</ele><time>2026-04-08T17:35:50Z</time></trkpt><trkpt lat="44.513620458044436" lon="10.744312160658065"><ele>139.0</ele><time>2026-04-08T17:35:51Z</time></trkpt><trkpt lat="44.51373645192826" lon="10.744373913608705"><ele>139.0</ele><time>2026-04-08T17:35:53Z</time></trkpt><trkpt lat="44.513840965380474" lon="10.74443017173766"><ele>139.5</ele><time>2026-04-08T17:35:55Z</time></trkpt><trkpt lat="44.51393742278731" lon="10.744499174517474"><ele>140.0</ele><time>2026-04-08T17:35:57Z</time></trkpt><trkpt lat="44.51403469087526" lon="10.744582957032385"><ele>140.5</ele><time>2026-04-08T17:35:59Z</time></trkpt><trkpt lat="44.51412842591854" lon="10.744687718832843"><ele>141.0</ele><time>2026-04-08T17:36:01Z</time></trkpt><trkpt lat="44.51421298544242" lon="10.744828107555554"><ele>141.0</ele><time>2026-04-08T17:36:02.999Z</time></trkpt><trkpt lat="44.51429102593291" lon="10.744944603869138"><ele>141.0</ele><time>2026-04-08T17:36:04.999Z</time></trkpt><trkpt lat="44.514383836171795" lon="10.745043129103522"><ele>141.0</ele><time>2026-04-08T17:36:06.999Z</time></trkpt><trkpt lat="44.51447270255649" lon="10.745131489511857"><ele>141.0</ele><time>2026-04-08T17:36:09Z</time></trkpt><trkpt lat="44.514555718199134" lon="10.74521872962521"><ele>141.0</ele><time>2026-04-08T17:36:11Z</time></trkpt><trkpt lat="44.51464633447615" lon="10.745296176665805"><ele>140.8</ele><time>2026-04-08T17:36:13Z</time></trkpt><trkpt lat="44.51474441428021" lon="10.745366145542011"><ele>140.6</ele><time>2026-04-08T17:36:15Z</time></trkpt><trkpt lat="44.51483734769501" lon="10.745462739039883"><ele>140.4</ele><time>2026-04-08T17:36:17Z</time></trkpt><trkpt lat="44.5149291414356" lon="10.745546009095804"><ele>140.2</ele><time>2026-04-08T17:36:19Z</time></trkpt><trkpt lat="44.51502931753517" lon="10.745619385157093"><ele>140.0</ele><time>2026-04-08T17:36:21Z</time></trkpt><trkpt lat="44.515137957400114" lon="10.745687879484144"><ele>140.0</ele><time>2026-04-08T17:36:23Z</time></trkpt><trkpt lat="44.51523185488111" lon="10.74578007487651"><ele>140.0</ele><time>2026-04-08T17:36:25Z</time></trkpt><trkpt lat="44.51532717167827" lon="10.745871399403828"><ele>140.0</ele><time>2026-04-08T17:36:27Z</time></trkpt><trkpt lat="44.5154352769952" lon="10.74595079899371"><ele>140.0</ele><time>2026-04-08T17:36:29Z</time></trkpt><trkpt lat="44.51553042511274" lon="10.746033375810107"><ele>140.2</ele><time>2026-04-08T17:36:31Z</time></trkpt><trkpt lat="44.515589134066616" lon="10.746078839412611"><ele>140.4</ele><time>2026-04-08T17:36:32Z</time></trkpt><trkpt lat="44.515686391480045" lon="10.74617581312556"><ele>140.6</ele><time>2026-04-08T17:36:34Z</time></trkpt><trkpt lat="44.51577827469538" lon="10.74625560813729"><ele>140.8</ele><time>2026-04-08T17:36:36Z</time></trkpt><trkpt lat="44.51584029947817" lon="10.746302974733428"><ele>141.0</ele><time>2026-04-08T17:36:37Z</time></trkpt><trkpt lat="44.515934064257415" lon="10.746383143490545"><ele>141.0</ele><time>2026-04-08T17:36:39Z</time></trkpt><trkpt lat="44.5160382655159" lon="10.746460414449473"><ele>141.0</ele><time>2026-04-08T17:36:41Z</time></trkpt><trkpt lat="44.51612038072536" lon="10.74652431585572"><ele>141.0</ele><time>2026-04-08T17:36:43Z</time></trkpt><trkpt lat="44.51619306177647" lon="10.746566659647973"><ele>141.0</ele><time>2026-04-08T17:36:45Z</time></trkpt><trkpt lat="44.51626400875979" lon="10.746620134620544"><ele>141.0</ele><time>2026-04-08T17:36:47Z</time></trkpt><trkpt lat="44.516352020204145" lon="10.746673272385365"><ele>140.57142857142858</ele><time>2026-04-08T17:36:49Z</time></trkpt><trkpt lat="44.5164439394339" lon="10.746764672517678"><ele>140.14285714285714</ele><time>2026-04-08T17:36:51Z</time></trkpt><trkpt lat="44.51649468959892" lon="10.746817325654632"><ele>139.71428571428572</ele><time>2026-04-08T17:36:52Z</time></trkpt><trkpt lat="44.51655076371384" lon="10.746864240426396"><ele>139.28571428571428</ele><time>2026-04-08T17:36:53Z</time></trkpt><trkpt lat="44.516613665493395" lon="10.746909470051406"><ele>138.85714285714286</ele><time>2026-04-08T17:36:54Z</time></trkpt><trkpt lat="44.51667550717777" lon="10.746953138925429"><ele>138.42857142857144</ele><time>2026-04-08T17:36:55Z</time></trkpt><trkpt lat="44.51673231578837" lon="10.74700105693909"><ele>138.0</ele><time>2026-04-08T17:36:56Z</time></trkpt><trkpt lat="44.516788936178635" lon="10.747050448497928"><ele>138.0</ele><time>2026-04-08T17:36:57Z</time></trkpt><trkpt lat="44.51684616165568" lon="10.747098075646244"><ele>138.0</ele><time>2026-04-08T17:36:58Z</time></trkpt><trkpt lat="44.51690484971937" lon="10.747149750622679"><ele>138.0</ele><time>2026-04-08T17:36:59Z</time></trkpt><trkpt lat="44.51696333505122" lon="10.747201080977293"><ele>138.0</ele><time>2026-04-08T17:37:00Z</time></trkpt><trkpt lat="44.51701725819532" lon="10.747256055537939"><ele>138.0</ele><time>2026-04-08T17:37:01Z</time></trkpt><trkpt lat="44.51706949868665" lon="10.747311772513084"><ele>138.0</ele><time>2026-04-08T17:37:02Z</time></trkpt><trkpt lat="44.517171744595096" lon="10.747411581548127"><ele>137.75</ele><time>2026-04-08T17:37:04Z</time></trkpt><trkpt lat="44.51726308009545" lon="10.747520385846862"><ele>137.5</ele><time>2026-04-08T17:37:06Z</time></trkpt><trkpt lat="44.51735848977355" lon="10.747618933954877"><ele>137.25</ele><time>2026-04-08T17:37:08Z</time></trkpt><trkpt lat="44.51744776354793" lon="10.74771554792407"><ele>137.0</ele><time>2026-04-08T17:37:10Z</time></trkpt><trkpt lat="44.517530646671844" lon="10.747798217819117"><ele>137.00000000000003</ele><time>2026-04-08T17:37:12Z</time></trkpt><trkpt lat="44.51758560167036" lon="10.747847394457207"><ele>137.0</ele><time>2026-04-08T17:37:15Z</time></trkpt><trkpt lat="44.517629543643935" lon="10.747910642754608"><ele>137.0</ele><time>2026-04-08T17:37:19Z</time></trkpt><trkpt lat="44.517695935354524" lon="10.747974496821383"><ele>137.0</ele><time>2026-04-08T17:37:22Z</time></trkpt><trkpt lat="44.517754207141365" lon="10.748051829689858"><ele>137.0</ele><time>2026-04-08T17:37:25Z</time></trkpt><trkpt lat="44.51780893905349" lon="10.748125750873804"><ele>137.00000000000003</ele><time>2026-04-08T17:37:28Z</time></trkpt><trkpt lat="44.51785401182459" lon="10.748193221520973"><ele>137.0</ele><time>2026-04-08T17:37:31Z</time></trkpt><trkpt lat="44.51792253742428" lon="10.748253396196096"><ele>136.71428571428572</ele><time>2026-04-08T17:37:34Z</time></trkpt><trkpt lat="44.51798978099818" lon="10.748317200332481"><ele>136.42857142857144</ele><time>2026-04-08T17:37:37Z</time></trkpt><trkpt lat="44.51805033434572" lon="10.74838022325572"><ele>136.14285714285714</ele><time>2026-04-08T17:37:40Z</time></trkpt><trkpt lat="44.51810892753823" lon="10.748421994299681"><ele>135.85714285714286</ele><time>2026-04-08T17:37:43Z</time></trkpt><trkpt lat="44.51817292527742" lon="10.74847048686082"><ele>135.57142857142856</ele><time>2026-04-08T17:37:46Z</time></trkpt><trkpt lat="44.518242208958426" lon="10.74852836466345"><ele>135.28571428571428</ele><time>2026-04-08T17:37:50Z</time></trkpt><trkpt lat="44.518301802905725" lon="10.748562297361543"><ele>135.0</ele><time>2026-04-08T17:37:53Z</time></trkpt><trkpt lat="44.51836186617598" lon="10.748605255814164"><ele>134.71428571428572</ele><time>2026-04-08T17:37:56Z</time></trkpt><trkpt lat="44.51842569220521" lon="10.748652961127787"><ele>134.42857142857142</ele><time>2026-04-08T17:37:59Z</time></trkpt><trkpt lat="44.5184919168642" lon="10.748704127237215"><ele>134.14285714285714</ele><time>2026-04-08T17:38:02Z</time></trkpt><trkpt lat="44.51855974287909" lon="10.74876274038208"><ele>133.85714285714286</ele><time>2026-04-08T17:38:05Z</time></trkpt><trkpt lat="44.518616847930545" lon="10.748822763188723"><ele>133.57142857142856</ele><time>2026-04-08T17:38:08Z</time></trkpt><trkpt lat="44.518671225193984" lon="10.748901176591419"><ele>133.28571428571428</ele><time>2026-04-08T17:38:11Z</time></trkpt><trkpt lat="44.51872167062583" lon="10.748968586889696"><ele>133.0</ele><time>2026-04-08T17:38:14Z</time></trkpt><trkpt lat="44.518783916101796" lon="10.749050308305733"><ele>133.0</ele><time>2026-04-08T17:38:17Z</time></trkpt><trkpt lat="44.518833980310994" lon="10.749131610745723"><ele>133.0</ele><time>2026-04-08T17:38:20Z</time></trkpt><trkpt lat="44.51889667770039" lon="10.749229518173255"><ele>133.0</ele><time>2026-04-08T17:38:23Z</time></trkpt><trkpt lat="44.51895602820541" lon="10.749320853521887"><ele>133.0</ele><time>2026-04-08T17:38:26Z</time></trkpt><trkpt lat="44.519014108870394" lon="10.74936466504596"><ele>133.0</ele><time>2026-04-08T17:38:28Z</time></trkpt><trkpt lat="44.51906839338836" lon="10.749431010645358"><ele>133.0</ele><time>2026-04-08T17:38:30Z</time></trkpt><trkpt lat="44.51911590042705" lon="10.749519693922837"><ele>134.20000000000002</ele><time>2026-04-08T17:38:32Z</time></trkpt><trkpt lat="44.51917170734065" lon="10.749593976876275"><ele>135.4</ele><time>2026-04-08T17:38:34Z</time></trkpt><trkpt lat="44.51923212189271" lon="10.749699175967317"><ele>136.60000000000002</ele><time>2026-04-08T17:38:36Z</time></trkpt><trkpt lat="44.519298307743306" lon="10.74981487684854"><ele>137.8</ele><time>2026-04-08T17:38:38Z</time></trkpt><trkpt lat="44.519379349265975" lon="10.749938988433884"><ele>139.0</ele><time>2026-04-08T17:38:40Z</time></trkpt><trkpt lat="44.51942037128054" lon="10.750008528764921"><ele>139.0</ele><time>2026-04-08T17:38:41Z</time></trkpt><trkpt lat="44.51950523574346" lon="10.750139378390537"><ele>139.0</ele><time>2026-04-08T17:38:43Z</time></trkpt><trkpt lat="44.519548981208764" lon="10.75020523760028"><ele>139.0</ele><time>2026-04-08T17:38:44Z</time></trkpt><trkpt lat="44.51964291361518" lon="10.750319292708836"><ele>139.0</ele><time>2026-04-08T17:38:46Z</time></trkpt><trkpt lat="44.519750277347036" lon="10.750399495572161"><ele>139.0</ele><time>2026-04-08T17:38:48Z</time></trkpt><trkpt lat="44.51986410687192" lon="10.750388148689586"><ele>138.6</ele><time>2026-04-08T17:38:50Z</time></trkpt><trkpt lat="44.519952761004" lon="10.750310319517261"><ele>138.2</ele><time>2026-04-08T17:38:52Z</time></trkpt><trkpt lat="44.52001024216949" lon="10.750190578716769"><ele>137.79999999999998</ele><time>2026-04-08T17:38:54Z</time></trkpt><trkpt lat="44.52003792882342" lon="10.750044568520297"><ele>137.4</ele><time>2026-04-08T17:38:56Z</time></trkpt><trkpt lat="44.520081088881916" lon="10.749885403300144"><ele>137.0</ele><time>2026-04-08T17:38:58Z</time></trkpt><trkpt lat="44.520094652085085" lon="10.7497916292514"><ele>137.0</ele><time>2026-04-08T17:38:59Z</time></trkpt><trkpt lat="44.52009484812135" lon="10.749600935079165"><ele>137.0</ele><time>2026-04-08T17:39:01Z</time></trkpt><trkpt lat="44.52010716039273" lon="10.749457996448319"><ele>137.0</ele><time>2026-04-08T17:39:03Z</time></trkpt><trkpt lat="44.52015906787297" lon="10.749382129972451"><ele>137.0</ele><time>2026-04-08T17:39:05Z</time></trkpt><trkpt lat="44.52023307422986" lon="10.749347353925812"><ele>137.0</ele><time>2026-04-08T17:39:07Z</time></trkpt><trkpt lat="44.520307846354136" lon="10.749384430623987"><ele>136.4</ele><time>2026-04-08T17:39:09Z</time></trkpt><trkpt lat="44.52040161692083" lon="10.749432074209958"><ele>135.79999999999998</ele><time>2026-04-08T17:39:11Z</time></trkpt><trkpt lat="44.52047451757211" lon="10.74949161794784"><ele>135.2</ele><time>2026-04-08T17:39:13Z</time></trkpt><trkpt lat="44.52053548386173" lon="10.749584903500354"><ele>134.6</ele><time>2026-04-08T17:39:15Z</time></trkpt><trkpt lat="44.52062148182013" lon="10.749673888430006"><ele>134.0</ele><time>2026-04-08T17:39:17Z</time></trkpt><trkpt lat="44.520722775839346" lon="10.749751179109417"><ele>134.0</ele><time>2026-04-08T17:39:19Z</time></trkpt><trkpt lat="44.52081042123306" lon="10.749867919891276"><ele>134.0</ele><time>2026-04-08T17:39:21Z</time></trkpt><trkpt lat="44.520849744891194" lon="10.749937793002712"><ele>134.0</ele><time>2026-04-08T17:39:22Z</time></trkpt><trkpt lat="44.52089985870227" lon="10.750096067494116"><ele>134.0</ele><time>2026-04-08T17:39:24Z</time></trkpt><trkpt lat="44.52094628809846" lon="10.750246105117657"><ele>134.0</ele><time>2026-04-08T17:39:26Z</time></trkpt><trkpt lat="44.52096911141235" lon="10.750413453745173"><ele>134.0</ele><time>2026-04-08T17:39:28Z</time></trkpt><trkpt lat="44.52099655308686" lon="10.750568482524947"><ele>134.0</ele><time>2026-04-08T17:39:30Z</time></trkpt><trkpt lat="44.52100497654729" lon="10.750716080446674"><ele>134.0</ele><time>2026-04-08T17:39:32Z</time></trkpt><trkpt lat="44.521022981991514" lon="10.75086472246492"><ele>134.0</ele><time>2026-04-08T17:39:34Z</time></trkpt><trkpt lat="44.521108577000206" lon="10.750939222268762"><ele>134.0</ele><time>2026-04-08T17:39:36Z</time></trkpt><trkpt lat="44.52121342442485" lon="10.750941144435565"><ele>133.2</ele><time>2026-04-08T17:39:38Z</time></trkpt><trkpt lat="44.52134074723934" lon="10.750935012089222"><ele>132.4</ele><time>2026-04-08T17:39:40Z</time></trkpt><trkpt lat="44.5214105448573" lon="10.75094090866508"><ele>131.6</ele><time>2026-04-08T17:39:41Z</time></trkpt><trkpt lat="44.52147398242843" lon="10.750945992375133"><ele>130.8</ele><time>2026-04-08T17:39:42Z</time></trkpt><trkpt lat="44.52159998946829" lon="10.750942643053072"><ele>130.0</ele><time>2026-04-08T17:39:44Z</time></trkpt><trkpt lat="44.52172367683977" lon="10.75094125389553"><ele>130.0</ele><time>2026-04-08T17:39:46Z</time></trkpt><trkpt lat="44.52184172023227" lon="10.750963498053446"><ele>130.0</ele><time>2026-04-08T17:39:48Z</time></trkpt><trkpt lat="44.52192354599357" lon="10.751075720935447"><ele>130.0</ele><time>2026-04-08T17:39:50Z</time></trkpt><trkpt lat="44.52196405855858" lon="10.751216260863938"><ele>130.0</ele><time>2026-04-08T17:39:52Z</time></trkpt><trkpt lat="44.52202812577728" lon="10.75135001138456"><ele>130.0</ele><time>2026-04-08T17:39:54Z</time></trkpt><trkpt lat="44.52207021939826" lon="10.751468728309419"><ele>130.0</ele><time>2026-04-08T17:39:56Z</time></trkpt><trkpt lat="44.52208998591567" lon="10.751580864798113"><ele>130.0</ele><time>2026-04-08T17:39:58Z</time></trkpt><trkpt lat="44.52212408359901" lon="10.751672002133116"><ele>130.0</ele><time>2026-04-08T17:40:00Z</time></trkpt><trkpt lat="44.522199152114744" lon="10.751679562950137"><ele>130.0</ele><time>2026-04-08T17:40:02Z</time></trkpt><trkpt lat="44.52230508208737" lon="10.751629237292843"><ele>130.0</ele><time>2026-04-08T17:40:04Z</time></trkpt><trkpt lat="44.522370483821035" lon="10.751621145082831"><ele>130.0</ele><time>2026-04-08T17:40:05Z</time></trkpt><trkpt lat="44.5224367588442" lon="10.751637428157657"><ele>130.0</ele><time>2026-04-08T17:40:06Z</time></trkpt><trkpt lat="44.522500275625525" lon="10.751665870415213"><ele>130.0</ele><time>2026-04-08T17:40:07Z</time></trkpt><trkpt lat="44.52256606966023" lon="10.751691060004356"><ele>130.0</ele><time>2026-04-08T17:40:08Z</time></trkpt><trkpt lat="44.52268908640353" lon="10.751718100667379"><ele>130.0</ele><time>2026-04-08T17:40:10Z</time></trkpt><trkpt lat="44.52280263467532" lon="10.751797902880034"><ele>129.8</ele><time>2026-04-08T17:40:12Z</time></trkpt><trkpt lat="44.522913181362966" lon="10.75188943329617"><ele>129.6</ele><time>2026-04-08T17:40:14Z</time></trkpt><trkpt lat="44.523025061470186" lon="10.751967193347443"><ele>129.4</ele><time>2026-04-08T17:40:16Z</time></trkpt><trkpt lat="44.52308184841426" lon="10.752010640754879"><ele>129.2</ele><time>2026-04-08T17:40:17Z</time></trkpt><trkpt lat="44.523188666949515" lon="10.752105805447334"><ele>129.0</ele><time>2026-04-08T17:40:19Z</time></trkpt><trkpt lat="44.523241213609424" lon="10.752159893433568"><ele>128.99999999999997</ele><time>2026-04-08T17:40:20Z</time></trkpt><trkpt lat="44.52328654463352" lon="10.752223912632239"><ele>129.0</ele><time>2026-04-08T17:40:21Z</time></trkpt><trkpt lat="44.523371735624764" lon="10.752340635429746"><ele>129.0</ele><time>2026-04-08T17:40:23Z</time></trkpt><trkpt lat="44.523415781110735" lon="10.752406948183987"><ele>129.0</ele><time>2026-04-08T17:40:24Z</time></trkpt><trkpt lat="44.52346072681409" lon="10.752471980730098"><ele>129.0</ele><time>2026-04-08T17:40:25Z</time></trkpt><trkpt lat="44.52350445315289" lon="10.752542083529825"><ele>128.99999999999997</ele><time>2026-04-08T17:40:26Z</time></trkpt><trkpt lat="44.52355295327961" lon="10.752600145527111"><ele>129.0</ele><time>2026-04-08T17:40:27Z</time></trkpt><trkpt lat="44.5236462766517" lon="10.752718477441908"><ele>129.16666666666666</ele><time>2026-04-08T17:40:29Z</time></trkpt><trkpt lat="44.523694170946314" lon="10.75278416274754"><ele>129.33333333333334</ele><time>2026-04-08T17:40:30Z</time></trkpt><trkpt lat="44.52373798597039" lon="10.752851499203002"><ele>129.5</ele><time>2026-04-08T17:40:31Z</time></trkpt><trkpt lat="44.523783205369035" lon="10.752919685459943"><ele>129.66666666666669</ele><time>2026-04-08T17:40:32Z</time></trkpt><trkpt lat="44.523878821595346" lon="10.75303834295931"><ele>129.83333333333334</ele><time>2026-04-08T17:40:34Z</time></trkpt><trkpt lat="44.523929082255634" lon="10.753101747096576"><ele>130.0</ele><time>2026-04-08T17:40:35Z</time></trkpt><trkpt lat="44.52397742281761" lon="10.75316219153658"><ele>129.66666666666669</ele><time>2026-04-08T17:40:36Z</time></trkpt><trkpt lat="44.52407634730124" lon="10.753273495679409"><ele>129.33333333333334</ele><time>2026-04-08T17:40:38Z</time></trkpt><trkpt lat="44.52412156864606" lon="10.753338184832756"><ele>129.0</ele><time>2026-04-08T17:40:39Z</time></trkpt><trkpt lat="44.5241694891201" lon="10.753399650273732"><ele>128.66666666666666</ele><time>2026-04-08T17:40:40Z</time></trkpt><trkpt lat="44.52421928458205" lon="10.753458316599437"><ele>128.33333333333331</ele><time>2026-04-08T17:40:41Z</time></trkpt><trkpt lat="44.524324998288456" lon="10.753558174400752"><ele>128.0</ele><time>2026-04-08T17:40:43Z</time></trkpt><trkpt lat="44.52442700482332" lon="10.75365769813349"><ele>128.0</ele><time>2026-04-08T17:40:45Z</time></trkpt><trkpt lat="44.52452841908248" lon="10.753756910894362"><ele>128.0</ele><time>2026-04-08T17:40:47Z</time></trkpt><trkpt lat="44.52462553956101" lon="10.753859872978685"><ele>128.0</ele><time>2026-04-08T17:40:49Z</time></trkpt><trkpt lat="44.52472092927188" lon="10.753961377269654"><ele>128.0</ele><time>2026-04-08T17:40:51Z</time></trkpt><trkpt lat="44.52481786859733" lon="10.754049781239651"><ele>127.5</ele><time>2026-04-08T17:40:53Z</time></trkpt><trkpt lat="44.524903340042904" lon="10.754171105778475"><ele>127.0</ele><time>2026-04-08T17:40:55Z</time></trkpt><trkpt lat="44.52496449407861" lon="10.754319165179266"><ele>126.5</ele><time>2026-04-08T17:40:57Z</time></trkpt><trkpt lat="44.52498263865641" lon="10.754485409980223"><ele>126.0</ele><time>2026-04-08T17:40:59Z</time></trkpt><trkpt lat="44.524942211720315" lon="10.754639715095731"><ele>126.19999999999999</ele><time>2026-04-08T17:41:01Z</time></trkpt><trkpt lat="44.52489155957158" lon="10.754779684428996"><ele>126.39999999999999</ele><time>2026-04-08T17:41:03Z</time></trkpt><trkpt lat="44.52484007998784" lon="10.754911676313638"><ele>126.6</ele><time>2026-04-08T17:41:05Z</time></trkpt><trkpt lat="44.52479806794628" lon="10.75504149950628"><ele>126.8</ele><time>2026-04-08T17:41:07Z</time></trkpt><trkpt lat="44.52477248584472" lon="10.755173331083077"><ele>127.0</ele><time>2026-04-08T17:41:09Z</time></trkpt><trkpt lat="44.52477202826781" lon="10.755301760552548"><ele>127.0</ele><time>2026-04-08T17:41:11Z</time></trkpt><trkpt lat="44.52481350036372" lon="10.755437088928165"><ele>127.0</ele><time>2026-04-08T17:41:13Z</time></trkpt><trkpt lat="44.524896711553644" lon="10.755536420079903"><ele>127.0</ele><time>2026-04-08T17:41:15Z</time></trkpt><trkpt lat="44.52499024862263" lon="10.755634125244516"><ele>127.0</ele><time>2026-04-08T17:41:17Z</time></trkpt><trkpt lat="44.52508662710942" lon="10.75573315517271"><ele>127.0</ele><time>2026-04-08T17:41:19Z</time></trkpt><trkpt lat="44.52516294198166" lon="10.755850204222176"><ele>127.0</ele><time>2026-04-08T17:41:21Z</time></trkpt><trkpt lat="44.52523417928083" lon="10.755977448590372"><ele>127.0</ele><time>2026-04-08T17:41:23Z</time></trkpt><trkpt lat="44.52529840363139" lon="10.756115036530808"><ele>127.0</ele><time>2026-04-08T17:41:25Z</time></trkpt><trkpt lat="44.52536651191913" lon="10.756266013075187"><ele>126.6</ele><time>2026-04-08T17:41:27Z</time></trkpt><trkpt lat="44.52543797558967" lon="10.756405682111826"><ele>126.19999999999999</ele><time>2026-04-08T17:41:29Z</time></trkpt><trkpt lat="44.525508777572625" lon="10.756538531315908"><ele>125.8</ele><time>2026-04-08T17:41:31Z</time></trkpt><trkpt lat="44.52557301448071" lon="10.756651818033218"><ele>125.4</ele><time>2026-04-08T17:41:33Z</time></trkpt><trkpt lat="44.52564007273433" lon="10.756763453473848"><ele>125.0</ele><time>2026-04-08T17:41:35Z</time></trkpt><trkpt lat="44.52570773854503" lon="10.75688989859009"><ele>125.8</ele><time>2026-04-08T17:41:37Z</time></trkpt><trkpt lat="44.525783514006804" lon="10.757002905145459"><ele>126.6</ele><time>2026-04-08T17:41:39Z</time></trkpt><trkpt lat="44.525855259501434" lon="10.757088931848966"><ele>127.4</ele><time>2026-04-08T17:41:41Z</time></trkpt><trkpt lat="44.525938957922385" lon="10.7571654057673"><ele>128.2</ele><time>2026-04-08T17:41:43Z</time></trkpt><trkpt lat="44.52603206346911" lon="10.757262107623312"><ele>129.0</ele><time>2026-04-08T17:41:45Z</time></trkpt><trkpt lat="44.52611763573501" lon="10.757376154050528"><ele>129.0</ele><time>2026-04-08T17:41:47Z</time></trkpt><trkpt lat="44.52620351286297" lon="10.75749985926574"><ele>129.0</ele><time>2026-04-08T17:41:49Z</time></trkpt><trkpt lat="44.52625605574613" lon="10.757558278419248"><ele>129.0</ele><time>2026-04-08T17:41:50Z</time></trkpt><trkpt lat="44.526309386494404" lon="10.757611654906203"><ele>129.0</ele><time>2026-04-08T17:41:51Z</time></trkpt><trkpt lat="44.52640526600135" lon="10.757721333105215"><ele>129.0</ele><time>2026-04-08T17:41:53Z</time></trkpt><trkpt lat="44.52646301664989" lon="10.75777155217371"><ele>129.0</ele><time>2026-04-08T17:41:54Z</time></trkpt><trkpt lat="44.52655999332727" lon="10.757872441270239"><ele>128.75</ele><time>2026-04-08T17:41:56Z</time></trkpt><trkpt lat="44.526656673121096" lon="10.75795847021389"><ele>128.5</ele><time>2026-04-08T17:41:58Z</time></trkpt><trkpt lat="44.52674796650825" lon="10.758040892775849"><ele>128.25</ele><time>2026-04-08T17:42:00Z</time></trkpt><trkpt lat="44.526848561254745" lon="10.75813016456167"><ele>128.0</ele><time>2026-04-08T17:42:02Z</time></trkpt><trkpt lat="44.52694650167108" lon="10.758215570730192"><ele>128.0</ele><time>2026-04-08T17:42:04Z</time></trkpt><trkpt lat="44.527004402244984" lon="10.758261261480623"><ele>128.0</ele><time>2026-04-08T17:42:05Z</time></trkpt><trkpt lat="44.527111262565036" lon="10.758341848158501"><ele>128.0</ele><time>2026-04-08T17:42:07Z</time></trkpt><trkpt lat="44.527216321076544" lon="10.758422307841291"><ele>128.0</ele><time>2026-04-08T17:42:09Z</time></trkpt><trkpt lat="44.527318206308244" lon="10.758505089134792"><ele>128.0</ele><time>2026-04-08T17:42:11Z</time></trkpt><trkpt lat="44.52742542470248" lon="10.758588284073875"><ele>127.80000000000001</ele><time>2026-04-08T17:42:13Z</time></trkpt><trkpt lat="44.52748202561461" lon="10.758629808573025"><ele>127.60000000000001</ele><time>2026-04-08T17:42:14Z</time></trkpt><trkpt lat="44.527581215944075" lon="10.758706317176728"><ele>127.39999999999999</ele><time>2026-04-08T17:42:16Z</time></trkpt><trkpt lat="44.52767702405176" lon="10.758774488028207"><ele>127.19999999999999</ele><time>2026-04-08T17:42:18Z</time></trkpt><trkpt lat="44.527771101131" lon="10.758838941048094"><ele>127.0</ele><time>2026-04-08T17:42:20Z</time></trkpt><trkpt lat="44.527872305036645" lon="10.758901805593071"><ele>126.6</ele><time>2026-04-08T17:42:22Z</time></trkpt><trkpt lat="44.527974592195235" lon="10.758967961826214"><ele>126.19999999999999</ele><time>2026-04-08T17:42:24Z</time></trkpt><trkpt lat="44.528077791594214" lon="10.759009651274818"><ele>125.8</ele><time>2026-04-08T17:42:26Z</time></trkpt><trkpt lat="44.528175594428824" lon="10.759073229702857"><ele>125.4</ele><time>2026-04-08T17:42:28Z</time></trkpt><trkpt lat="44.52828711572481" lon="10.759135967118699"><ele>125.0</ele><time>2026-04-08T17:42:30Z</time></trkpt><trkpt lat="44.52834729351233" lon="10.759170935370475"><ele>125.0</ele><time>2026-04-08T17:42:31Z</time></trkpt><trkpt lat="44.52840633240186" lon="10.759207727730193"><ele>125.0</ele><time>2026-04-08T17:42:32Z</time></trkpt><trkpt lat="44.528467853189085" lon="10.759240804940035"><ele>125.0</ele><time>2026-04-08T17:42:33Z</time></trkpt><trkpt lat="44.52852963938788" lon="10.759277172569425"><ele>125.0</ele><time>2026-04-08T17:42:34Z</time></trkpt><trkpt lat="44.52858868303336" lon="10.759312083759106"><ele>125.0</ele><time>2026-04-08T17:42:35Z</time></trkpt><trkpt lat="44.528650492204825" lon="10.7593475253882"><ele>125.0</ele><time>2026-04-08T17:42:36Z</time></trkpt><trkpt lat="44.5287097687862" lon="10.75938309942116"><ele>125.0</ele><time>2026-04-08T17:42:37Z</time></trkpt><trkpt lat="44.5288228531185" lon="10.759436172400617"><ele>125.25</ele><time>2026-04-08T17:42:39Z</time></trkpt><trkpt lat="44.52892466712696" lon="10.759495176267494"><ele>125.5</ele><time>2026-04-08T17:42:41Z</time></trkpt><trkpt lat="44.52903448971676" lon="10.75954713471896"><ele>125.75</ele><time>2026-04-08T17:42:43Z</time></trkpt><trkpt lat="44.52915235152686" lon="10.75959509132158"><ele>126.0</ele><time>2026-04-08T17:42:45Z</time></trkpt><trkpt lat="44.52927235719006" lon="10.759644055941546"><ele>126.0</ele><time>2026-04-08T17:42:47Z</time></trkpt><trkpt lat="44.52933246854107" lon="10.759676199599275"><ele>126.0</ele><time>2026-04-08T17:42:48Z</time></trkpt><trkpt lat="44.529395070146876" lon="10.759701129731429"><ele>126.0</ele><time>2026-04-08T17:42:49Z</time></trkpt><trkpt lat="44.52951475795309" lon="10.75976415929834"><ele>126.0</ele><time>2026-04-08T17:42:51Z</time></trkpt><trkpt lat="44.52962774081578" lon="10.759820888515458"><ele>126.0</ele><time>2026-04-08T17:42:53Z</time></trkpt><trkpt lat="44.52973480166983" lon="10.759877387685046"><ele>126.0</ele><time>2026-04-08T17:42:55Z</time></trkpt><trkpt lat="44.529837743915856" lon="10.759943821692726"><ele>126.0</ele><time>2026-04-08T17:42:57Z</time></trkpt><trkpt lat="44.52993979716051" lon="10.760011825687338"><ele>126.0</ele><time>2026-04-08T17:42:59Z</time></trkpt><trkpt lat="44.53000021325306" lon="10.760056039249777"><ele>126.0</ele><time>2026-04-08T17:43:00Z</time></trkpt><trkpt lat="44.53005867394412" lon="10.760091900586684"><ele>126.0</ele><time>2026-04-08T17:43:01Z</time></trkpt><trkpt lat="44.530115168085345" lon="10.760132236186264"><ele>126.0</ele><time>2026-04-08T17:43:02Z</time></trkpt><trkpt lat="44.53022747830161" lon="10.760208708909989"><ele>126.0</ele><time>2026-04-08T17:43:04Z</time></trkpt><trkpt lat="44.530284914394755" lon="10.760250733714749"><ele>126.0</ele><time>2026-04-08T17:43:05Z</time></trkpt><trkpt lat="44.53034607660294" lon="10.760303229549962"><ele>126.0</ele><time>2026-04-08T17:43:06Z</time></trkpt><trkpt lat="44.530401919281154" lon="10.760349379539086"><ele>126.0</ele><time>2026-04-08T17:43:07Z</time></trkpt><trkpt lat="44.53050562542003" lon="10.760429119972684"><ele>126.0</ele><time>2026-04-08T17:43:09Z</time></trkpt><trkpt lat="44.53060871738059" lon="10.760517690150593"><ele>126.0</ele><time>2026-04-08T17:43:11Z</time></trkpt><trkpt lat="44.53066255910415" lon="10.760563510576237"><ele>125.85714285714286</ele><time>2026-04-08T17:43:12Z</time></trkpt><trkpt lat="44.53072039082102" lon="10.760610183922806"><ele>125.71428571428572</ele><time>2026-04-08T17:43:13Z</time></trkpt><trkpt lat="44.530774806559286" lon="10.760657582293385"><ele>125.57142857142857</ele><time>2026-04-08T17:43:14Z</time></trkpt><trkpt lat="44.530832725382766" lon="10.760705833585192"><ele>125.42857142857143</ele><time>2026-04-08T17:43:15Z</time></trkpt><trkpt lat="44.53089201599629" lon="10.760749814225045"><ele>125.28571428571429</ele><time>2026-04-08T17:43:16Z</time></trkpt><trkpt lat="44.53094972848325" lon="10.760790188651605"><ele>125.14285714285714</ele><time>2026-04-08T17:43:17Z</time></trkpt><trkpt lat="44.53100376751019" lon="10.760836849464534"><ele>125.0</ele><time>2026-04-08T17:43:18Z</time></trkpt><trkpt lat="44.531106421345626" lon="10.760919745804008"><ele>125.0</ele><time>2026-04-08T17:43:20Z</time></trkpt><trkpt lat="44.53120596507364" lon="10.760997410515618"><ele>125.0</ele><time>2026-04-08T17:43:22Z</time></trkpt><trkpt lat="44.53130995197363" lon="10.76108392405424"><ele>125.0</ele><time>2026-04-08T17:43:24Z</time></trkpt><trkpt lat="44.531368511379" lon="10.761130883600938"><ele>125.0</ele><time>2026-04-08T17:43:25Z</time></trkpt><trkpt lat="44.53142337780182" lon="10.761184416374709"><ele>125.0</ele><time>2026-04-08T17:43:26Z</time></trkpt><trkpt lat="44.531529080206504" lon="10.761276329563602"><ele>124.99999999999999</ele><time>2026-04-08T17:43:28Z</time></trkpt><trkpt lat="44.531633025319316" lon="10.761380659113689"><ele>125.0</ele><time>2026-04-08T17:43:30Z</time></trkpt><trkpt lat="44.53168498910135" lon="10.761432419577861"><ele>125.0</ele><time>2026-04-08T17:43:31Z</time></trkpt><trkpt lat="44.53173773381159" lon="10.761484063207257"><ele>125.0</ele><time>2026-04-08T17:43:32Z</time></trkpt><trkpt lat="44.53178762529631" lon="10.761539898426644"><ele>124.99999999999999</ele><time>2026-04-08T17:43:33Z</time></trkpt><trkpt lat="44.53188781127834" lon="10.76164374997863"><ele>125.0</ele><time>2026-04-08T17:43:35Z</time></trkpt><trkpt lat="44.531940466761306" lon="10.761696963209072"><ele>124.99999999999999</ele><time>2026-04-08T17:43:36Z</time></trkpt><trkpt lat="44.53204240492289" lon="10.761794829156907"><ele>125.0</ele><time>2026-04-08T17:43:38Z</time></trkpt><trkpt lat="44.53209492602022" lon="10.761844965474229"><ele>125.0</ele><time>2026-04-08T17:43:39Z</time></trkpt><trkpt lat="44.5322083029718" lon="10.761926797067938"><ele>125.0</ele><time>2026-04-08T17:43:41Z</time></trkpt><trkpt lat="44.53226570191148" lon="10.76197498079684"><ele>124.99999999999999</ele><time>2026-04-08T17:43:42Z</time></trkpt><trkpt lat="44.53232381819487" lon="10.762015024267814"><ele>125.0</ele><time>2026-04-08T17:43:43Z</time></trkpt><trkpt lat="44.532381935480856" lon="10.762056270453126"><ele>125.33333333333333</ele><time>2026-04-08T17:43:44Z</time></trkpt><trkpt lat="44.53249028856423" lon="10.762129634972718"><ele>125.66666666666666</ele><time>2026-04-08T17:43:46Z</time></trkpt><trkpt lat="44.53254010518674" lon="10.762183844279333"><ele>126.0</ele><time>2026-04-08T17:43:47Z</time></trkpt><trkpt lat="44.53259600702036" lon="10.762225765640698"><ele>126.33333333333334</ele><time>2026-04-08T17:43:48Z</time></trkpt><trkpt lat="44.53265818260196" lon="10.762257455228296"><ele>126.66666666666667</ele><time>2026-04-08T17:43:49Z</time></trkpt><trkpt lat="44.53277556552775" lon="10.762319313934778"><ele>127.0</ele><time>2026-04-08T17:43:51Z</time></trkpt><trkpt lat="44.532835346243345" lon="10.762349877326333"><ele>127.0</ele><time>2026-04-08T17:43:52Z</time></trkpt><trkpt lat="44.53294785892172" lon="10.762421086899634"><ele>127.0</ele><time>2026-04-08T17:43:54Z</time></trkpt><trkpt lat="44.533060263960394" lon="10.762490124192702"><ele>127.0</ele><time>2026-04-08T17:43:56Z</time></trkpt><trkpt lat="44.53316148602625" lon="10.76255532306523"><ele>127.0</ele><time>2026-04-08T17:43:58Z</time></trkpt><trkpt lat="44.53327648578444" lon="10.762628050952804"><ele>126.66666666666667</ele><time>2026-04-08T17:44:00Z</time></trkpt><trkpt lat="44.53338865536954" lon="10.762698122300064"><ele>126.33333333333334</ele><time>2026-04-08T17:44:02Z</time></trkpt><trkpt lat="44.533493692403134" lon="10.762790622929316"><ele>126.0</ele><time>2026-04-08T17:44:04Z</time></trkpt><trkpt lat="44.53354694890919" lon="10.762838779374466"><ele>125.66666666666666</ele><time>2026-04-08T17:44:05Z</time></trkpt><trkpt lat="44.53360070099882" lon="10.7628849395934"><ele>125.33333333333333</ele><time>2026-04-08T17:44:06Z</time></trkpt><trkpt lat="44.5336558537216" lon="10.762929213898055"><ele>125.0</ele><time>2026-04-08T17:44:07Z</time></trkpt><trkpt lat="44.5337662436248" lon="10.763018995600286"><ele>124.99999999999999</ele><time>2026-04-08T17:44:09Z</time></trkpt><trkpt lat="44.53382484971062" lon="10.763054465553235"><ele>125.0</ele><time>2026-04-08T17:44:10Z</time></trkpt><trkpt lat="44.53393573786336" lon="10.763139292467336"><ele>125.0</ele><time>2026-04-08T17:44:12Z</time></trkpt><trkpt lat="44.5339919453155" lon="10.763182013139403"><ele>125.0</ele><time>2026-04-08T17:44:13Z</time></trkpt><trkpt lat="44.534102945066444" lon="10.763258698201877"><ele>124.99999999999999</ele><time>2026-04-08T17:44:15Z</time></trkpt><trkpt lat="44.53415878088914" lon="10.76329952196344"><ele>125.0</ele><time>2026-04-08T17:44:16Z</time></trkpt><trkpt lat="44.53421477513039" lon="10.763347434901252"><ele>124.99999999999999</ele><time>2026-04-08T17:44:17Z</time></trkpt><trkpt lat="44.53427160385169" lon="10.763388798932986"><ele>125.0</ele><time>2026-04-08T17:44:18Z</time></trkpt><trkpt lat="44.53438093679821" lon="10.763457664494535"><ele>125.0</ele><time>2026-04-08T17:44:20Z</time></trkpt><trkpt lat="44.5344421900549" lon="10.76350141769854"><ele>125.0</ele><time>2026-04-08T17:44:21Z</time></trkpt><trkpt lat="44.53450478330863" lon="10.763543646250092"><ele>124.99999999999999</ele><time>2026-04-08T17:44:22Z</time></trkpt><trkpt lat="44.534565951869304" lon="10.763582867554998"><ele>125.0</ele><time>2026-04-08T17:44:23Z</time></trkpt><trkpt lat="44.53463662792579" lon="10.763616689492586"><ele>125.16666666666666</ele><time>2026-04-08T17:44:24Z</time></trkpt><trkpt lat="44.5346939676842" lon="10.763658471283248"><ele>125.33333333333333</ele><time>2026-04-08T17:44:25Z</time></trkpt><trkpt lat="44.534750684491605" lon="10.76370035461217"><ele>125.5</ele><time>2026-04-08T17:44:26Z</time></trkpt><trkpt lat="44.53481050861863" lon="10.76374055181606"><ele>125.66666666666666</ele><time>2026-04-08T17:44:27Z</time></trkpt><trkpt lat="44.534925339671524" lon="10.763817452371285"><ele>125.83333333333333</ele><time>2026-04-08T17:44:29Z</time></trkpt><trkpt lat="44.53503829023027" lon="10.76389581380229"><ele>126.0</ele><time>2026-04-08T17:44:31Z</time></trkpt><trkpt lat="44.535092785862695" lon="10.763941591532834"><ele>126.0</ele><time>2026-04-08T17:44:32Z</time></trkpt><trkpt lat="44.5352103002249" lon="10.764017312388585"><ele>126.0</ele><time>2026-04-08T17:44:34Z</time></trkpt><trkpt lat="44.53526818371142" lon="10.764056378728043"><ele>126.0</ele><time>2026-04-08T17:44:35Z</time></trkpt><trkpt lat="44.53537977381018" lon="10.764132775707818"><ele>126.0</ele><time>2026-04-08T17:44:37Z</time></trkpt><trkpt lat="44.53543389710915" lon="10.76418302183066"><ele>126.0</ele><time>2026-04-08T17:44:38Z</time></trkpt><trkpt lat="44.53549335050966" lon="10.764224578636892"><ele>126.0</ele><time>2026-04-08T17:44:39Z</time></trkpt><trkpt lat="44.535549831634654" lon="10.764266345451123"><ele>125.25</ele><time>2026-04-08T17:44:40Z</time></trkpt><trkpt lat="44.53566035201348" lon="10.764338727302908"><ele>124.5</ele><time>2026-04-08T17:44:42Z</time></trkpt><trkpt lat="44.5357689285266" lon="10.764413025942787"><ele>123.75</ele><time>2026-04-08T17:44:44Z</time></trkpt><trkpt lat="44.535870194472935" lon="10.764476453696744"><ele>123.0</ele><time>2026-04-08T17:44:46Z</time></trkpt><trkpt lat="44.535973358373845" lon="10.764543594251425"><ele>123.0</ele><time>2026-04-08T17:44:48Z</time></trkpt><trkpt lat="44.53606837586694" lon="10.764614473958645"><ele>123.00000000000001</ele><time>2026-04-08T17:44:50Z</time></trkpt><trkpt lat="44.536170971333924" lon="10.764691447037151"><ele>123.00000000000001</ele><time>2026-04-08T17:44:52Z</time></trkpt><trkpt lat="44.53626823100684" lon="10.764762752707842"><ele>123.0</ele><time>2026-04-08T17:44:54Z</time></trkpt><trkpt lat="44.53636922294657" lon="10.76482563592407"><ele>123.0</ele><time>2026-04-08T17:44:56Z</time></trkpt><trkpt lat="44.536475147802236" lon="10.764884876628342"><ele>122.4</ele><time>2026-04-08T17:44:58Z</time></trkpt><trkpt lat="44.53658451909646" lon="10.76495403726915"><ele>121.80000000000001</ele><time>2026-04-08T17:45:00Z</time></trkpt><trkpt lat="44.536695934633514" lon="10.765023235503666"><ele>121.2</ele><time>2026-04-08T17:45:02Z</time></trkpt><trkpt lat="44.53680430838284" lon="10.765086810559671"><ele>120.6</ele><time>2026-04-08T17:45:04Z</time></trkpt><trkpt lat="44.53686181814147" lon="10.765129061836006"><ele>120.0</ele><time>2026-04-08T17:45:05Z</time></trkpt><trkpt lat="44.53696396093484" lon="10.765225557524605"><ele>119.4</ele><time>2026-04-08T17:45:07Z</time></trkpt><trkpt lat="44.53705343776792" lon="10.765336179566464"><ele>118.8</ele><time>2026-04-08T17:45:09Z</time></trkpt><trkpt lat="44.537097314318764" lon="10.765399618484985"><ele>118.19999999999999</ele><time>2026-04-08T17:45:10Z</time></trkpt><trkpt lat="44.53718285381318" lon="10.765517603384914"><ele>117.6</ele><time>2026-04-08T17:45:12Z</time></trkpt><trkpt lat="44.537262506450276" lon="10.76564054640904"><ele>117.0</ele><time>2026-04-08T17:45:14Z</time></trkpt><trkpt lat="44.53730547451218" lon="10.76570670687977"><ele>117.0</ele><time>2026-04-08T17:45:15Z</time></trkpt><trkpt lat="44.53739664217433" lon="10.765827562965885"><ele>117.0</ele><time>2026-04-08T17:45:17Z</time></trkpt><trkpt lat="44.537494060304354" lon="10.765939120597617"><ele>117.0</ele><time>2026-04-08T17:45:19Z</time></trkpt><trkpt lat="44.53759866498391" lon="10.766038873107057"><ele>117.0</ele><time>2026-04-08T17:45:21Z</time></trkpt><trkpt lat="44.53770596241038" lon="10.766118460263778"><ele>117.0</ele><time>2026-04-08T17:45:23Z</time></trkpt><trkpt lat="44.5377641077027" lon="10.766156629722161"><ele>117.0</ele><time>2026-04-08T17:45:24Z</time></trkpt><trkpt lat="44.53782307319603" lon="10.76618913364812"><ele>117.0</ele><time>2026-04-08T17:45:25Z</time></trkpt><trkpt lat="44.53794215401182" lon="10.766241603944023"><ele>117.0</ele><time>2026-04-08T17:45:27Z</time></trkpt><trkpt lat="44.538002445736694" lon="10.766269361021532"><ele>117.0</ele><time>2026-04-08T17:45:28Z</time></trkpt><trkpt lat="44.53812169905688" lon="10.766316773797808"><ele>117.0</ele><time>2026-04-08T17:45:30Z</time></trkpt><trkpt lat="44.53823457465251" lon="10.766350359010248"><ele>117.39999999999999</ele><time>2026-04-08T17:45:32Z</time></trkpt><trkpt lat="44.53833894314647" lon="10.766378660822847"><ele>117.79999999999998</ele><time>2026-04-08T17:45:34Z</time></trkpt><trkpt lat="44.53843310004604" lon="10.766416406697942"><ele>118.2</ele><time>2026-04-08T17:45:36Z</time></trkpt><trkpt lat="44.538521288830566" lon="10.766476123757917"><ele>118.6</ele><time>2026-04-08T17:45:38Z</time></trkpt><trkpt lat="44.53861141083491" lon="10.766538133585287"><ele>119.0</ele><time>2026-04-08T17:45:40Z</time></trkpt><trkpt lat="44.53870150559916" lon="10.766606162372772"><ele>118.6</ele><time>2026-04-08T17:45:42Z</time></trkpt><trkpt lat="44.53879665539928" lon="10.766669256881562"><ele>118.2</ele><time>2026-04-08T17:45:44Z</time></trkpt><trkpt lat="44.53889718484963" lon="10.766735931180868"><ele>117.79999999999998</ele><time>2026-04-08T17:45:46Z</time></trkpt><trkpt lat="44.53899332940657" lon="10.766801082698173"><ele>117.39999999999999</ele><time>2026-04-08T17:45:48Z</time></trkpt><trkpt lat="44.53908159508564" lon="10.766856365630249"><ele>117.0</ele><time>2026-04-08T17:45:50Z</time></trkpt><trkpt lat="44.539174430887066" lon="10.766903923941607"><ele>117.0</ele><time>2026-04-08T17:45:52Z</time></trkpt><trkpt lat="44.539275755965946" lon="10.766908639336599"><ele>116.99999999999999</ele><time>2026-04-08T17:45:54Z</time></trkpt><trkpt lat="44.539367020743896" lon="10.766967281754244"><ele>116.99999999999999</ele><time>2026-04-08T17:45:56Z</time></trkpt><trkpt lat="44.53947425309286" lon="10.767026405717893"><ele>117.0</ele><time>2026-04-08T17:45:58Z</time></trkpt><trkpt lat="44.539586296562085" lon="10.767074513538311"><ele>117.0</ele><time>2026-04-08T17:46:00Z</time></trkpt><trkpt lat="44.539698893185474" lon="10.767103471249595"><ele>117.0</ele><time>2026-04-08T17:46:02Z</time></trkpt><trkpt lat="44.539815870141304" lon="10.767122648270359"><ele>117.0</ele><time>2026-04-08T17:46:04Z</time></trkpt><trkpt lat="44.53992607965881" lon="10.76716899667403"><ele>117.0</ele><time>2026-04-08T17:46:06Z</time></trkpt><trkpt lat="44.54003701799443" lon="10.767220584443155"><ele>117.0</ele><time>2026-04-08T17:46:08Z</time></trkpt><trkpt lat="44.540150198036926" lon="10.767271229243642"><ele>117.0</ele><time>2026-04-08T17:46:10Z</time></trkpt><trkpt lat="44.540261257238434" lon="10.767317898957302"><ele>117.0</ele><time>2026-04-08T17:46:12Z</time></trkpt><trkpt lat="44.5403725513307" lon="10.76736656925489"><ele>117.0</ele><time>2026-04-08T17:46:14Z</time></trkpt><trkpt lat="44.54047773346485" lon="10.767417305423455"><ele>117.0</ele><time>2026-04-08T17:46:16Z</time></trkpt><trkpt lat="44.54058920008155" lon="10.767465648701608"><ele>117.0</ele><time>2026-04-08T17:46:18Z</time></trkpt><trkpt lat="44.540702628428754" lon="10.767518320313208"><ele>116.99999999999999</ele><time>2026-04-08T17:46:20Z</time></trkpt><trkpt lat="44.540807188246575" lon="10.767583421779518"><ele>116.99999999999999</ele><time>2026-04-08T17:46:22Z</time></trkpt><trkpt lat="44.5409021192701" lon="10.767645180918175"><ele>117.0</ele><time>2026-04-08T17:46:24Z</time></trkpt><trkpt lat="44.540991684957746" lon="10.767713726157366"><ele>117.0</ele><time>2026-04-08T17:46:26Z</time></trkpt><trkpt lat="44.54108036750662" lon="10.767803800832462"><ele>117.0</ele><time>2026-04-08T17:46:28Z</time></trkpt><trkpt lat="44.541171361176715" lon="10.767887375911318"><ele>116.99999999999999</ele><time>2026-04-08T17:46:30Z</time></trkpt><trkpt lat="44.54125995330604" lon="10.767973768779854"><ele>116.99999999999999</ele><time>2026-04-08T17:46:32Z</time></trkpt><trkpt lat="44.541347049088365" lon="10.7680546362474"><ele>117.0</ele><time>2026-04-08T17:46:34Z</time></trkpt><trkpt lat="44.54144178560333" lon="10.768136770349779"><ele>117.0</ele><time>2026-04-08T17:46:36Z</time></trkpt><trkpt lat="44.541539323072925" lon="10.76823969094961"><ele>117.19999999999999</ele><time>2026-04-08T17:46:38Z</time></trkpt><trkpt lat="44.54159704847824" lon="10.768282592011902"><ele>117.39999999999999</ele><time>2026-04-08T17:46:39Z</time></trkpt><trkpt lat="44.54170277182937" lon="10.768359283788572"><ele>117.60000000000001</ele><time>2026-04-08T17:46:41Z</time></trkpt><trkpt lat="44.54179795080486" lon="10.768426232129903"><ele>117.80000000000001</ele><time>2026-04-08T17:46:43Z</time></trkpt><trkpt lat="44.54188284010485" lon="10.768503473267508"><ele>118.0</ele><time>2026-04-08T17:46:45Z</time></trkpt><trkpt lat="44.54198442773228" lon="10.76856913456362"><ele>118.2</ele><time>2026-04-08T17:46:47Z</time></trkpt><trkpt lat="44.54207849369536" lon="10.768648924064154"><ele>118.4</ele><time>2026-04-08T17:46:49Z</time></trkpt><trkpt lat="44.54217303313758" lon="10.768712576571478"><ele>118.60000000000001</ele><time>2026-04-08T17:46:51Z</time></trkpt><trkpt lat="44.54225909341068" lon="10.768776969940953"><ele>118.80000000000001</ele><time>2026-04-08T17:46:53Z</time></trkpt><trkpt lat="44.5423354231243" lon="10.76883089339945"><ele>119.0</ele><time>2026-04-08T17:46:55Z</time></trkpt><trkpt lat="44.542415938205636" lon="10.768808392595618"><ele>119.0</ele><time>2026-04-08T17:46:57Z</time></trkpt><trkpt lat="44.542457362165756" lon="10.768695737970146"><ele>119.0</ele><time>2026-04-08T17:46:59Z</time></trkpt><trkpt lat="44.542506914314856" lon="10.768582751785225"><ele>119.0</ele><time>2026-04-08T17:47:01Z</time></trkpt><trkpt lat="44.54256175847218" lon="10.768464089960231"><ele>119.0</ele><time>2026-04-08T17:47:03Z</time></trkpt><trkpt lat="44.54261763863466" lon="10.768339149929755"><ele>119.0</ele><time>2026-04-08T17:47:05Z</time></trkpt><trkpt lat="44.54267824065979" lon="10.76821175103253"><ele>118.6</ele><time>2026-04-08T17:47:07Z</time></trkpt><trkpt lat="44.54273684690379" lon="10.768081322924026"><ele>118.2</ele><time>2026-04-08T17:47:09Z</time></trkpt><trkpt lat="44.542789099644516" lon="10.767954526663173"><ele>117.79999999999998</ele><time>2026-04-08T17:47:11Z</time></trkpt><trkpt lat="44.54284373449786" lon="10.767837328078425"><ele>117.39999999999999</ele><time>2026-04-08T17:47:13Z</time></trkpt><trkpt lat="44.54289292771691" lon="10.767722586703005"><ele>117.0</ele><time>2026-04-08T17:47:15Z</time></trkpt><trkpt lat="44.54294197298293" lon="10.767612097584701"><ele>116.39999999999999</ele><time>2026-04-08T17:47:17Z</time></trkpt><trkpt lat="44.542998059642244" lon="10.767505804729462"><ele>115.79999999999998</ele><time>2026-04-08T17:47:19Z</time></trkpt><trkpt lat="44.543048018390536" lon="10.767396105368606"><ele>115.2</ele><time>2026-04-08T17:47:21Z</time></trkpt><trkpt lat="44.543096880358384" lon="10.767284387296664"><ele>114.6</ele><time>2026-04-08T17:47:23Z</time></trkpt><trkpt lat="44.54313875046276" lon="10.767180060594757"><ele>114.0</ele><time>2026-04-08T17:47:25Z</time></trkpt><trkpt lat="44.54319029078809" lon="10.767073681896019"><ele>114.0</ele><time>2026-04-08T17:47:27Z</time></trkpt><trkpt lat="44.54323729786784" lon="10.766967283013665"><ele>114.0</ele><time>2026-04-08T17:47:29Z</time></trkpt><trkpt lat="44.543286259910744" lon="10.766850970425176"><ele>114.0</ele><time>2026-04-08T17:47:31Z</time></trkpt><trkpt lat="44.54333766119457" lon="10.766732624898538"><ele>114.0</ele><time>2026-04-08T17:47:33Z</time></trkpt><trkpt lat="44.54339176013098" lon="10.766610358577475"><ele>114.0</ele><time>2026-04-08T17:47:35Z</time></trkpt><trkpt lat="44.54344929229229" lon="10.76648202346082"><ele>114.5</ele><time>2026-04-08T17:47:37Z</time></trkpt><trkpt lat="44.543505654186895" lon="10.766360797089073"><ele>115.0</ele><time>2026-04-08T17:47:39Z</time></trkpt><trkpt lat="44.543545786119445" lon="10.766269416161574"><ele>115.5</ele><time>2026-04-08T17:47:41Z</time></trkpt><trkpt lat="44.543594458471546" lon="10.76617626621426"><ele>116.0</ele><time>2026-04-08T17:47:43Z</time></trkpt><trkpt lat="44.54361641530879" lon="10.766087282037663"><ele>116.5</ele><time>2026-04-08T17:47:45Z</time></trkpt><trkpt lat="44.543579321384456" lon="10.765991221445178"><ele>117.0</ele><time>2026-04-08T17:47:47Z</time></trkpt><trkpt lat="44.5434923444867" lon="10.76593726262822"><ele>117.19999999999999</ele><time>2026-04-08T17:47:49Z</time></trkpt><trkpt lat="44.54339870323833" lon="10.765876412419727"><ele>117.39999999999999</ele><time>2026-04-08T17:47:51Z</time></trkpt><trkpt lat="44.543307258446916" lon="10.765809267446532"><ele>117.60000000000001</ele><time>2026-04-08T17:47:53Z</time></trkpt><trkpt lat="44.54321933746269" lon="10.765734030875352"><ele>117.80000000000001</ele><time>2026-04-08T17:47:55Z</time></trkpt><trkpt lat="44.543137190078646" lon="10.765650901473602"><ele>118.0</ele><time>2026-04-08T17:47:57Z</time></trkpt><trkpt lat="44.54305219490769" lon="10.765585627521606"><ele>118.00000000000001</ele><time>2026-04-08T17:47:59Z</time></trkpt><trkpt lat="44.54299007707206" lon="10.765513090439574"><ele>118.0</ele><time>2026-04-08T17:48:01Z</time></trkpt><trkpt lat="44.542965450808836" lon="10.765416344211117"><ele>118.0</ele><time>2026-04-08T17:48:03Z</time></trkpt><trkpt lat="44.543009515909944" lon="10.765306056967693"><ele>118.0</ele><time>2026-04-08T17:48:05Z</time></trkpt><trkpt lat="44.54305838853589" lon="10.76520240965371"><ele>118.00000000000001</ele><time>2026-04-08T17:48:07Z</time></trkpt><trkpt lat="44.54312996044955" lon="10.765115975073426"><ele>118.0</ele><time>2026-04-08T17:48:09Z</time></trkpt><trkpt lat="44.54320724136329" lon="10.76513754534738"><ele>118.00000000000001</ele><time>2026-04-08T17:48:11Z</time></trkpt><trkpt lat="44.543282789010576" lon="10.765206099221393"><ele>118.0</ele><time>2026-04-08T17:48:14Z</time></trkpt><trkpt lat="44.54335110269406" lon="10.765260219010228"><ele>118.0</ele><time>2026-04-08T17:48:17Z</time></trkpt><trkpt lat="44.543418523778875" lon="10.765321145410143"><ele>118.0</ele><time>2026-04-08T17:48:19Z</time></trkpt><trkpt lat="44.54349445541425" lon="10.765384519970755"><ele>118.00000000000001</ele><time>2026-04-08T17:48:21Z</time></trkpt><trkpt lat="44.54357577946187" lon="10.765454596970725"><ele>118.0</ele><time>2026-04-08T17:48:23Z</time></trkpt><trkpt lat="44.54366285621204" lon="10.765526215044776"><ele>117.80000000000001</ele><time>2026-04-08T17:48:25Z</time></trkpt><trkpt lat="44.54375411414905" lon="10.765602041593375"><ele>117.60000000000001</ele><time>2026-04-08T17:48:27Z</time></trkpt><trkpt lat="44.543846145382226" lon="10.765672165201646"><ele>117.39999999999999</ele><time>2026-04-08T17:48:29Z</time></trkpt><trkpt lat="44.54395204002186" lon="10.765742745337253"><ele>117.19999999999999</ele><time>2026-04-08T17:48:31Z</time></trkpt><trkpt lat="44.54406281129072" lon="10.765804788441649"><ele>117.0</ele><time>2026-04-08T17:48:33Z</time></trkpt><trkpt lat="44.54416762350001" lon="10.765862055652493"><ele>117.0</ele><time>2026-04-08T17:48:35Z</time></trkpt><trkpt lat="44.544255424153654" lon="10.765922041726594"><ele>116.99999999999999</ele><time>2026-04-08T17:48:37Z</time></trkpt><trkpt lat="44.54432748056767" lon="10.765997253591594"><ele>116.99999999999999</ele><time>2026-04-08T17:48:39Z</time></trkpt><trkpt lat="44.544406132309724" lon="10.766065025691148"><ele>117.0</ele><time>2026-04-08T17:48:41Z</time></trkpt><trkpt lat="44.544481037442694" lon="10.766021033648185"><ele>117.0</ele><time>2026-04-08T17:48:44Z</time></trkpt><trkpt lat="44.544466462017866" lon="10.765893728939732"><ele>117.0</ele><time>2026-04-08T17:48:46Z</time></trkpt><trkpt lat="44.54447382042644" lon="10.765760679052152"><ele>116.99999999999999</ele><time>2026-04-08T17:48:48Z</time></trkpt><trkpt lat="44.54450081677503" lon="10.765625024175726"><ele>116.99999999999999</ele><time>2026-04-08T17:48:50Z</time></trkpt><trkpt lat="44.544521964849416" lon="10.76549487322653"><ele>117.0</ele><time>2026-04-08T17:48:52Z</time></trkpt><trkpt lat="44.54453730385805" lon="10.765370056987239"><ele>117.0</ele><time>2026-04-08T17:48:54Z</time></trkpt><trkpt lat="44.544558808823076" lon="10.765252235248852"><ele>117.5</ele><time>2026-04-08T17:48:56Z</time></trkpt><trkpt lat="44.54458912993939" lon="10.765139764110065"><ele>118.0</ele><time>2026-04-08T17:48:58Z</time></trkpt><trkpt lat="44.544627424680534" lon="10.765040981555593"><ele>118.5</ele><time>2026-04-08T17:49:00Z</time></trkpt><trkpt lat="44.544673560175724" lon="10.764947433843814"><ele>119.0</ele><time>2026-04-08T17:49:03Z</time></trkpt><trkpt lat="44.54461579334382" lon="10.764828972667257"><ele>119.5</ele><time>2026-04-08T17:49:06Z</time></trkpt><trkpt lat="44.54460728826336" lon="10.76471931266481"><ele>120.0</ele><time>2026-04-08T17:49:08Z</time></trkpt><trkpt lat="44.54461769363746" lon="10.764589445196776"><ele>120.0</ele><time>2026-04-08T17:49:10Z</time></trkpt><trkpt lat="44.54457636073776" lon="10.764446381050059"><ele>120.0</ele><time>2026-04-08T17:49:12Z</time></trkpt><trkpt lat="44.54453506858177" lon="10.764288703498288"><ele>120.0</ele><time>2026-04-08T17:49:14Z</time></trkpt><trkpt lat="44.54449132034085" lon="10.764130267697015"><ele>120.0</ele><time>2026-04-08T17:49:16Z</time></trkpt><trkpt lat="44.54444957266892" lon="10.763977765539522"><ele>120.2</ele><time>2026-04-08T17:49:18Z</time></trkpt><trkpt lat="44.544404901825416" lon="10.763827360651792"><ele>120.4</ele><time>2026-04-08T17:49:20Z</time></trkpt><trkpt lat="44.54435387645567" lon="10.763695916381675"><ele>120.6</ele><time>2026-04-08T17:49:22Z</time></trkpt><trkpt lat="44.54432320357584" lon="10.763552995485126"><ele>120.8</ele><time>2026-04-08T17:49:24Z</time></trkpt><trkpt lat="44.54429050662907" lon="10.763420488068334"><ele>121.0</ele><time>2026-04-08T17:49:26Z</time></trkpt><trkpt lat="44.54425090061528" lon="10.763274307024584"><ele>121.0</ele><time>2026-04-08T17:49:28Z</time></trkpt><trkpt lat="44.544208868691186" lon="10.763136222816282"><ele>121.0</ele><time>2026-04-08T17:49:30Z</time></trkpt><trkpt lat="44.54418303077302" lon="10.76299328239858"><ele>121.0</ele><time>2026-04-08T17:49:32Z</time></trkpt><trkpt lat="44.54414077539758" lon="10.762850581678608"><ele>121.0</ele><time>2026-04-08T17:49:34Z</time></trkpt><trkpt lat="44.54410119188586" lon="10.762714664215851"><ele>121.0</ele><time>2026-04-08T17:49:36Z</time></trkpt><trkpt lat="44.54405499561522" lon="10.762619834940507"><ele>121.6</ele><time>2026-04-08T17:49:38Z</time></trkpt><trkpt lat="44.54399581351498" lon="10.762545151497735"><ele>122.19999999999999</ele><time>2026-04-08T17:49:41Z</time></trkpt><trkpt lat="44.544010747675706" lon="10.762442688431587"><ele>122.80000000000001</ele><time>2026-04-08T17:49:44Z</time></trkpt><trkpt lat="44.543980017816246" lon="10.762315773045259"><ele>123.4</ele><time>2026-04-08T17:49:47Z</time></trkpt><trkpt lat="44.54388546074669" lon="10.762247218469922"><ele>124.0</ele><time>2026-04-08T17:49:49Z</time></trkpt><trkpt lat="44.54380066611649" lon="10.76216586978756"><ele>123.5</ele><time>2026-04-08T17:49:51Z</time></trkpt><trkpt lat="44.54369836474188" lon="10.762074079405338"><ele>123.0</ele><time>2026-04-08T17:49:53Z</time></trkpt><trkpt lat="44.54359925611856" lon="10.761977591545714"><ele>122.5</ele><time>2026-04-08T17:49:55Z</time></trkpt><trkpt lat="44.543506607813725" lon="10.761886583769913"><ele>122.0</ele><time>2026-04-08T17:49:57Z</time></trkpt><trkpt lat="44.543410479798844" lon="10.76179918337025"><ele>122.0</ele><time>2026-04-08T17:49:59Z</time></trkpt><trkpt lat="44.54331683143695" lon="10.761710936232127"><ele>121.99999999999999</ele><time>2026-04-08T17:50:01Z</time></trkpt><trkpt lat="44.543230674169685" lon="10.761619026079307"><ele>121.99999999999999</ele><time>2026-04-08T17:50:03Z</time></trkpt><trkpt lat="44.5431458347416" lon="10.761540963460275"><ele>122.0</ele><time>2026-04-08T17:50:05Z</time></trkpt><trkpt lat="44.5430675048059" lon="10.761465483589989"><ele>122.0</ele><time>2026-04-08T17:50:07Z</time></trkpt><trkpt lat="44.5429981493852" lon="10.761399308606487"><ele>122.0</ele><time>2026-04-08T17:50:09Z</time></trkpt><trkpt lat="44.54294881420061" lon="10.761296289866534"><ele>121.99999999999999</ele><time>2026-04-08T17:50:12Z</time></trkpt><trkpt lat="44.542874853727334" lon="10.761272806853183"><ele>121.99999999999999</ele><time>2026-04-08T17:50:14Z</time></trkpt><trkpt lat="44.54279991741294" lon="10.76119708176441"><ele>122.0</ele><time>2026-04-08T17:50:16Z</time></trkpt><trkpt lat="44.54271844967184" lon="10.761114086430569"><ele>122.0</ele><time>2026-04-08T17:50:18Z</time></trkpt><trkpt lat="44.542638308128076" lon="10.76103147455303"><ele>121.39999999999999</ele><time>2026-04-08T17:50:20Z</time></trkpt><trkpt lat="44.542547185124086" lon="10.760946591881916"><ele>120.79999999999998</ele><time>2026-04-08T17:50:22Z</time></trkpt><trkpt lat="44.542463893960594" lon="10.760861398075177"><ele>120.2</ele><time>2026-04-08T17:50:24Z</time></trkpt><trkpt lat="44.54238807987989" lon="10.760801232422413"><ele>119.6</ele><time>2026-04-08T17:50:26Z</time></trkpt><trkpt lat="44.54232543259423" lon="10.760706085779878"><ele>119.0</ele><time>2026-04-08T17:50:28Z</time></trkpt><trkpt lat="44.542250432977404" lon="10.760618793416079"><ele>119.0</ele><time>2026-04-08T17:50:30Z</time></trkpt><trkpt lat="44.54215968882066" lon="10.760554129021143"><ele>119.0</ele><time>2026-04-08T17:50:32Z</time></trkpt><trkpt lat="44.5420981792533" lon="10.760425967704634"><ele>119.0</ele><time>2026-04-08T17:50:34Z</time></trkpt><trkpt lat="44.54201621316015" lon="10.760323778525272"><ele>119.0</ele><time>2026-04-08T17:50:36Z</time></trkpt><trkpt lat="44.54194226955444" lon="10.760226850739091"><ele>119.0</ele><time>2026-04-08T17:50:38Z</time></trkpt><trkpt lat="44.54186078930684" lon="10.76016443005831"><ele>120.16666666666666</ele><time>2026-04-08T17:50:40Z</time></trkpt><trkpt lat="44.541776404485546" lon="10.760128388415307"><ele>121.33333333333333</ele><time>2026-04-08T17:50:42Z</time></trkpt><trkpt lat="44.541689707720266" lon="10.760103288796051"><ele>122.5</ele><time>2026-04-08T17:50:44Z</time></trkpt><trkpt lat="44.54160376760127" lon="10.760071089220691"><ele>123.66666666666666</ele><time>2026-04-08T17:50:46Z</time></trkpt><trkpt lat="44.54152250321333" lon="10.760030238319104"><ele>124.83333333333333</ele><time>2026-04-08T17:50:48Z</time></trkpt><trkpt lat="44.54143824822127" lon="10.759984757329137"><ele>126.0</ele><time>2026-04-08T17:50:50Z</time></trkpt><trkpt lat="44.54135336301629" lon="10.759943974367088"><ele>126.0</ele><time>2026-04-08T17:50:52Z</time></trkpt><trkpt lat="44.54126852490498" lon="10.75990373389314"><ele>126.0</ele><time>2026-04-08T17:50:54Z</time></trkpt><trkpt lat="44.54120279258051" lon="10.759865542052545"><ele>126.0</ele><time>2026-04-08T17:50:56Z</time></trkpt><trkpt lat="44.541142337294566" lon="10.759796631957347"><ele>126.0</ele><time>2026-04-08T17:50:59Z</time></trkpt><trkpt lat="44.54117928521652" lon="10.759704198231466"><ele>126.0</ele><time>2026-04-08T17:51:01Z</time></trkpt><trkpt lat="44.5412270164889" lon="10.759608438545811"><ele>126.0</ele><time>2026-04-08T17:51:03Z</time></trkpt><trkpt lat="44.54125202049702" lon="10.759498607636004"><ele>126.0</ele><time>2026-04-08T17:51:05Z</time></trkpt><trkpt lat="44.54123880116049" lon="10.75938317842239"><ele>126.0</ele><time>2026-04-08T17:51:07Z</time></trkpt><trkpt lat="44.5411847074961" lon="10.759285094258136"><ele>126.0</ele><time>2026-04-08T17:51:09Z</time></trkpt><trkpt lat="44.54112464269764" lon="10.759197794822407"><ele>126.0</ele><time>2026-04-08T17:51:11Z</time></trkpt><trkpt lat="44.541059968603996" lon="10.759113104866168"><ele>126.0</ele><time>2026-04-08T17:51:13Z</time></trkpt><trkpt lat="44.54099778916063" lon="10.759025158411985"><ele>126.0</ele><time>2026-04-08T17:51:15Z</time></trkpt><trkpt lat="44.54095956546866" lon="10.758913717442205"><ele>126.8</ele><time>2026-04-08T17:51:17Z</time></trkpt><trkpt lat="44.540952537584" lon="10.758800467175895"><ele>127.6</ele><time>2026-04-08T17:51:19Z</time></trkpt><trkpt lat="44.54097414015926" lon="10.758675153543074"><ele>128.4</ele><time>2026-04-08T17:51:21Z</time></trkpt><trkpt lat="44.54099109611348" lon="10.758535034959037"><ele>129.2</ele><time>2026-04-08T17:51:23Z</time></trkpt><trkpt lat="44.54100886525314" lon="10.758387665798724"><ele>130.0</ele><time>2026-04-08T17:51:25Z</time></trkpt><trkpt lat="44.54101604798729" lon="10.758246854759722"><ele>131.0</ele><time>2026-04-08T17:51:27Z</time></trkpt><trkpt lat="44.54102519554853" lon="10.75811383283548"><ele>132.0</ele><time>2026-04-08T17:51:29Z</time></trkpt><trkpt lat="44.54103446552373" lon="10.757972105047905"><ele>133.0</ele><time>2026-04-08T17:51:31Z</time></trkpt><trkpt lat="44.54104921653083" lon="10.757833745906705"><ele>134.0</ele><time>2026-04-08T17:51:33Z</time></trkpt><trkpt lat="44.541056819716616" lon="10.757686211031821"><ele>135.0</ele><time>2026-04-08T17:51:35Z</time></trkpt><trkpt lat="44.54107483741571" lon="10.757546520971308"><ele>136.0</ele><time>2026-04-08T17:51:37Z</time></trkpt><trkpt lat="44.54109431217892" lon="10.757402353006965"><ele>137.0</ele><time>2026-04-08T17:51:39Z</time></trkpt><trkpt lat="44.54110577121801" lon="10.757254197292387"><ele>138.0</ele><time>2026-04-08T17:51:41Z</time></trkpt><trkpt lat="44.54110819307722" lon="10.757106271347517"><ele>139.0</ele><time>2026-04-08T17:51:43Z</time></trkpt><trkpt lat="44.54109531595933" lon="10.756965356188319"><ele>140.0</ele><time>2026-04-08T17:51:45Z</time></trkpt><trkpt lat="44.54108811953119" lon="10.756826295591852"><ele>140.8</ele><time>2026-04-08T17:51:47Z</time></trkpt><trkpt lat="44.5410678444498" lon="10.756693315464075"><ele>141.6</ele><time>2026-04-08T17:51:49Z</time></trkpt><trkpt lat="44.54104953652112" lon="10.756561199437007"><ele>142.4</ele><time>2026-04-08T17:51:51Z</time></trkpt><trkpt lat="44.54102274214669" lon="10.756432492305867"><ele>143.2</ele><time>2026-04-08T17:51:53Z</time></trkpt><trkpt lat="44.54100207498021" lon="10.756296717255713"><ele>144.0</ele><time>2026-04-08T17:51:55Z</time></trkpt><trkpt lat="44.5409755331504" lon="10.75617231407714"><ele>144.0</ele><time>2026-04-08T17:51:57Z</time></trkpt><trkpt lat="44.54095485465005" lon="10.756045747851942"><ele>144.0</ele><time>2026-04-08T17:51:59Z</time></trkpt><trkpt lat="44.54093005045014" lon="10.755914781283117"><ele>144.0</ele><time>2026-04-08T17:52:01Z</time></trkpt><trkpt lat="44.54090493937651" lon="10.755785531851977"><ele>144.0</ele><time>2026-04-08T17:52:03Z</time></trkpt><trkpt lat="44.54088286816231" lon="10.755656970975087"><ele>144.0</ele><time>2026-04-08T17:52:05Z</time></trkpt><trkpt lat="44.54085267620429" lon="10.755535579516033"><ele>145.4</ele><time>2026-04-08T17:52:07Z</time></trkpt><trkpt lat="44.540833338717604" lon="10.75540717797661"><ele>146.8</ele><time>2026-04-08T17:52:09Z</time></trkpt><trkpt lat="44.54080622185607" lon="10.755281043110454"><ele>148.2</ele><time>2026-04-08T17:52:11Z</time></trkpt><trkpt lat="44.54078430115396" lon="10.755155461642335"><ele>149.6</ele><time>2026-04-08T17:52:13Z</time></trkpt><trkpt lat="44.54076034884498" lon="10.755036668906463"><ele>151.0</ele><time>2026-04-08T17:52:15Z</time></trkpt><trkpt lat="44.5407354939937" lon="10.754924306551963"><ele>152.16666666666669</ele><time>2026-04-08T17:52:17Z</time></trkpt><trkpt lat="44.5407106237554" lon="10.754807693584514"><ele>153.33333333333334</ele><time>2026-04-08T17:52:19Z</time></trkpt><trkpt lat="44.54068543084902" lon="10.754694144528692"><ele>154.5</ele><time>2026-04-08T17:52:21Z</time></trkpt><trkpt lat="44.54071093865293" lon="10.754584967771855"><ele>155.66666666666666</ele><time>2026-04-08T17:52:23Z</time></trkpt><trkpt lat="44.54079538639496" lon="10.754575328794486"><ele>156.83333333333331</ele><time>2026-04-08T17:52:25Z</time></trkpt><trkpt lat="44.54082840611477" lon="10.754703224017893"><ele>158.0</ele><time>2026-04-08T17:52:27Z</time></trkpt><trkpt lat="44.540846820316155" lon="10.754825287220003"><ele>158.0</ele><time>2026-04-08T17:52:29Z</time></trkpt><trkpt lat="44.540876184235174" lon="10.754948517392382"><ele>158.0</ele><time>2026-04-08T17:52:31Z</time></trkpt><trkpt lat="44.54091677338569" lon="10.755075310701473"><ele>158.0</ele><time>2026-04-08T17:52:33Z</time></trkpt><trkpt lat="44.54096546808321" lon="10.755192030782405"><ele>158.0</ele><time>2026-04-08T17:52:35Z</time></trkpt><trkpt lat="44.54101890284866" lon="10.755290594462007"><ele>158.0</ele><time>2026-04-08T17:52:37Z</time></trkpt><trkpt lat="44.54107953068882" lon="10.755389319110044"><ele>156.6</ele><time>2026-04-08T17:52:39Z</time></trkpt><trkpt lat="44.541134785387655" lon="10.755493796360815"><ele>155.20000000000002</ele><time>2026-04-08T17:52:41Z</time></trkpt><trkpt lat="44.54119923478516" lon="10.755588754501092"><ele>153.8</ele><time>2026-04-08T17:52:43Z</time></trkpt><trkpt lat="44.541263642037" lon="10.75568916653677"><ele>152.4</ele><time>2026-04-08T17:52:45Z</time></trkpt><trkpt lat="44.54131791452466" lon="10.755786301089405"><ele>151.0</ele><time>2026-04-08T17:52:47Z</time></trkpt><trkpt lat="44.541375486789285" lon="10.75588898845368"><ele>153.33333333333334</ele><time>2026-04-08T17:52:49Z</time></trkpt><trkpt lat="44.54143539313751" lon="10.755978305388018"><ele>155.66666666666669</ele><time>2026-04-08T17:52:51Z</time></trkpt><trkpt lat="44.54149102831227" lon="10.756075879203602"><ele>158.0</ele><time>2026-04-08T17:52:53Z</time></trkpt><trkpt lat="44.541554025921684" lon="10.756163972971482"><ele>160.33333333333334</ele><time>2026-04-08T17:52:55Z</time></trkpt><trkpt lat="44.541607932522226" lon="10.756261740656676"><ele>162.66666666666666</ele><time>2026-04-08T17:52:57Z</time></trkpt><trkpt lat="44.541669649832166" lon="10.756352465957791"><ele>165.0</ele><time>2026-04-08T17:52:59Z</time></trkpt><trkpt lat="44.541736613025265" lon="10.7564425132099"><ele>165.0</ele><time>2026-04-08T17:53:01Z</time></trkpt><trkpt lat="44.541811169347405" lon="10.756529749862493"><ele>165.0</ele><time>2026-04-08T17:53:03Z</time></trkpt><trkpt lat="44.541881961408905" lon="10.756612775698864"><ele>165.0</ele><time>2026-04-08T17:53:05Z</time></trkpt><trkpt lat="44.541955552743524" lon="10.756702174628579"><ele>165.0</ele><time>2026-04-08T17:53:07Z</time></trkpt><trkpt lat="44.54202987843038" lon="10.756784880861062"><ele>165.0</ele><time>2026-04-08T17:53:09Z</time></trkpt><trkpt lat="44.542093600988956" lon="10.756876121212166"><ele>167.0</ele><time>2026-04-08T17:53:11Z</time></trkpt><trkpt lat="44.54215849170944" lon="10.756966999921572"><ele>169.0</ele><time>2026-04-08T17:53:13Z</time></trkpt><trkpt lat="44.54221361664101" lon="10.757060168777345"><ele>171.0</ele><time>2026-04-08T17:53:15Z</time></trkpt><trkpt lat="44.542259671264155" lon="10.75716369267714"><ele>173.0</ele><time>2026-04-08T17:53:17Z</time></trkpt><trkpt lat="44.54230648515449" lon="10.757271392661352"><ele>175.0</ele><time>2026-04-08T17:53:19Z</time></trkpt><trkpt lat="44.54236190872489" lon="10.757367693687144"><ele>177.0</ele><time>2026-04-08T17:53:21Z</time></trkpt><trkpt lat="44.54243106448034" lon="10.757436389535885"><ele>177.0</ele><time>2026-04-08T17:53:23Z</time></trkpt><trkpt lat="44.54251146455604" lon="10.757429141115427"><ele>177.0</ele><time>2026-04-08T17:53:25Z</time></trkpt><trkpt lat="44.54254928425036" lon="10.757316324383929"><ele>177.0</ele><time>2026-04-08T17:53:27Z</time></trkpt><trkpt lat="44.54249244092665" lon="10.757194227628473"><ele>177.0</ele><time>2026-04-08T17:53:29Z</time></trkpt><trkpt lat="44.54245984663647" lon="10.757076178208749"><ele>177.0</ele><time>2026-04-08T17:53:31Z</time></trkpt><trkpt lat="44.54242982528562" lon="10.756956875289005"><ele>178.6</ele><time>2026-04-08T17:53:33Z</time></trkpt><trkpt lat="44.542409378291595" lon="10.75682886532417"><ele>180.2</ele><time>2026-04-08T17:53:35Z</time></trkpt><trkpt lat="44.542387587014524" lon="10.756701340466826"><ele>181.8</ele><time>2026-04-08T17:53:37Z</time></trkpt><trkpt lat="44.542368938031984" lon="10.756583626212837"><ele>183.4</ele><time>2026-04-08T17:53:39Z</time></trkpt><trkpt lat="44.54235091037131" lon="10.75644781738128"><ele>185.0</ele><time>2026-04-08T17:53:41Z</time></trkpt><trkpt lat="44.54233348094419" lon="10.756301103025939"><ele>185.0</ele><time>2026-04-08T17:53:43Z</time></trkpt><trkpt lat="44.54231140154407" lon="10.75617766161472"><ele>185.0</ele><time>2026-04-08T17:53:45Z</time></trkpt><trkpt lat="44.54227966410506" lon="10.756053649670125"><ele>185.0</ele><time>2026-04-08T17:53:47Z</time></trkpt><trkpt lat="44.54224281585926" lon="10.755945508128175"><ele>185.0</ele><time>2026-04-08T17:53:49Z</time></trkpt><trkpt lat="44.54219662972055" lon="10.75582755683418"><ele>185.0</ele><time>2026-04-08T17:53:51Z</time></trkpt><trkpt lat="44.54215330807359" lon="10.755711314188332"><ele>186.2</ele><time>2026-04-08T17:53:53Z</time></trkpt><trkpt lat="44.542120607221065" lon="10.755583825221185"><ele>187.4</ele><time>2026-04-08T17:53:55Z</time></trkpt><trkpt lat="44.542129510956265" lon="10.755447525660996"><ele>188.60000000000002</ele><time>2026-04-08T17:53:57Z</time></trkpt><trkpt lat="44.54216607672029" lon="10.75532611700128"><ele>189.8</ele><time>2026-04-08T17:53:59Z</time></trkpt><trkpt lat="44.54222223802457" lon="10.75520184613073"><ele>191.0</ele><time>2026-04-08T17:54:01Z</time></trkpt><trkpt lat="44.5422731203589" lon="10.755077479631906"><ele>191.0</ele><time>2026-04-08T17:54:03Z</time></trkpt><trkpt lat="44.54232939898968" lon="10.754954764363688"><ele>191.0</ele><time>2026-04-08T17:54:05Z</time></trkpt><trkpt lat="44.54238712538126" lon="10.754827216640187"><ele>191.0</ele><time>2026-04-08T17:54:07Z</time></trkpt><trkpt lat="44.54243929156163" lon="10.754695969558727"><ele>191.0</ele><time>2026-04-08T17:54:09Z</time></trkpt><trkpt lat="44.542483486269774" lon="10.754559263215441"><ele>191.0</ele><time>2026-04-08T17:54:11Z</time></trkpt><trkpt lat="44.542466663359214" lon="10.75441119373289"><ele>191.0</ele><time>2026-04-08T17:54:13Z</time></trkpt><trkpt lat="44.542426558357604" lon="10.754266458099504"><ele>191.0</ele><time>2026-04-08T17:54:15Z</time></trkpt><trkpt lat="44.54237984403798" lon="10.754114758951362"><ele>191.0</ele><time>2026-04-08T17:54:17Z</time></trkpt><trkpt lat="44.542333086337244" lon="10.75395803843061"><ele>191.0</ele><time>2026-04-08T17:54:19Z</time></trkpt><trkpt lat="44.542288716942785" lon="10.753792155255345"><ele>191.0</ele><time>2026-04-08T17:54:21Z</time></trkpt><trkpt lat="44.54226865284717" lon="10.753705370179116"><ele>191.0</ele><time>2026-04-08T17:54:22Z</time></trkpt><trkpt lat="44.54224009977663" lon="10.753539808992628"><ele>191.0</ele><time>2026-04-08T17:54:24Z</time></trkpt><trkpt lat="44.54223395853095" lon="10.753448789674701"><ele>191.0</ele><time>2026-04-08T17:54:25Z</time></trkpt><trkpt lat="44.54221934101382" lon="10.753273717636468"><ele>191.0</ele><time>2026-04-08T17:54:27Z</time></trkpt><trkpt lat="44.5422017222366" lon="10.75310216201315"><ele>191.25</ele><time>2026-04-08T17:54:29Z</time></trkpt><trkpt lat="44.5421814960622" lon="10.75292893346096"><ele>191.5</ele><time>2026-04-08T17:54:31Z</time></trkpt><trkpt lat="44.54216462683456" lon="10.752759694698792"><ele>191.75</ele><time>2026-04-08T17:54:33Z</time></trkpt><trkpt lat="44.54214558121601" lon="10.752586080574362"><ele>192.0</ele><time>2026-04-08T17:54:35Z</time></trkpt><trkpt lat="44.54212979458696" lon="10.752415332115945"><ele>192.0</ele><time>2026-04-08T17:54:37Z</time></trkpt><trkpt lat="44.54210987849505" lon="10.752243751348386"><ele>192.0</ele><time>2026-04-08T17:54:39Z</time></trkpt><trkpt lat="44.542100635735636" lon="10.75215395839006"><ele>192.0</ele><time>2026-04-08T17:54:40Z</time></trkpt><trkpt lat="44.54208669944773" lon="10.75198262590264"><ele>192.0</ele><time>2026-04-08T17:54:42Z</time></trkpt><trkpt lat="44.54207480995357" lon="10.75189411514785"><ele>192.0</ele><time>2026-04-08T17:54:43Z</time></trkpt><trkpt lat="44.542065230765786" lon="10.75180523363667"><ele>192.0</ele><time>2026-04-08T17:54:44Z</time></trkpt><trkpt lat="44.54204546083312" lon="10.751630972221026"><ele>192.2</ele><time>2026-04-08T17:54:46Z</time></trkpt><trkpt lat="44.54202893737583" lon="10.751458772925043"><ele>192.39999999999998</ele><time>2026-04-08T17:54:48Z</time></trkpt><trkpt lat="44.542019630374064" lon="10.751370904310747"><ele>192.60000000000002</ele><time>2026-04-08T17:54:49Z</time></trkpt><trkpt lat="44.5419974513407" lon="10.751194912825456"><ele>192.8</ele><time>2026-04-08T17:54:51Z</time></trkpt><trkpt lat="44.541990867121136" lon="10.75110363431366"><ele>193.0</ele><time>2026-04-08T17:54:52Z</time></trkpt><trkpt lat="44.54196482602712" lon="10.75093474700098"><ele>193.60000000000002</ele><time>2026-04-08T17:54:54Z</time></trkpt><trkpt lat="44.54193582842512" lon="10.75076542006693"><ele>194.20000000000002</ele><time>2026-04-08T17:54:56Z</time></trkpt><trkpt lat="44.54192209136729" lon="10.750678859034128"><ele>194.8</ele><time>2026-04-08T17:54:57Z</time></trkpt><trkpt lat="44.54190605605454" lon="10.750588972762126"><ele>195.4</ele><time>2026-04-08T17:54:58Z</time></trkpt><trkpt lat="44.54187297063528" lon="10.750421018437072"><ele>196.0</ele><time>2026-04-08T17:55:00Z</time></trkpt><trkpt lat="44.54183627859736" lon="10.750250534975583"><ele>196.57142857142858</ele><time>2026-04-08T17:55:02Z</time></trkpt><trkpt lat="44.54182137870014" lon="10.75016271648205"><ele>197.14285714285714</ele><time>2026-04-08T17:55:03Z</time></trkpt><trkpt lat="44.54180616766817" lon="10.750076033814366"><ele>197.71428571428572</ele><time>2026-04-08T17:55:04Z</time></trkpt><trkpt lat="44.54178921120156" lon="10.749986673156712"><ele>198.28571428571428</ele><time>2026-04-08T17:55:05Z</time></trkpt><trkpt lat="44.541772097551295" lon="10.74990038132804"><ele>198.85714285714286</ele><time>2026-04-08T17:55:06Z</time></trkpt><trkpt lat="44.5417510692223" lon="10.749813914486017"><ele>199.42857142857144</ele><time>2026-04-08T17:55:07Z</time></trkpt><trkpt lat="44.541738584700454" lon="10.7497244923292"><ele>200.0</ele><time>2026-04-08T17:55:08Z</time></trkpt><trkpt lat="44.541706398486916" lon="10.74955714489487"><ele>200.0</ele><time>2026-04-08T17:55:10Z</time></trkpt><trkpt lat="44.54168913366995" lon="10.749471540666994"><ele>200.0</ele><time>2026-04-08T17:55:11Z</time></trkpt><trkpt lat="44.54167378202191" lon="10.749385151090474"><ele>200.0</ele><time>2026-04-08T17:55:12Z</time></trkpt><trkpt lat="44.54163849509721" lon="10.749213398623764"><ele>200.0</ele><time>2026-04-08T17:55:14Z</time></trkpt><trkpt lat="44.541603394823674" lon="10.749042510013263"><ele>200.0</ele><time>2026-04-08T17:55:16Z</time></trkpt><trkpt lat="44.54157318809032" lon="10.748878788710432"><ele>200.50000000000003</ele><time>2026-04-08T17:55:18Z</time></trkpt><trkpt lat="44.541516432436886" lon="10.748723814989841"><ele>201.0</ele><time>2026-04-08T17:55:20Z</time></trkpt><trkpt lat="44.54143526102502" lon="10.74859066383731"><ele>201.5</ele><time>2026-04-08T17:55:22Z</time></trkpt><trkpt lat="44.54139010415098" lon="10.748526612244072"><ele>202.0</ele><time>2026-04-08T17:55:23Z</time></trkpt><trkpt lat="44.5413412014347" lon="10.748469263383932"><ele>202.50000000000003</ele><time>2026-04-08T17:55:24Z</time></trkpt><trkpt lat="44.54128409000467" lon="10.748420031083207"><ele>203.0</ele><time>2026-04-08T17:55:25Z</time></trkpt><trkpt lat="44.541227880451494" lon="10.748371377638517"><ele>202.60000000000002</ele><time>2026-04-08T17:55:26Z</time></trkpt><trkpt lat="44.54116968743347" lon="10.748336195459247"><ele>202.20000000000002</ele><time>2026-04-08T17:55:27Z</time></trkpt><trkpt lat="44.541065170953026" lon="10.748243709125797"><ele>201.8</ele><time>2026-04-08T17:55:29Z</time></trkpt><trkpt lat="44.54096301659803" lon="10.748144591970604"><ele>201.4</ele><time>2026-04-08T17:55:31Z</time></trkpt><trkpt lat="44.54087778240314" lon="10.748014870463297"><ele>201.0</ele><time>2026-04-08T17:55:33Z</time></trkpt><trkpt lat="44.54080144287496" lon="10.747873776728014"><ele>201.0</ele><time>2026-04-08T17:55:35Z</time></trkpt><trkpt lat="44.540765214584674" lon="10.747799579822724"><ele>201.0</ele><time>2026-04-08T17:55:36Z</time></trkpt><trkpt lat="44.54070037995002" lon="10.747652756248304"><ele>201.0</ele><time>2026-04-08T17:55:38Z</time></trkpt><trkpt lat="44.540632711466564" lon="10.747515664240657"><ele>201.0</ele><time>2026-04-08T17:55:40Z</time></trkpt><trkpt lat="44.540568676292004" lon="10.747370536881766"><ele>201.0</ele><time>2026-04-08T17:55:42Z</time></trkpt><trkpt lat="44.540503956221634" lon="10.747226578698406"><ele>201.8</ele><time>2026-04-08T17:55:44Z</time></trkpt><trkpt lat="44.54043964681629" lon="10.747078580268566"><ele>202.60000000000002</ele><time>2026-04-08T17:55:46Z</time></trkpt><trkpt lat="44.54036780411279" lon="10.746942877329838"><ele>203.4</ele><time>2026-04-08T17:55:48Z</time></trkpt><trkpt lat="44.5403033732082" lon="10.746799187322328"><ele>204.2</ele><time>2026-04-08T17:55:50Z</time></trkpt><trkpt lat="44.54026498447018" lon="10.746728723825752"><ele>205.0</ele><time>2026-04-08T17:55:51Z</time></trkpt><trkpt lat="44.5401871076202" lon="10.746596122601161"><ele>205.8</ele><time>2026-04-08T17:55:53Z</time></trkpt><trkpt lat="44.54010626724509" lon="10.746474348439083"><ele>206.6</ele><time>2026-04-08T17:55:55Z</time></trkpt><trkpt lat="44.540019991194" lon="10.746367350080641"><ele>207.39999999999998</ele><time>2026-04-08T17:55:57Z</time></trkpt><trkpt lat="44.53995156613617" lon="10.746266972656462"><ele>208.2</ele><time>2026-04-08T17:55:59Z</time></trkpt><trkpt lat="44.53990568314394" lon="10.746179488686924"><ele>209.0</ele><time>2026-04-08T17:56:01Z</time></trkpt><trkpt lat="44.53992130193768" lon="10.746060911164601"><ele>209.0</ele><time>2026-04-08T17:56:04Z</time></trkpt><trkpt lat="44.53994968174938" lon="10.745972827888584"><ele>209.0</ele><time>2026-04-08T17:56:45Z</time></trkpt><trkpt lat="44.53999322970827" lon="10.745903411671748"><ele>209.0</ele><time>2026-04-08T17:56:48Z</time></trkpt><trkpt lat="44.540019619336356" lon="10.74581724847977"><ele>209.0</ele><time>2026-04-08T17:56:51Z</time></trkpt><trkpt lat="44.54004109670091" lon="10.745723454624507"><ele>209.0</ele><time>2026-04-08T17:56:56Z</time></trkpt><trkpt lat="44.540059714744274" lon="10.745815385214817"><ele>209.0</ele><time>2026-04-08T17:57:28.999Z</time></trkpt><trkpt lat="44.54008829108401" lon="10.745940613559894"><ele>209.0</ele><time>2026-04-08T17:57:30.999Z</time></trkpt><trkpt lat="44.540094817546546" lon="10.74584406363147"><ele>209.0</ele><time>2026-04-08T17:57:31.999Z</time></trkpt></trkseg></trk></gpx>